<?xml version='1.0' encoding='UTF-8'?><gpx version="1.1" creator="JPX - https://github.com/jenetics/jpx" xmlns="http://www.topografix.com/GPX/1/1"><trk><trkseg><trkpt lat="44.7397036" lon="9.6651661"><ele>926.9999999999999</ele><time>2026-04-05T08:12:12.652Z</time></trkpt><trkpt lat="44.7396415" lon="9.6652092"><ele>927.0</ele><time>2026-04-05T08:12:18.684Z</time></trkpt><trkpt lat="44.7395833" lon="9.6652548"><ele>926.9999999999999</ele><time>2026-04-05T08:12:24.716Z</time></trkpt><trkpt lat="44.7395235" lon="9.6653034"><ele>926.9999999999999</ele><time>2026-04-05T08:12:31.574Z</time></trkpt><trkpt lat="44.7394724" lon="9.6653773"><ele>927.0</ele><time>2026-04-05T08:12:38.652Z</time></trkpt><trkpt lat="44.7394297" lon="9.6654513"><ele>926.9999999999999</ele><time>2026-04-05T08:12:44.683Z</time></trkpt><trkpt lat="44.7393929" lon="9.6655247"><ele>926.9999999999999</ele><time>2026-04-05T08:12:50.657Z</time></trkpt><trkpt lat="44.7393575" lon="9.6656048"><ele>928.2857142857142</ele><time>2026-04-05T08:12:57.684Z</time></trkpt><trkpt lat="44.7393209" lon="9.6656844"><ele>929.5714285714286</ele><time>2026-04-05T08:13:04.652Z</time></trkpt><trkpt lat="44.739278" lon="9.665764"><ele>930.8571428571429</ele><time>2026-04-05T08:13:10.675Z</time></trkpt><trkpt lat="44.7392311" lon="9.6658263"><ele>932.1428571428571</ele><time>2026-04-05T08:13:15.676Z</time></trkpt><trkpt lat="44.7391792" lon="9.6658989"><ele>933.4285714285716</ele><time>2026-04-05T08:13:21.732Z</time></trkpt><trkpt lat="44.7391297" lon="9.6659578"><ele>934.7142857142858</ele><time>2026-04-05T08:13:26.699Z</time></trkpt><trkpt lat="44.7390887" lon="9.6660444"><ele>936.0</ele><time>2026-04-05T08:13:32.628Z</time></trkpt><trkpt lat="44.7390232" lon="9.6660937"><ele>935.5714285714287</ele><time>2026-04-05T08:13:38.731Z</time></trkpt><trkpt lat="44.7389826" lon="9.6661741"><ele>935.1428571428572</ele><time>2026-04-05T08:13:45.627Z</time></trkpt><trkpt lat="44.7389307" lon="9.6662433"><ele>934.7142857142858</ele><time>2026-04-05T08:13:52.7Z</time></trkpt><trkpt lat="44.7388813" lon="9.6663163"><ele>934.2857142857142</ele><time>2026-04-05T08:13:58.627Z</time></trkpt><trkpt lat="44.7388382" lon="9.6663831"><ele>933.8571428571428</ele><time>2026-04-05T08:14:03.62Z</time></trkpt><trkpt lat="44.7387843" lon="9.6664412"><ele>933.4285714285713</ele><time>2026-04-05T08:14:09.73Z</time></trkpt><trkpt lat="44.7387406" lon="9.6665063"><ele>933.0</ele><time>2026-04-05T08:14:15.684Z</time></trkpt><trkpt lat="44.7386991" lon="9.6665892"><ele>933.0</ele><time>2026-04-05T08:14:20.676Z</time></trkpt><trkpt lat="44.7386646" lon="9.666672"><ele>932.9999999999999</ele><time>2026-04-05T08:14:25.573Z</time></trkpt><trkpt lat="44.7386092" lon="9.6667379"><ele>933.0</ele><time>2026-04-05T08:14:31.7Z</time></trkpt><trkpt lat="44.7385579" lon="9.666794"><ele>933.0</ele><time>2026-04-05T08:14:36.6Z</time></trkpt><trkpt lat="44.7385142" lon="9.6668627"><ele>932.9999999999999</ele><time>2026-04-05T08:14:41.68Z</time></trkpt><trkpt lat="44.7384542" lon="9.6668952"><ele>933.0</ele><time>2026-04-05T08:14:46.61Z</time></trkpt><trkpt lat="44.7384082" lon="9.6669643"><ele>933.0</ele><time>2026-04-05T08:14:52.701Z</time></trkpt><trkpt lat="44.7384202" lon="9.6670521"><ele>934.8571428571428</ele><time>2026-04-05T08:14:59.672Z</time></trkpt><trkpt lat="44.7384037" lon="9.6671447"><ele>936.7142857142856</ele><time>2026-04-05T08:15:04.664Z</time></trkpt><trkpt lat="44.7384034" lon="9.6672489"><ele>938.5714285714286</ele><time>2026-04-05T08:15:10.696Z</time></trkpt><trkpt lat="44.7383486" lon="9.6673044"><ele>940.4285714285713</ele><time>2026-04-05T08:15:15.688Z</time></trkpt><trkpt lat="44.7383224" lon="9.6673969"><ele>942.2857142857142</ele><time>2026-04-05T08:15:21.719Z</time></trkpt><trkpt lat="44.7383094" lon="9.6674956"><ele>944.1428571428571</ele><time>2026-04-05T08:15:26.712Z</time></trkpt><trkpt lat="44.73831" lon="9.6676013"><ele>946.0</ele><time>2026-04-05T08:15:32.64Z</time></trkpt><trkpt lat="44.738313" lon="9.6677005"><ele>946.2857142857143</ele><time>2026-04-05T08:15:38.672Z</time></trkpt><trkpt lat="44.7383188" lon="9.6677966"><ele>946.5714285714284</ele><time>2026-04-05T08:15:44.703Z</time></trkpt><trkpt lat="44.7383065" lon="9.667885"><ele>946.8571428571428</ele><time>2026-04-05T08:15:49.591Z</time></trkpt><trkpt lat="44.7382741" lon="9.667963"><ele>947.1428571428571</ele><time>2026-04-05T08:15:54.687Z</time></trkpt><trkpt lat="44.7382116" lon="9.6680211"><ele>947.4285714285713</ele><time>2026-04-05T08:16:00.616Z</time></trkpt><trkpt lat="44.7381513" lon="9.6680607"><ele>947.7142857142856</ele><time>2026-04-05T08:16:06.648Z</time></trkpt><trkpt lat="44.7380878" lon="9.6680926"><ele>947.9999999999999</ele><time>2026-04-05T08:16:12.691Z</time></trkpt><trkpt lat="44.7380279" lon="9.6681354"><ele>947.9999999999999</ele><time>2026-04-05T08:16:18.61Z</time></trkpt><trkpt lat="44.7379653" lon="9.6681865"><ele>948.0</ele><time>2026-04-05T08:16:25.692Z</time></trkpt><trkpt lat="44.7379095" lon="9.6682333"><ele>947.9999999999999</ele><time>2026-04-05T08:16:31.712Z</time></trkpt><trkpt lat="44.7378492" lon="9.668285"><ele>947.9999999999999</ele><time>2026-04-05T08:16:38.632Z</time></trkpt><trkpt lat="44.7377869" lon="9.668325"><ele>948.0</ele><time>2026-04-05T08:16:44.712Z</time></trkpt><trkpt lat="44.7377274" lon="9.6683766"><ele>947.9999999999999</ele><time>2026-04-05T08:16:50.64Z</time></trkpt><trkpt lat="44.7376673" lon="9.6684252"><ele>947.9999999999999</ele><time>2026-04-05T08:16:56.672Z</time></trkpt><trkpt lat="44.7376089" lon="9.6684806"><ele>948.5714285714284</ele><time>2026-04-05T08:17:02.704Z</time></trkpt><trkpt lat="44.7375532" lon="9.6685388"><ele>949.1428571428571</ele><time>2026-04-05T08:17:08.712Z</time></trkpt><trkpt lat="44.7374931" lon="9.6685932"><ele>949.7142857142857</ele><time>2026-04-05T08:17:15.703Z</time></trkpt><trkpt lat="44.7374417" lon="9.6686476"><ele>950.2857142857142</ele><time>2026-04-05T08:17:21.61Z</time></trkpt><trkpt lat="44.7373855" lon="9.6687003"><ele>950.8571428571429</ele><time>2026-04-05T08:17:27.664Z</time></trkpt><trkpt lat="44.7373293" lon="9.668769"><ele>951.4285714285714</ele><time>2026-04-05T08:17:33.713Z</time></trkpt><trkpt lat="44.737277" lon="9.6688255"><ele>952.0</ele><time>2026-04-05T08:17:39.624Z</time></trkpt><trkpt lat="44.7372192" lon="9.6688696"><ele>952.0</ele><time>2026-04-05T08:17:45.715Z</time></trkpt><trkpt lat="44.7371603" lon="9.6689202"><ele>952.0</ele><time>2026-04-05T08:17:51.687Z</time></trkpt><trkpt lat="44.7370989" lon="9.6689714"><ele>952.0</ele><time>2026-04-05T08:17:57.615Z</time></trkpt><trkpt lat="44.7370373" lon="9.6690103"><ele>952.0</ele><time>2026-04-05T08:18:03.647Z</time></trkpt><trkpt lat="44.7369729" lon="9.6690417"><ele>952.0</ele><time>2026-04-05T08:18:09.576Z</time></trkpt><trkpt lat="44.7369157" lon="9.6690796"><ele>952.0</ele><time>2026-04-05T08:18:14.672Z</time></trkpt><trkpt lat="44.7368622" lon="9.6691395"><ele>952.0</ele><time>2026-04-05T08:18:20.704Z</time></trkpt><trkpt lat="44.736802" lon="9.6691889"><ele>953.1428571428571</ele><time>2026-04-05T08:18:26.632Z</time></trkpt><trkpt lat="44.7367406" lon="9.6692353"><ele>954.2857142857142</ele><time>2026-04-05T08:18:32.664Z</time></trkpt><trkpt lat="44.736679" lon="9.6692741"><ele>955.4285714285714</ele><time>2026-04-05T08:18:38.696Z</time></trkpt><trkpt lat="44.7366121" lon="9.6693196"><ele>956.5714285714286</ele><time>2026-04-05T08:18:45.664Z</time></trkpt><trkpt lat="44.7365578" lon="9.6693732"><ele>957.7142857142857</ele><time>2026-04-05T08:18:51.696Z</time></trkpt><trkpt lat="44.7364953" lon="9.6694173"><ele>958.8571428571429</ele><time>2026-04-05T08:18:57.591Z</time></trkpt><trkpt lat="44.7364361" lon="9.6694577"><ele>960.0</ele><time>2026-04-05T08:19:03.655Z</time></trkpt><trkpt lat="44.7363804" lon="9.6695146"><ele>960.0</ele><time>2026-04-05T08:19:09.632Z</time></trkpt><trkpt lat="44.7363197" lon="9.6695531"><ele>960.0</ele><time>2026-04-05T08:19:15.696Z</time></trkpt><trkpt lat="44.7362634" lon="9.6696012"><ele>960.0</ele><time>2026-04-05T08:19:21.712Z</time></trkpt><trkpt lat="44.7361963" lon="9.6696334"><ele>960.0</ele><time>2026-04-05T08:19:28.72Z</time></trkpt><trkpt lat="44.736124" lon="9.6696484"><ele>960.0</ele><time>2026-04-05T08:19:35.688Z</time></trkpt><trkpt lat="44.7360589" lon="9.6696734"><ele>960.0</ele><time>2026-04-05T08:19:41.72Z</time></trkpt><trkpt lat="44.7359903" lon="9.6696804"><ele>960.0</ele><time>2026-04-05T08:19:47.648Z</time></trkpt><trkpt lat="44.7359211" lon="9.6696895"><ele>962.0</ele><time>2026-04-05T08:19:53.679Z</time></trkpt><trkpt lat="44.7358482" lon="9.6696903"><ele>964.0</ele><time>2026-04-05T08:19:59.712Z</time></trkpt><trkpt lat="44.7357851" lon="9.6696933"><ele>966.0</ele><time>2026-04-05T08:20:05.64Z</time></trkpt><trkpt lat="44.7357142" lon="9.669686"><ele>968.0</ele><time>2026-04-05T08:20:12.697Z</time></trkpt><trkpt lat="44.7356457" lon="9.6696757"><ele>970.0</ele><time>2026-04-05T08:20:19.679Z</time></trkpt><trkpt lat="44.735584" lon="9.6697073"><ele>972.0</ele><time>2026-04-05T08:20:25.712Z</time></trkpt><trkpt lat="44.7355318" lon="9.6697579"><ele>974.0</ele><time>2026-04-05T08:20:30.704Z</time></trkpt><trkpt lat="44.7354921" lon="9.6696429"><ele>974.0</ele><time>2026-04-05T08:23:11.695Z</time></trkpt><trkpt lat="44.7354231" lon="9.6696719"><ele>974.0</ele><time>2026-04-05T08:23:18.65Z</time></trkpt><trkpt lat="44.735361" lon="9.6697167"><ele>974.0</ele><time>2026-04-05T08:23:24.696Z</time></trkpt><trkpt lat="44.7352915" lon="9.6697266"><ele>974.0</ele><time>2026-04-05T08:23:30.623Z</time></trkpt><trkpt lat="44.7352149" lon="9.6697324"><ele>974.0</ele><time>2026-04-05T08:23:36.691Z</time></trkpt><trkpt lat="44.7351476" lon="9.6697187"><ele>974.0</ele><time>2026-04-05T08:23:43.624Z</time></trkpt><trkpt lat="44.7350727" lon="9.6697155"><ele>974.0</ele><time>2026-04-05T08:23:50.695Z</time></trkpt><trkpt lat="44.7350051" lon="9.6696882"><ele>975.1428571428571</ele><time>2026-04-05T08:23:56.631Z</time></trkpt><trkpt lat="44.734942" lon="9.6696558"><ele>976.2857142857142</ele><time>2026-04-05T08:24:02.655Z</time></trkpt><trkpt lat="44.7348659" lon="9.6696407"><ele>977.4285714285713</ele><time>2026-04-05T08:24:08.687Z</time></trkpt><trkpt lat="44.7347953" lon="9.6696424"><ele>978.5714285714286</ele><time>2026-04-05T08:24:13.593Z</time></trkpt><trkpt lat="44.7347208" lon="9.6696231"><ele>979.7142857142856</ele><time>2026-04-05T08:24:19.712Z</time></trkpt><trkpt lat="44.7346528" lon="9.6695902"><ele>980.8571428571428</ele><time>2026-04-05T08:24:25.639Z</time></trkpt><trkpt lat="44.7345796" lon="9.6695715"><ele>982.0</ele><time>2026-04-05T08:24:31.577Z</time></trkpt><trkpt lat="44.7345101" lon="9.6695504"><ele>982.0</ele><time>2026-04-05T08:24:37.655Z</time></trkpt><trkpt lat="44.7344472" lon="9.6695334"><ele>981.9999999999999</ele><time>2026-04-05T08:24:42.696Z</time></trkpt><trkpt lat="44.7343823" lon="9.6695206"><ele>982.0</ele><time>2026-04-05T08:24:47.688Z</time></trkpt><trkpt lat="44.7343144" lon="9.669532"><ele>982.0</ele><time>2026-04-05T08:24:53.719Z</time></trkpt><trkpt lat="44.7342499" lon="9.6695501"><ele>981.9999999999999</ele><time>2026-04-05T08:24:59.648Z</time></trkpt><trkpt lat="44.7341783" lon="9.6695725"><ele>982.0</ele><time>2026-04-05T08:25:05.68Z</time></trkpt><trkpt lat="44.7341103" lon="9.6695963"><ele>982.0</ele><time>2026-04-05T08:25:10.672Z</time></trkpt><trkpt lat="44.7340483" lon="9.6696451"><ele>983.0</ele><time>2026-04-05T08:25:15.663Z</time></trkpt><trkpt lat="44.7339956" lon="9.6697097"><ele>983.9999999999999</ele><time>2026-04-05T08:25:22.632Z</time></trkpt><trkpt lat="44.7339387" lon="9.6697662"><ele>985.0</ele><time>2026-04-05T08:25:27.595Z</time></trkpt><trkpt lat="44.7338802" lon="9.6698165"><ele>986.0</ele><time>2026-04-05T08:25:31.68Z</time></trkpt><trkpt lat="44.7338183" lon="9.6698586"><ele>986.9999999999999</ele><time>2026-04-05T08:25:37.711Z</time></trkpt><trkpt lat="44.7337554" lon="9.6699165"><ele>988.0</ele><time>2026-04-05T08:25:43.639Z</time></trkpt><trkpt lat="44.733688" lon="9.6699432"><ele>989.0</ele><time>2026-04-05T08:25:48.631Z</time></trkpt><trkpt lat="44.7336127" lon="9.669966"><ele>988.8571428571428</ele><time>2026-04-05T08:25:55.896Z</time></trkpt><trkpt lat="44.7335404" lon="9.6699916"><ele>988.7142857142856</ele><time>2026-04-05T08:26:01.171Z</time></trkpt><trkpt lat="44.7334661" lon="9.6700106"><ele>988.5714285714286</ele><time>2026-04-05T08:26:06.511Z</time></trkpt><trkpt lat="44.7333954" lon="9.6700289"><ele>988.4285714285713</ele><time>2026-04-05T08:26:12.655Z</time></trkpt><trkpt lat="44.7333243" lon="9.6700258"><ele>988.2857142857142</ele><time>2026-04-05T08:26:17.647Z</time></trkpt><trkpt lat="44.7332619" lon="9.6700114"><ele>988.1428571428571</ele><time>2026-04-05T08:26:22.732Z</time></trkpt><trkpt lat="44.7331992" lon="9.6699996"><ele>988.0</ele><time>2026-04-05T08:26:28.671Z</time></trkpt><trkpt lat="44.7331317" lon="9.669998"><ele>988.0</ele><time>2026-04-05T08:26:33.663Z</time></trkpt><trkpt lat="44.7330683" lon="9.6699908"><ele>988.0</ele><time>2026-04-05T08:26:38.352Z</time></trkpt><trkpt lat="44.7329912" lon="9.6699821"><ele>988.0</ele><time>2026-04-05T08:26:44.671Z</time></trkpt><trkpt lat="44.732925" lon="9.6699707"><ele>988.0</ele><time>2026-04-05T08:26:49.68Z</time></trkpt><trkpt lat="44.7328528" lon="9.6699483"><ele>988.0</ele><time>2026-04-05T08:26:54.591Z</time></trkpt><trkpt lat="44.7327843" lon="9.6699185"><ele>988.0</ele><time>2026-04-05T08:26:59.664Z</time></trkpt><trkpt lat="44.7327266" lon="9.6698744"><ele>988.0</ele><time>2026-04-05T08:27:05.696Z</time></trkpt><trkpt lat="44.7326684" lon="9.6698384"><ele>987.7142857142858</ele><time>2026-04-05T08:27:10.687Z</time></trkpt><trkpt lat="44.7326041" lon="9.6697857"><ele>987.4285714285713</ele><time>2026-04-05T08:27:16.592Z</time></trkpt><trkpt lat="44.7325514" lon="9.6697205"><ele>987.1428571428571</ele><time>2026-04-05T08:27:23.688Z</time></trkpt><trkpt lat="44.7324902" lon="9.6696637"><ele>986.8571428571429</ele><time>2026-04-05T08:27:28.68Z</time></trkpt><trkpt lat="44.7324241" lon="9.6695991"><ele>986.5714285714287</ele><time>2026-04-05T08:27:33.712Z</time></trkpt><trkpt lat="44.7323861" lon="9.6695124"><ele>986.2857142857142</ele><time>2026-04-05T08:27:39.704Z</time></trkpt><trkpt lat="44.7323404" lon="9.6694363"><ele>986.0</ele><time>2026-04-05T08:27:44.696Z</time></trkpt><trkpt lat="44.7323006" lon="9.6693618"><ele>985.1428571428571</ele><time>2026-04-05T08:27:49.711Z</time></trkpt><trkpt lat="44.73227" lon="9.6692811"><ele>984.2857142857143</ele><time>2026-04-05T08:27:54.657Z</time></trkpt><trkpt lat="44.7322383" lon="9.6692039"><ele>983.4285714285714</ele><time>2026-04-05T08:27:59.671Z</time></trkpt><trkpt lat="44.7322004" lon="9.6691296"><ele>982.5714285714286</ele><time>2026-04-05T08:28:04.663Z</time></trkpt><trkpt lat="44.7321687" lon="9.6690512"><ele>981.7142857142858</ele><time>2026-04-05T08:28:09.655Z</time></trkpt><trkpt lat="44.7321396" lon="9.668961"><ele>980.8571428571429</ele><time>2026-04-05T08:28:16.728Z</time></trkpt><trkpt lat="44.7321021" lon="9.6688878"><ele>980.0</ele><time>2026-04-05T08:28:21.72Z</time></trkpt><trkpt lat="44.7320556" lon="9.6688074"><ele>980.0</ele><time>2026-04-05T08:28:27.648Z</time></trkpt><trkpt lat="44.7320223" lon="9.6687245"><ele>980.0</ele><time>2026-04-05T08:28:32.611Z</time></trkpt><trkpt lat="44.7319899" lon="9.6686411"><ele>980.0</ele><time>2026-04-05T08:28:38.731Z</time></trkpt><trkpt lat="44.7319424" lon="9.6685669"><ele>980.0</ele><time>2026-04-05T08:28:44.703Z</time></trkpt><trkpt lat="44.731902" lon="9.6684907"><ele>980.0</ele><time>2026-04-05T08:28:49.712Z</time></trkpt><trkpt lat="44.7318463" lon="9.6684304"><ele>980.0</ele><time>2026-04-05T08:28:54.711Z</time></trkpt><trkpt lat="44.7317952" lon="9.6683537"><ele>980.0</ele><time>2026-04-05T08:29:00.616Z</time></trkpt><trkpt lat="44.7317262" lon="9.6683091"><ele>980.5714285714286</ele><time>2026-04-05T08:29:06.647Z</time></trkpt><trkpt lat="44.7316688" lon="9.6682451"><ele>981.1428571428571</ele><time>2026-04-05T08:29:12.68Z</time></trkpt><trkpt lat="44.7316064" lon="9.6681851"><ele>981.7142857142858</ele><time>2026-04-05T08:29:18.632Z</time></trkpt><trkpt lat="44.7315513" lon="9.6681401"><ele>982.2857142857143</ele><time>2026-04-05T08:29:23.691Z</time></trkpt><trkpt lat="44.7314922" lon="9.6680872"><ele>982.8571428571429</ele><time>2026-04-05T08:29:28.696Z</time></trkpt><trkpt lat="44.7314255" lon="9.6680449"><ele>983.4285714285716</ele><time>2026-04-05T08:29:34.623Z</time></trkpt><trkpt lat="44.7313631" lon="9.6680187"><ele>984.0000000000001</ele><time>2026-04-05T08:29:39.719Z</time></trkpt><trkpt lat="44.7313027" lon="9.6679824"><ele>984.0000000000001</ele><time>2026-04-05T08:29:44.711Z</time></trkpt><trkpt lat="44.7312382" lon="9.6679433"><ele>984.0</ele><time>2026-04-05T08:29:50.69Z</time></trkpt><trkpt lat="44.7311899" lon="9.6678849"><ele>984.0000000000001</ele><time>2026-04-05T08:29:56.671Z</time></trkpt><trkpt lat="44.7311908" lon="9.6677943"><ele>984.0000000000001</ele><time>2026-04-05T08:30:02.703Z</time></trkpt><trkpt lat="44.731197" lon="9.6677011"><ele>984.0</ele><time>2026-04-05T08:30:09.671Z</time></trkpt><trkpt lat="44.7311877" lon="9.667605"><ele>984.0000000000001</ele><time>2026-04-05T08:30:17.679Z</time></trkpt><trkpt lat="44.7311478" lon="9.667526"><ele>984.0000000000001</ele><time>2026-04-05T08:30:23.65Z</time></trkpt><trkpt lat="44.7310835" lon="9.6675275"><ele>983.857142857143</ele><time>2026-04-05T08:30:31.616Z</time></trkpt><trkpt lat="44.7310592" lon="9.6674205"><ele>983.7142857142858</ele><time>2026-04-05T08:30:57.719Z</time></trkpt><trkpt lat="44.7310161" lon="9.6673439"><ele>983.5714285714286</ele><time>2026-04-05T08:31:01.65Z</time></trkpt><trkpt lat="44.7309642" lon="9.6672763"><ele>983.4285714285714</ele><time>2026-04-05T08:31:06.712Z</time></trkpt><trkpt lat="44.7309013" lon="9.6672363"><ele>983.2857142857142</ele><time>2026-04-05T08:31:13.631Z</time></trkpt><trkpt lat="44.7308366" lon="9.6672003"><ele>983.142857142857</ele><time>2026-04-05T08:31:19.664Z</time></trkpt><trkpt lat="44.7307736" lon="9.6671678"><ele>982.9999999999999</ele><time>2026-04-05T08:31:25.695Z</time></trkpt><trkpt lat="44.7307133" lon="9.6671193"><ele>982.9999999999999</ele><time>2026-04-05T08:31:30.688Z</time></trkpt><trkpt lat="44.7306486" lon="9.6670823"><ele>983.0</ele><time>2026-04-05T08:31:36.719Z</time></trkpt><trkpt lat="44.7305855" lon="9.667054"><ele>982.9999999999999</ele><time>2026-04-05T08:31:41.712Z</time></trkpt><trkpt lat="44.7305303" lon="9.6669982"><ele>982.9999999999999</ele><time>2026-04-05T08:31:46.599Z</time></trkpt><trkpt lat="44.7304882" lon="9.6669174"><ele>983.0</ele><time>2026-04-05T08:31:52.691Z</time></trkpt><trkpt lat="44.7304535" lon="9.666831"><ele>982.9999999999999</ele><time>2026-04-05T08:31:58.664Z</time></trkpt><trkpt lat="44.7304242" lon="9.6667341"><ele>982.9999999999999</ele><time>2026-04-05T08:32:04.696Z</time></trkpt><trkpt lat="44.7303996" lon="9.6666329"><ele>982.9999999999999</ele><time>2026-04-05T08:32:09.712Z</time></trkpt><trkpt lat="44.730378" lon="9.6665382"><ele>983.0</ele><time>2026-04-05T08:32:15.61Z</time></trkpt><trkpt lat="44.7303562" lon="9.6664496"><ele>982.9999999999999</ele><time>2026-04-05T08:32:21.647Z</time></trkpt><trkpt lat="44.7303067" lon="9.6663775"><ele>982.9999999999999</ele><time>2026-04-05T08:32:26.64Z</time></trkpt><trkpt lat="44.7302597" lon="9.6663035"><ele>983.0</ele><time>2026-04-05T08:32:31.671Z</time></trkpt><trkpt lat="44.7302135" lon="9.6662233"><ele>982.9999999999999</ele><time>2026-04-05T08:32:37.731Z</time></trkpt><trkpt lat="44.7301636" lon="9.6661535"><ele>982.9999999999999</ele><time>2026-04-05T08:32:43.695Z</time></trkpt><trkpt lat="44.7301114" lon="9.6660991"><ele>982.9999999999999</ele><time>2026-04-05T08:32:47.65Z</time></trkpt><trkpt lat="44.7300522" lon="9.6660418"><ele>983.0</ele><time>2026-04-05T08:32:53.651Z</time></trkpt><trkpt lat="44.7299988" lon="9.6659719"><ele>982.9999999999999</ele><time>2026-04-05T08:32:59.712Z</time></trkpt><trkpt lat="44.7299498" lon="9.6659126"><ele>982.9999999999999</ele><time>2026-04-05T08:33:03.664Z</time></trkpt><trkpt lat="44.7298973" lon="9.6658397"><ele>983.0</ele><time>2026-04-05T08:33:08.655Z</time></trkpt><trkpt lat="44.7298413" lon="9.6657816"><ele>982.9999999999999</ele><time>2026-04-05T08:33:15.623Z</time></trkpt><trkpt lat="44.7298041" lon="9.6657035"><ele>982.9999999999999</ele><time>2026-04-05T08:33:20.616Z</time></trkpt><trkpt lat="44.7297514" lon="9.6656312"><ele>982.9999999999999</ele><time>2026-04-05T08:33:25.712Z</time></trkpt><trkpt lat="44.7297065" lon="9.6655672"><ele>983.0</ele><time>2026-04-05T08:33:31.639Z</time></trkpt><trkpt lat="44.7296594" lon="9.6654986"><ele>982.9999999999999</ele><time>2026-04-05T08:33:36.632Z</time></trkpt><trkpt lat="44.7296237" lon="9.665412"><ele>982.9999999999999</ele><time>2026-04-05T08:33:42.673Z</time></trkpt><trkpt lat="44.7295943" lon="9.6653295"><ele>983.0</ele><time>2026-04-05T08:33:47.656Z</time></trkpt><trkpt lat="44.729566" lon="9.6652496"><ele>982.9999999999999</ele><time>2026-04-05T08:33:52.648Z</time></trkpt><trkpt lat="44.7295273" lon="9.6651732"><ele>982.9999999999999</ele><time>2026-04-05T08:33:57.639Z</time></trkpt><trkpt lat="44.7294885" lon="9.6650838"><ele>983.5714285714284</ele><time>2026-04-05T08:34:02.69Z</time></trkpt><trkpt lat="44.7294432" lon="9.6650099"><ele>984.1428571428571</ele><time>2026-04-05T08:34:07.624Z</time></trkpt><trkpt lat="44.7294037" lon="9.6649285"><ele>984.7142857142857</ele><time>2026-04-05T08:34:13.655Z</time></trkpt><trkpt lat="44.729369" lon="9.6648474"><ele>985.2857142857142</ele><time>2026-04-05T08:34:18.648Z</time></trkpt><trkpt lat="44.7293478" lon="9.6647485"><ele>985.8571428571429</ele><time>2026-04-05T08:34:23.64Z</time></trkpt><trkpt lat="44.7293305" lon="9.6646485"><ele>986.4285714285714</ele><time>2026-04-05T08:34:30.712Z</time></trkpt><trkpt lat="44.7293198" lon="9.664549"><ele>987.0</ele><time>2026-04-05T08:34:36.531Z</time></trkpt><trkpt lat="44.7293067" lon="9.6644518"><ele>985.5714285714286</ele><time>2026-04-05T08:34:41.631Z</time></trkpt><trkpt lat="44.7292699" lon="9.6643677"><ele>984.1428571428571</ele><time>2026-04-05T08:34:47.664Z</time></trkpt><trkpt lat="44.7292488" lon="9.6642834"><ele>982.7142857142858</ele><time>2026-04-05T08:34:52.655Z</time></trkpt><trkpt lat="44.7291961" lon="9.6642122"><ele>981.2857142857143</ele><time>2026-04-05T08:34:57.647Z</time></trkpt><trkpt lat="44.7291304" lon="9.664174"><ele>979.8571428571429</ele><time>2026-04-05T08:35:03.679Z</time></trkpt><trkpt lat="44.7290607" lon="9.6641677"><ele>978.4285714285716</ele><time>2026-04-05T08:35:08.671Z</time></trkpt><trkpt lat="44.7289877" lon="9.6641546"><ele>977.0000000000001</ele><time>2026-04-05T08:35:13.664Z</time></trkpt><trkpt lat="44.7289252" lon="9.6641732"><ele>977.0000000000001</ele><time>2026-04-05T08:35:19.696Z</time></trkpt><trkpt lat="44.7288584" lon="9.6641803"><ele>977.0</ele><time>2026-04-05T08:35:24.687Z</time></trkpt><trkpt lat="44.7287859" lon="9.6641717"><ele>977.0000000000001</ele><time>2026-04-05T08:35:31.655Z</time></trkpt><trkpt lat="44.7287205" lon="9.6641708"><ele>977.0000000000001</ele><time>2026-04-05T08:35:37.688Z</time></trkpt><trkpt lat="44.7286486" lon="9.6641718"><ele>977.0</ele><time>2026-04-05T08:35:44.656Z</time></trkpt><trkpt lat="44.7285822" lon="9.6641572"><ele>977.0000000000001</ele><time>2026-04-05T08:35:51.624Z</time></trkpt><trkpt lat="44.7285153" lon="9.6641711"><ele>977.0000000000001</ele><time>2026-04-05T08:35:57.656Z</time></trkpt><trkpt lat="44.7284419" lon="9.6641715"><ele>978.1428571428573</ele><time>2026-04-05T08:36:04.624Z</time></trkpt><trkpt lat="44.7283726" lon="9.6641651"><ele>979.2857142857143</ele><time>2026-04-05T08:36:09.72Z</time></trkpt><trkpt lat="44.7283026" lon="9.6641355"><ele>980.4285714285716</ele><time>2026-04-05T08:36:15.648Z</time></trkpt><trkpt lat="44.7282388" lon="9.6640951"><ele>981.5714285714287</ele><time>2026-04-05T08:36:21.68Z</time></trkpt><trkpt lat="44.728185" lon="9.6640377"><ele>982.7142857142858</ele><time>2026-04-05T08:36:27.651Z</time></trkpt><trkpt lat="44.7281311" lon="9.6639715"><ele>983.8571428571429</ele><time>2026-04-05T08:36:33.64Z</time></trkpt><trkpt lat="44.7280947" lon="9.6638989"><ele>985.0</ele><time>2026-04-05T08:36:39.672Z</time></trkpt><trkpt lat="44.7280487" lon="9.6638148"><ele>985.0</ele><time>2026-04-05T08:36:46.651Z</time></trkpt><trkpt lat="44.7280089" lon="9.6637331"><ele>985.0000000000001</ele><time>2026-04-05T08:36:52.711Z</time></trkpt><trkpt lat="44.7279539" lon="9.6636729"><ele>985.0</ele><time>2026-04-05T08:36:59.64Z</time></trkpt><trkpt lat="44.7278997" lon="9.6636172"><ele>985.0</ele><time>2026-04-05T08:37:05.671Z</time></trkpt><trkpt lat="44.7278419" lon="9.6635602"><ele>985.0000000000001</ele><time>2026-04-05T08:37:12.65Z</time></trkpt><trkpt lat="44.7277848" lon="9.6635017"><ele>985.0</ele><time>2026-04-05T08:37:18.672Z</time></trkpt><trkpt lat="44.7277185" lon="9.6634559"><ele>985.0</ele><time>2026-04-05T08:37:24.703Z</time></trkpt><trkpt lat="44.7276548" lon="9.6634519"><ele>986.8571428571429</ele><time>2026-04-05T08:37:30.711Z</time></trkpt><trkpt lat="44.727581" lon="9.6634536"><ele>988.7142857142858</ele><time>2026-04-05T08:37:37.735Z</time></trkpt><trkpt lat="44.7275103" lon="9.6634219"><ele>990.5714285714287</ele><time>2026-04-05T08:37:44.672Z</time></trkpt><trkpt lat="44.7274401" lon="9.663391"><ele>992.4285714285716</ele><time>2026-04-05T08:37:50.651Z</time></trkpt><trkpt lat="44.7273764" lon="9.6633648"><ele>994.2857142857143</ele><time>2026-04-05T08:37:56.632Z</time></trkpt><trkpt lat="44.7273022" lon="9.6633283"><ele>996.1428571428573</ele><time>2026-04-05T08:38:02.663Z</time></trkpt><trkpt lat="44.7272403" lon="9.6633016"><ele>998.0000000000001</ele><time>2026-04-05T08:38:07.655Z</time></trkpt><trkpt lat="44.7271852" lon="9.6632587"><ele>998.0000000000001</ele><time>2026-04-05T08:38:12.73Z</time></trkpt><trkpt lat="44.7271237" lon="9.6631975"><ele>998.0</ele><time>2026-04-05T08:38:18.68Z</time></trkpt><trkpt lat="44.7270686" lon="9.6631441"><ele>998.0000000000001</ele><time>2026-04-05T08:38:23.671Z</time></trkpt><trkpt lat="44.7270058" lon="9.6630999"><ele>998.0000000000001</ele><time>2026-04-05T08:38:29.704Z</time></trkpt><trkpt lat="44.7269443" lon="9.663075"><ele>998.0</ele><time>2026-04-05T08:38:35.632Z</time></trkpt><trkpt lat="44.7268794" lon="9.6630349"><ele>998.0000000000001</ele><time>2026-04-05T08:38:41.663Z</time></trkpt><trkpt lat="44.7268264" lon="9.6629788"><ele>998.0000000000001</ele><time>2026-04-05T08:38:46.656Z</time></trkpt><trkpt lat="44.7267746" lon="9.6629213"><ele>998.5714285714287</ele><time>2026-04-05T08:38:52.688Z</time></trkpt><trkpt lat="44.7267227" lon="9.6628698"><ele>999.1428571428571</ele><time>2026-04-05T08:39:05.688Z</time></trkpt><trkpt lat="44.7266708" lon="9.6628127"><ele>999.7142857142858</ele><time>2026-04-05T08:39:10.595Z</time></trkpt><trkpt lat="44.7266143" lon="9.662745"><ele>1000.2857142857143</ele><time>2026-04-05T08:39:17.648Z</time></trkpt><trkpt lat="44.7265937" lon="9.6626573"><ele>1000.8571428571429</ele><time>2026-04-05T08:39:23.679Z</time></trkpt><trkpt lat="44.7265591" lon="9.6625643"><ele>1001.4285714285714</ele><time>2026-04-05T08:39:31.688Z</time></trkpt><trkpt lat="44.7264914" lon="9.662541"><ele>1002.0</ele><time>2026-04-05T08:39:40.715Z</time></trkpt><trkpt lat="44.7264246" lon="9.6625752"><ele>1003.1428571428571</ele><time>2026-04-05T08:40:02.679Z</time></trkpt><trkpt lat="44.7263629" lon="9.6626076"><ele>1004.2857142857142</ele><time>2026-04-05T08:40:07.652Z</time></trkpt><trkpt lat="44.7262945" lon="9.6626273"><ele>1005.4285714285713</ele><time>2026-04-05T08:40:13.704Z</time></trkpt><trkpt lat="44.7262269" lon="9.6626047"><ele>1006.5714285714286</ele><time>2026-04-05T08:40:21.712Z</time></trkpt><trkpt lat="44.7261604" lon="9.6625595"><ele>1007.7142857142856</ele><time>2026-04-05T08:40:29.719Z</time></trkpt><trkpt lat="44.7261114" lon="9.6625012"><ele>1008.8571428571428</ele><time>2026-04-05T08:40:35.647Z</time></trkpt><trkpt lat="44.7260508" lon="9.6624436"><ele>1010.0</ele><time>2026-04-05T08:40:43.632Z</time></trkpt><trkpt lat="44.7259999" lon="9.6623855"><ele>1012.5714285714286</ele><time>2026-04-05T08:40:51.664Z</time></trkpt><trkpt lat="44.725941" lon="9.6623329"><ele>1015.1428571428571</ele><time>2026-04-05T08:41:00.671Z</time></trkpt><trkpt lat="44.7258839" lon="9.6622862"><ele>1017.7142857142857</ele><time>2026-04-05T08:41:07.73Z</time></trkpt><trkpt lat="44.725817" lon="9.6622656"><ele>1020.2857142857142</ele><time>2026-04-05T08:41:15.688Z</time></trkpt><trkpt lat="44.7257405" lon="9.6622463"><ele>1022.8571428571429</ele><time>2026-04-05T08:41:23.696Z</time></trkpt><trkpt lat="44.725673" lon="9.6622506"><ele>1025.4285714285713</ele><time>2026-04-05T08:41:31.704Z</time></trkpt><trkpt lat="44.7256235" lon="9.6623102"><ele>1028.0</ele><time>2026-04-05T08:41:41.591Z</time></trkpt><trkpt lat="44.7256074" lon="9.6624044"><ele>1028.0</ele><time>2026-04-05T08:41:52.712Z</time></trkpt><trkpt lat="44.7255823" lon="9.6624969"><ele>1028.0</ele><time>2026-04-05T08:42:02.591Z</time></trkpt><trkpt lat="44.7255468" lon="9.6625776"><ele>1028.0</ele><time>2026-04-05T08:42:12.631Z</time></trkpt><trkpt lat="44.7255182" lon="9.6626624"><ele>1028.0</ele><time>2026-04-05T08:42:22.712Z</time></trkpt><trkpt lat="44.7254888" lon="9.6627454"><ele>1028.0</ele><time>2026-04-05T08:42:30.672Z</time></trkpt><trkpt lat="44.7254394" lon="9.6628209"><ele>1028.0</ele><time>2026-04-05T08:42:37.639Z</time></trkpt><trkpt lat="44.7253792" lon="9.6628608"><ele>1028.0</ele><time>2026-04-05T08:42:44.691Z</time></trkpt><trkpt lat="44.7253204" lon="9.6628965"><ele>1027.4285714285713</ele><time>2026-04-05T08:42:54.696Z</time></trkpt><trkpt lat="44.7252583" lon="9.6629417"><ele>1026.857142857143</ele><time>2026-04-05T08:43:01.663Z</time></trkpt><trkpt lat="44.7252003" lon="9.662979"><ele>1026.2857142857142</ele><time>2026-04-05T08:43:09.672Z</time></trkpt><trkpt lat="44.7251357" lon="9.6629864"><ele>1025.7142857142858</ele><time>2026-04-05T08:43:17.639Z</time></trkpt><trkpt lat="44.7250672" lon="9.6629868"><ele>1025.142857142857</ele><time>2026-04-05T08:43:24.675Z</time></trkpt><trkpt lat="44.7250005" lon="9.6629903"><ele>1024.5714285714284</ele><time>2026-04-05T08:43:30.659Z</time></trkpt><trkpt lat="44.7249301" lon="9.663025"><ele>1024.0</ele><time>2026-04-05T08:43:36.694Z</time></trkpt><trkpt lat="44.7248668" lon="9.6630601"><ele>1027.857142857143</ele><time>2026-04-05T08:43:43.679Z</time></trkpt><trkpt lat="44.7248047" lon="9.6630947"><ele>1031.7142857142856</ele><time>2026-04-05T08:43:52.595Z</time></trkpt><trkpt lat="44.7247436" lon="9.6631309"><ele>1035.5714285714284</ele><time>2026-04-05T08:43:59.696Z</time></trkpt><trkpt lat="44.7246763" lon="9.6631592"><ele>1039.4285714285713</ele><time>2026-04-05T08:44:05.624Z</time></trkpt><trkpt lat="44.7246127" lon="9.6632062"><ele>1043.2857142857142</ele><time>2026-04-05T08:44:11.656Z</time></trkpt><trkpt lat="44.7245492" lon="9.6632443"><ele>1047.142857142857</ele><time>2026-04-05T08:44:17.688Z</time></trkpt><trkpt lat="44.7244844" lon="9.6632678"><ele>1051.0</ele><time>2026-04-05T08:44:22.594Z</time></trkpt><trkpt lat="44.724424" lon="9.6633063"><ele>1053.7142857142858</ele><time>2026-04-05T08:44:27.62Z</time></trkpt><trkpt lat="44.7243694" lon="9.6633693"><ele>1056.4285714285713</ele><time>2026-04-05T08:44:33.703Z</time></trkpt><trkpt lat="44.7243541" lon="9.6634564"><ele>1059.142857142857</ele><time>2026-04-05T08:44:41.712Z</time></trkpt><trkpt lat="44.7243249" lon="9.6635382"><ele>1061.857142857143</ele><time>2026-04-05T08:44:48.68Z</time></trkpt><trkpt lat="44.7243006" lon="9.6636308"><ele>1064.5714285714287</ele><time>2026-04-05T08:44:56.687Z</time></trkpt><trkpt lat="44.7242776" lon="9.663727"><ele>1067.2857142857142</ele><time>2026-04-05T08:45:03.721Z</time></trkpt><trkpt lat="44.7242526" lon="9.6638142"><ele>1070.0</ele><time>2026-04-05T08:45:10.728Z</time></trkpt><trkpt lat="44.7242205" lon="9.6638949"><ele>1070.0</ele><time>2026-04-05T08:45:16.74Z</time></trkpt><trkpt lat="44.7242196" lon="9.6639896"><ele>1070.0</ele><time>2026-04-05T08:45:23.594Z</time></trkpt><trkpt lat="44.7242141" lon="9.6640881"><ele>1070.0</ele><time>2026-04-05T08:45:31.632Z</time></trkpt><trkpt lat="44.7241749" lon="9.6641741"><ele>1070.0</ele><time>2026-04-05T08:45:39.639Z</time></trkpt><trkpt lat="44.7241172" lon="9.6642154"><ele>1070.0</ele><time>2026-04-05T08:45:47.648Z</time></trkpt><trkpt lat="44.7240588" lon="9.6641811"><ele>1070.0</ele><time>2026-04-05T08:45:55.656Z</time></trkpt><trkpt lat="44.7240007" lon="9.6641343"><ele>1070.0</ele><time>2026-04-05T08:46:04.655Z</time></trkpt><trkpt lat="44.7239731" lon="9.6640398"><ele>1070.0</ele><time>2026-04-05T08:46:12.712Z</time></trkpt><trkpt lat="44.7239584" lon="9.6639485"><ele>1070.0</ele><time>2026-04-05T08:46:20.616Z</time></trkpt><trkpt lat="44.723936" lon="9.663865"><ele>1070.0</ele><time>2026-04-05T08:46:28.623Z</time></trkpt><trkpt lat="44.7238925" lon="9.6638008"><ele>1070.0</ele><time>2026-04-05T08:46:35.695Z</time></trkpt><trkpt lat="44.7238464" lon="9.6637386"><ele>1070.0</ele><time>2026-04-05T08:46:41.624Z</time></trkpt><trkpt lat="44.7237811" lon="9.6637241"><ele>1070.0</ele><time>2026-04-05T08:46:49.631Z</time></trkpt><trkpt lat="44.7237428" lon="9.6638003"><ele>1070.0</ele><time>2026-04-05T08:47:00.656Z</time></trkpt><trkpt lat="44.7237176" lon="9.6638847"><ele>1070.0</ele><time>2026-04-05T08:47:08.663Z</time></trkpt><trkpt lat="44.7236665" lon="9.6639427"><ele>1070.0</ele><time>2026-04-05T08:47:17.712Z</time></trkpt><trkpt lat="44.7235895" lon="9.6639373"><ele>1070.0</ele><time>2026-04-05T08:47:24.68Z</time></trkpt><trkpt lat="44.7235165" lon="9.6639191"><ele>1070.0</ele><time>2026-04-05T08:47:30.712Z</time></trkpt><trkpt lat="44.7234527" lon="9.6639138"><ele>1070.0</ele><time>2026-04-05T08:47:37.68Z</time></trkpt><trkpt lat="44.7233826" lon="9.6639221"><ele>1070.0</ele><time>2026-04-05T08:47:45.688Z</time></trkpt><trkpt lat="44.7233127" lon="9.663954"><ele>1070.0</ele><time>2026-04-05T08:47:52.655Z</time></trkpt><trkpt lat="44.7232545" lon="9.6640112"><ele>1073.142857142857</ele><time>2026-04-05T08:48:01.656Z</time></trkpt><trkpt lat="44.7232217" lon="9.6640982"><ele>1076.2857142857142</ele><time>2026-04-05T08:48:09.217Z</time></trkpt><trkpt lat="44.7231857" lon="9.6641738"><ele>1079.4285714285716</ele><time>2026-04-05T08:48:15.639Z</time></trkpt><trkpt lat="44.7231646" lon="9.6642606"><ele>1082.5714285714284</ele><time>2026-04-05T08:48:22.712Z</time></trkpt><trkpt lat="44.7231323" lon="9.6643407"><ele>1085.7142857142858</ele><time>2026-04-05T08:48:28.64Z</time></trkpt><trkpt lat="44.7231175" lon="9.6644312"><ele>1088.857142857143</ele><time>2026-04-05T08:48:35.695Z</time></trkpt><trkpt lat="44.7230889" lon="9.6645159"><ele>1092.0</ele><time>2026-04-05T08:48:41.64Z</time></trkpt><trkpt lat="44.7230491" lon="9.6646069"><ele>1092.0</ele><time>2026-04-05T08:48:48.655Z</time></trkpt><trkpt lat="44.7229857" lon="9.6646208"><ele>1092.0</ele><time>2026-04-05T08:48:54.66Z</time></trkpt><trkpt lat="44.7229161" lon="9.6645961"><ele>1092.0</ele><time>2026-04-05T08:49:01.712Z</time></trkpt><trkpt lat="44.7228557" lon="9.6645488"><ele>1092.0</ele><time>2026-04-05T08:49:07.64Z</time></trkpt><trkpt lat="44.7227991" lon="9.6644788"><ele>1092.0</ele><time>2026-04-05T08:49:13.672Z</time></trkpt><trkpt lat="44.7227364" lon="9.6644308"><ele>1092.0</ele><time>2026-04-05T08:49:19.704Z</time></trkpt><trkpt lat="44.7226694" lon="9.6643944"><ele>1092.0</ele><time>2026-04-05T08:49:26.616Z</time></trkpt><trkpt lat="44.7226081" lon="9.6643548"><ele>1096.142857142857</ele><time>2026-04-05T08:49:32.703Z</time></trkpt><trkpt lat="44.7225412" lon="9.6643274"><ele>1100.2857142857142</ele><time>2026-04-05T08:49:39.672Z</time></trkpt><trkpt lat="44.7225163" lon="9.6644133"><ele>1104.4285714285716</ele><time>2026-04-05T08:49:50.696Z</time></trkpt><trkpt lat="44.7225395" lon="9.664512"><ele>1108.5714285714284</ele><time>2026-04-05T08:50:00.699Z</time></trkpt><trkpt lat="44.7225556" lon="9.6646079"><ele>1112.7142857142858</ele><time>2026-04-05T08:50:08.688Z</time></trkpt><trkpt lat="44.7225712" lon="9.6647002"><ele>1116.857142857143</ele><time>2026-04-05T08:50:15.656Z</time></trkpt><trkpt lat="44.7225723" lon="9.6647985"><ele>1121.0</ele><time>2026-04-05T08:50:20.648Z</time></trkpt><trkpt lat="44.7225659" lon="9.6648979"><ele>1121.7142857142858</ele><time>2026-04-05T08:50:26.68Z</time></trkpt><trkpt lat="44.7225409" lon="9.6649917"><ele>1122.4285714285713</ele><time>2026-04-05T08:50:33.648Z</time></trkpt><trkpt lat="44.7224917" lon="9.6650596"><ele>1123.142857142857</ele><time>2026-04-05T08:50:39.68Z</time></trkpt><trkpt lat="44.7224497" lon="9.6651312"><ele>1123.857142857143</ele><time>2026-04-05T08:50:45.712Z</time></trkpt><trkpt lat="44.7224041" lon="9.665197"><ele>1124.5714285714287</ele><time>2026-04-05T08:50:51.64Z</time></trkpt><trkpt lat="44.7223595" lon="9.6652629"><ele>1125.2857142857142</ele><time>2026-04-05T08:50:58.712Z</time></trkpt><trkpt lat="44.7222987" lon="9.665311"><ele>1126.0</ele><time>2026-04-05T08:51:06.597Z</time></trkpt><trkpt lat="44.7222449" lon="9.6653665"><ele>1126.7142857142858</ele><time>2026-04-05T08:51:13.688Z</time></trkpt><trkpt lat="44.7221964" lon="9.6654314"><ele>1127.4285714285716</ele><time>2026-04-05T08:51:21.696Z</time></trkpt><trkpt lat="44.72214" lon="9.6654892"><ele>1128.1428571428573</ele><time>2026-04-05T08:51:28.664Z</time></trkpt><trkpt lat="44.722075" lon="9.6655161"><ele>1128.857142857143</ele><time>2026-04-05T08:51:35.631Z</time></trkpt><trkpt lat="44.7220044" lon="9.6655142"><ele>1129.5714285714287</ele><time>2026-04-05T08:51:43.639Z</time></trkpt><trkpt lat="44.7219341" lon="9.6655149"><ele>1130.2857142857144</ele><time>2026-04-05T08:51:50.711Z</time></trkpt><trkpt lat="44.7218704" lon="9.665529"><ele>1131.0</ele><time>2026-04-05T08:51:57.679Z</time></trkpt><trkpt lat="44.7218044" lon="9.6655525"><ele>1131.0000000000002</ele><time>2026-04-05T08:52:05.688Z</time></trkpt><trkpt lat="44.7217342" lon="9.6655727"><ele>1131.0</ele><time>2026-04-05T08:52:14.631Z</time></trkpt><trkpt lat="44.7216715" lon="9.665583"><ele>1131.0</ele><time>2026-04-05T08:52:22.639Z</time></trkpt><trkpt lat="44.7216241" lon="9.6654628"><ele>1131.0</ele><time>2026-04-05T08:53:23.688Z</time></trkpt><trkpt lat="44.7216632" lon="9.6653703"><ele>1131.0</ele><time>2026-04-05T08:53:28.68Z</time></trkpt><trkpt lat="44.7217008" lon="9.6652829"><ele>1131.0000000000002</ele><time>2026-04-05T08:53:34.711Z</time></trkpt><trkpt lat="44.72174" lon="9.6652091"><ele>1131.0</ele><time>2026-04-05T08:53:42.579Z</time></trkpt><trkpt lat="44.7217783" lon="9.6651377"><ele>1133.7142857142858</ele><time>2026-04-05T08:53:49.615Z</time></trkpt><trkpt lat="44.7217828" lon="9.6650426"><ele>1136.4285714285716</ele><time>2026-04-05T08:53:56.656Z</time></trkpt><trkpt lat="44.7217322" lon="9.6649897"><ele>1139.142857142857</ele><time>2026-04-05T08:54:03.696Z</time></trkpt><trkpt lat="44.7216689" lon="9.6649968"><ele>1141.857142857143</ele><time>2026-04-05T08:54:11.632Z</time></trkpt><trkpt lat="44.7216073" lon="9.6649702"><ele>1144.5714285714284</ele><time>2026-04-05T08:54:17.664Z</time></trkpt><trkpt lat="44.7215567" lon="9.6649144"><ele>1147.2857142857142</ele><time>2026-04-05T08:54:25.672Z</time></trkpt><trkpt lat="44.7214956" lon="9.6648695"><ele>1150.0</ele><time>2026-04-05T08:54:33.679Z</time></trkpt><trkpt lat="44.7214329" lon="9.6648155"><ele>1150.0</ele><time>2026-04-05T08:54:40.647Z</time></trkpt><trkpt lat="44.7213822" lon="9.6647486"><ele>1150.0</ele><time>2026-04-05T08:54:47.72Z</time></trkpt><trkpt lat="44.7213235" lon="9.6647036"><ele>1150.0</ele><time>2026-04-05T08:54:56.664Z</time></trkpt><trkpt lat="44.7212719" lon="9.6646451"><ele>1150.0</ele><time>2026-04-05T08:55:04.672Z</time></trkpt><trkpt lat="44.7212138" lon="9.664607"><ele>1150.0</ele><time>2026-04-05T08:55:10.704Z</time></trkpt><trkpt lat="44.7211459" lon="9.6645761"><ele>1150.0</ele><time>2026-04-05T08:55:17.594Z</time></trkpt><trkpt lat="44.7210796" lon="9.6645511"><ele>1150.0</ele><time>2026-04-05T08:55:25.68Z</time></trkpt><trkpt lat="44.7210142" lon="9.664508"><ele>1151.2857142857142</ele><time>2026-04-05T08:55:32.648Z</time></trkpt><trkpt lat="44.7209486" lon="9.6644755"><ele>1152.5714285714284</ele><time>2026-04-05T08:55:39.72Z</time></trkpt><trkpt lat="44.7208818" lon="9.6644685"><ele>1153.857142857143</ele><time>2026-04-05T08:55:47.728Z</time></trkpt><trkpt lat="44.7208169" lon="9.6644292"><ele>1155.142857142857</ele><time>2026-04-05T08:55:54.696Z</time></trkpt><trkpt lat="44.7207581" lon="9.6643911"><ele>1156.4285714285716</ele><time>2026-04-05T08:56:00.68Z</time></trkpt><trkpt lat="44.7206973" lon="9.6643385"><ele>1157.7142857142858</ele><time>2026-04-05T08:56:06.655Z</time></trkpt><trkpt lat="44.7206347" lon="9.6642981"><ele>1159.0</ele><time>2026-04-05T08:56:12.688Z</time></trkpt><trkpt lat="44.7205777" lon="9.6642376"><ele>1161.1428571428573</ele><time>2026-04-05T08:56:19.656Z</time></trkpt><trkpt lat="44.7205201" lon="9.664199"><ele>1163.2857142857142</ele><time>2026-04-05T08:56:26.624Z</time></trkpt><trkpt lat="44.7204654" lon="9.6641401"><ele>1165.4285714285716</ele><time>2026-04-05T08:56:33.696Z</time></trkpt><trkpt lat="44.7204086" lon="9.6640825"><ele>1167.5714285714287</ele><time>2026-04-05T08:56:40.664Z</time></trkpt><trkpt lat="44.7203507" lon="9.6640362"><ele>1169.7142857142858</ele><time>2026-04-05T08:56:47.641Z</time></trkpt><trkpt lat="44.7202896" lon="9.663993"><ele>1171.857142857143</ele><time>2026-04-05T08:56:52.623Z</time></trkpt><trkpt lat="44.7202332" lon="9.6639376"><ele>1174.0</ele><time>2026-04-05T08:56:58.435Z</time></trkpt><trkpt lat="44.7201693" lon="9.6638871"><ele>1174.7142857142858</ele><time>2026-04-05T08:57:04.688Z</time></trkpt><trkpt lat="44.7201056" lon="9.6638389"><ele>1175.4285714285716</ele><time>2026-04-05T08:57:11.656Z</time></trkpt><trkpt lat="44.7200708" lon="9.66375"><ele>1176.142857142857</ele><time>2026-04-05T08:57:17.688Z</time></trkpt><trkpt lat="44.7200291" lon="9.663671"><ele>1176.857142857143</ele><time>2026-04-05T08:57:24.535Z</time></trkpt><trkpt lat="44.7199987" lon="9.6635871"><ele>1177.5714285714284</ele><time>2026-04-05T08:57:30.619Z</time></trkpt><trkpt lat="44.7199975" lon="9.6634864"><ele>1178.2857142857142</ele><time>2026-04-05T08:57:36.695Z</time></trkpt><trkpt lat="44.7199871" lon="9.6633929"><ele>1179.0</ele><time>2026-04-05T08:57:41.712Z</time></trkpt><trkpt lat="44.7199768" lon="9.6633046"><ele>1180.7142857142856</ele><time>2026-04-05T08:57:46.704Z</time></trkpt><trkpt lat="44.7199676" lon="9.663213"><ele>1182.4285714285713</ele><time>2026-04-05T08:57:52.632Z</time></trkpt><trkpt lat="44.7199585" lon="9.6631225"><ele>1184.142857142857</ele><time>2026-04-05T08:57:58.663Z</time></trkpt><trkpt lat="44.7199342" lon="9.6630405"><ele>1185.8571428571427</ele><time>2026-04-05T08:58:04.696Z</time></trkpt><trkpt lat="44.7199168" lon="9.662944"><ele>1187.5714285714284</ele><time>2026-04-05T08:58:10.624Z</time></trkpt><trkpt lat="44.7199027" lon="9.6628558"><ele>1189.2857142857142</ele><time>2026-04-05T08:58:16.655Z</time></trkpt><trkpt lat="44.7199001" lon="9.6627569"><ele>1191.0</ele><time>2026-04-05T08:58:22.56Z</time></trkpt><trkpt lat="44.7198966" lon="9.662662"><ele>1191.857142857143</ele><time>2026-04-05T08:58:28.58Z</time></trkpt><trkpt lat="44.7199161" lon="9.6625681"><ele>1192.7142857142858</ele><time>2026-04-05T08:58:34.696Z</time></trkpt><trkpt lat="44.7199393" lon="9.6624854"><ele>1193.5714285714284</ele><time>2026-04-05T08:58:39.639Z</time></trkpt><trkpt lat="44.7199539" lon="9.6623832"><ele>1194.4285714285716</ele><time>2026-04-05T08:58:45.672Z</time></trkpt><trkpt lat="44.7199623" lon="9.6622878"><ele>1195.2857142857142</ele><time>2026-04-05T08:58:51.703Z</time></trkpt><trkpt lat="44.719967" lon="9.6621885"><ele>1196.142857142857</ele><time>2026-04-05T08:58:58.672Z</time></trkpt><trkpt lat="44.7199915" lon="9.6620955"><ele>1197.0</ele><time>2026-04-05T08:59:04.703Z</time></trkpt><trkpt lat="44.7199963" lon="9.6620033"><ele>1197.4285714285713</ele><time>2026-04-05T08:59:09.695Z</time></trkpt><trkpt lat="44.7199805" lon="9.6619043"><ele>1197.857142857143</ele><time>2026-04-05T08:59:16.663Z</time></trkpt><trkpt lat="44.7199783" lon="9.6618153"><ele>1198.2857142857142</ele><time>2026-04-05T08:59:21.655Z</time></trkpt><trkpt lat="44.7199618" lon="9.661713"><ele>1198.7142857142858</ele><time>2026-04-05T08:59:27.555Z</time></trkpt><trkpt lat="44.7199405" lon="9.6616267"><ele>1199.142857142857</ele><time>2026-04-05T08:59:32.68Z</time></trkpt><trkpt lat="44.7198942" lon="9.6615458"><ele>1199.5714285714284</ele><time>2026-04-05T08:59:39.647Z</time></trkpt><trkpt lat="44.7198389" lon="9.6614828"><ele>1200.0</ele><time>2026-04-05T08:59:46.72Z</time></trkpt><trkpt lat="44.7197913" lon="9.6614119"><ele>1199.9999999999998</ele><time>2026-04-05T08:59:52.648Z</time></trkpt><trkpt lat="44.7197424" lon="9.6613526"><ele>1200.0</ele><time>2026-04-05T08:59:58.68Z</time></trkpt><trkpt lat="44.7197144" lon="9.6612657"><ele>1200.0</ele><time>2026-04-05T09:00:04.712Z</time></trkpt><trkpt lat="44.7196924" lon="9.6611686"><ele>1200.0</ele><time>2026-04-05T09:00:10.64Z</time></trkpt><trkpt lat="44.7196596" lon="9.6610926"><ele>1200.0</ele><time>2026-04-05T09:00:16.619Z</time></trkpt><trkpt lat="44.7196332" lon="9.6609955"><ele>1199.9999999999998</ele><time>2026-04-05T09:00:23.639Z</time></trkpt><trkpt lat="44.7196064" lon="9.6609078"><ele>1200.0</ele><time>2026-04-05T09:00:29.56Z</time></trkpt><trkpt lat="44.7195795" lon="9.660824"><ele>1200.4285714285713</ele><time>2026-04-05T09:00:35.682Z</time></trkpt><trkpt lat="44.7195483" lon="9.6607275"><ele>1200.857142857143</ele><time>2026-04-05T09:00:42.672Z</time></trkpt><trkpt lat="44.7195238" lon="9.6606339"><ele>1201.2857142857142</ele><time>2026-04-05T09:00:48.635Z</time></trkpt><trkpt lat="44.7194936" lon="9.6605534"><ele>1201.7142857142858</ele><time>2026-04-05T09:00:54.632Z</time></trkpt><trkpt lat="44.719456" lon="9.6604709"><ele>1202.142857142857</ele><time>2026-04-05T09:01:01.3Z</time></trkpt><trkpt lat="44.719424" lon="9.6603728"><ele>1202.5714285714284</ele><time>2026-04-05T09:01:08.696Z</time></trkpt><trkpt lat="44.7193998" lon="9.6602617"><ele>1203.0</ele><time>2026-04-05T09:01:28.64Z</time></trkpt><trkpt lat="44.7193675" lon="9.6601785"><ele>1205.0</ele><time>2026-04-05T09:01:33.737Z</time></trkpt><trkpt lat="44.7193277" lon="9.6601065"><ele>1207.0</ele><time>2026-04-05T09:01:39.664Z</time></trkpt><trkpt lat="44.7193007" lon="9.6600208"><ele>1209.0</ele><time>2026-04-05T09:01:45.695Z</time></trkpt><trkpt lat="44.7192866" lon="9.6599308"><ele>1211.0</ele><time>2026-04-05T09:01:51.727Z</time></trkpt><trkpt lat="44.7192526" lon="9.6598553"><ele>1213.0</ele><time>2026-04-05T09:01:57.656Z</time></trkpt><trkpt lat="44.7192327" lon="9.6597578"><ele>1215.0</ele><time>2026-04-05T09:02:03.688Z</time></trkpt><trkpt lat="44.7192208" lon="9.6596619"><ele>1217.0</ele><time>2026-04-05T09:02:09.72Z</time></trkpt><trkpt lat="44.719198" lon="9.6595661"><ele>1217.0</ele><time>2026-04-05T09:02:16.687Z</time></trkpt><trkpt lat="44.719179" lon="9.6594754"><ele>1217.0</ele><time>2026-04-05T09:02:22.72Z</time></trkpt><trkpt lat="44.7191518" lon="9.6593843"><ele>1217.0</ele><time>2026-04-05T09:02:28.648Z</time></trkpt><trkpt lat="44.7191334" lon="9.659298"><ele>1217.0</ele><time>2026-04-05T09:02:34.595Z</time></trkpt><trkpt lat="44.7191152" lon="9.6592021"><ele>1217.0</ele><time>2026-04-05T09:02:40.711Z</time></trkpt><trkpt lat="44.7191032" lon="9.6591052"><ele>1217.0</ele><time>2026-04-05T09:02:46.639Z</time></trkpt><trkpt lat="44.7190832" lon="9.6590071"><ele>1217.0</ele><time>2026-04-05T09:02:52.655Z</time></trkpt><trkpt lat="44.7190576" lon="9.6589107"><ele>1218.142857142857</ele><time>2026-04-05T09:02:59.639Z</time></trkpt><trkpt lat="44.7190359" lon="9.6588214"><ele>1219.2857142857142</ele><time>2026-04-05T09:03:06.712Z</time></trkpt><trkpt lat="44.7190248" lon="9.6587284"><ele>1220.4285714285716</ele><time>2026-04-05T09:03:12.64Z</time></trkpt><trkpt lat="44.71902" lon="9.6586315"><ele>1221.5714285714284</ele><time>2026-04-05T09:03:18.539Z</time></trkpt><trkpt lat="44.7189995" lon="9.6585443"><ele>1222.7142857142858</ele><time>2026-04-05T09:03:24.704Z</time></trkpt><trkpt lat="44.718981" lon="9.6584503"><ele>1223.857142857143</ele><time>2026-04-05T09:03:30.68Z</time></trkpt><trkpt lat="44.718951" lon="9.6583696"><ele>1225.0</ele><time>2026-04-05T09:03:36.664Z</time></trkpt><trkpt lat="44.7189439" lon="9.6582788"><ele>1225.4285714285713</ele><time>2026-04-05T09:03:42.696Z</time></trkpt><trkpt lat="44.7189277" lon="9.6581798"><ele>1225.857142857143</ele><time>2026-04-05T09:03:50.36Z</time></trkpt><trkpt lat="44.7188829" lon="9.6581135"><ele>1226.2857142857142</ele><time>2026-04-05T09:03:58.574Z</time></trkpt><trkpt lat="44.7188347" lon="9.6580458"><ele>1226.7142857142858</ele><time>2026-04-05T09:04:10.672Z</time></trkpt><trkpt lat="44.7188022" lon="9.6579688"><ele>1227.142857142857</ele><time>2026-04-05T09:04:17.639Z</time></trkpt><trkpt lat="44.7187625" lon="9.6578783"><ele>1227.5714285714284</ele><time>2026-04-05T09:04:25.653Z</time></trkpt><trkpt lat="44.7187366" lon="9.6577865"><ele>1228.0</ele><time>2026-04-05T09:04:32.615Z</time></trkpt><trkpt lat="44.7187256" lon="9.6576909"><ele>1228.8571428571427</ele><time>2026-04-05T09:04:41.516Z</time></trkpt><trkpt lat="44.7187176" lon="9.657595"><ele>1229.7142857142858</ele><time>2026-04-05T09:04:49.66Z</time></trkpt><trkpt lat="44.7186918" lon="9.6575096"><ele>1230.5714285714284</ele><time>2026-04-05T09:04:56.64Z</time></trkpt><trkpt lat="44.7186886" lon="9.6574107"><ele>1231.4285714285713</ele><time>2026-04-05T09:05:08.696Z</time></trkpt><trkpt lat="44.7186818" lon="9.6573092"><ele>1232.2857142857142</ele><time>2026-04-05T09:05:15.672Z</time></trkpt><trkpt lat="44.7186776" lon="9.6572175"><ele>1233.142857142857</ele><time>2026-04-05T09:05:23.618Z</time></trkpt><trkpt lat="44.7186711" lon="9.6571182"><ele>1234.0</ele><time>2026-04-05T09:05:30.647Z</time></trkpt><trkpt lat="44.7186719" lon="9.657024"><ele>1235.5714285714287</ele><time>2026-04-05T09:05:40.632Z</time></trkpt><trkpt lat="44.718642" lon="9.6569407"><ele>1237.142857142857</ele><time>2026-04-05T09:05:51.655Z</time></trkpt><trkpt lat="44.7186021" lon="9.6568598"><ele>1238.7142857142858</ele><time>2026-04-05T09:05:58.624Z</time></trkpt><trkpt lat="44.7185598" lon="9.6567842"><ele>1240.2857142857142</ele><time>2026-04-05T09:06:05.734Z</time></trkpt><trkpt lat="44.7185272" lon="9.6566958"><ele>1241.857142857143</ele><time>2026-04-05T09:06:13.574Z</time></trkpt><trkpt lat="44.7184914" lon="9.6566219"><ele>1243.4285714285713</ele><time>2026-04-05T09:06:19.735Z</time></trkpt><trkpt lat="44.7184427" lon="9.6565613"><ele>1245.0</ele><time>2026-04-05T09:06:26.68Z</time></trkpt><trkpt lat="44.7183832" lon="9.6565153"><ele>1247.2857142857142</ele><time>2026-04-05T09:06:32.632Z</time></trkpt><trkpt lat="44.718331" lon="9.6564527"><ele>1249.5714285714287</ele><time>2026-04-05T09:06:39.601Z</time></trkpt><trkpt lat="44.7182735" lon="9.6563919"><ele>1251.857142857143</ele><time>2026-04-05T09:06:44.602Z</time></trkpt><trkpt lat="44.7182117" lon="9.6563329"><ele>1254.142857142857</ele><time>2026-04-05T09:06:50.624Z</time></trkpt><trkpt lat="44.7181409" lon="9.6563006"><ele>1256.4285714285713</ele><time>2026-04-05T09:06:57.601Z</time></trkpt><trkpt lat="44.7180735" lon="9.6562693"><ele>1258.7142857142858</ele><time>2026-04-05T09:07:03.624Z</time></trkpt><trkpt lat="44.7180044" lon="9.6562354"><ele>1261.0</ele><time>2026-04-05T09:07:10.696Z</time></trkpt><trkpt lat="44.7179375" lon="9.6562532"><ele>1261.0</ele><time>2026-04-05T09:07:14.648Z</time></trkpt><trkpt lat="44.7178644" lon="9.6562474"><ele>1261.0</ele><time>2026-04-05T09:07:19.639Z</time></trkpt><trkpt lat="44.7177974" lon="9.6562439"><ele>1261.0</ele><time>2026-04-05T09:07:24.632Z</time></trkpt><trkpt lat="44.7177353" lon="9.6562016"><ele>1261.0</ele><time>2026-04-05T09:07:28.738Z</time></trkpt><trkpt lat="44.7176868" lon="9.6561441"><ele>1261.0</ele><time>2026-04-05T09:07:34.021Z</time></trkpt><trkpt lat="44.7176204" lon="9.6561001"><ele>1261.0</ele><time>2026-04-05T09:07:40.242Z</time></trkpt><trkpt lat="44.717545" lon="9.6560836"><ele>1261.0</ele><time>2026-04-05T09:07:46.498Z</time></trkpt><trkpt lat="44.7174769" lon="9.6560555"><ele>1262.857142857143</ele><time>2026-04-05T09:07:51.672Z</time></trkpt><trkpt lat="44.7174133" lon="9.6560148"><ele>1264.7142857142858</ele><time>2026-04-05T09:07:56.664Z</time></trkpt><trkpt lat="44.7173531" lon="9.6559871"><ele>1266.5714285714284</ele><time>2026-04-05T09:08:02.696Z</time></trkpt><trkpt lat="44.7172825" lon="9.6559603"><ele>1268.4285714285716</ele><time>2026-04-05T09:08:09.663Z</time></trkpt><trkpt lat="44.7172078" lon="9.655979"><ele>1270.2857142857142</ele><time>2026-04-05T09:08:15.682Z</time></trkpt><trkpt lat="44.7171347" lon="9.6559823"><ele>1272.142857142857</ele><time>2026-04-05T09:08:21.624Z</time></trkpt><trkpt lat="44.7170674" lon="9.6559874"><ele>1274.0</ele><time>2026-04-05T09:08:27.656Z</time></trkpt><trkpt lat="44.7170041" lon="9.6559761"><ele>1274.0</ele><time>2026-04-05T09:08:33.688Z</time></trkpt><trkpt lat="44.7169367" lon="9.6559537"><ele>1274.0</ele><time>2026-04-05T09:08:39.616Z</time></trkpt><trkpt lat="44.7168689" lon="9.6559095"><ele>1274.0</ele><time>2026-04-05T09:08:46.688Z</time></trkpt><trkpt lat="44.7168098" lon="9.6558603"><ele>1274.0</ele><time>2026-04-05T09:08:51.562Z</time></trkpt><trkpt lat="44.7167517" lon="9.6558157"><ele>1274.0</ele><time>2026-04-05T09:08:55.632Z</time></trkpt><trkpt lat="44.716689" lon="9.6557632"><ele>1274.0</ele><time>2026-04-05T09:08:59.688Z</time></trkpt><trkpt lat="44.7166267" lon="9.6557208"><ele>1274.0</ele><time>2026-04-05T09:09:06.656Z</time></trkpt><trkpt lat="44.7165556" lon="9.6556879"><ele>1273.142857142857</ele><time>2026-04-05T09:09:12.66Z</time></trkpt><trkpt lat="44.7164854" lon="9.6556645"><ele>1272.2857142857142</ele><time>2026-04-05T09:09:19.619Z</time></trkpt><trkpt lat="44.7164151" lon="9.6556411"><ele>1271.4285714285716</ele><time>2026-04-05T09:09:26.623Z</time></trkpt><trkpt lat="44.716343" lon="9.6556283"><ele>1270.5714285714284</ele><time>2026-04-05T09:09:31.719Z</time></trkpt><trkpt lat="44.7162876" lon="9.6555848"><ele>1269.7142857142858</ele><time>2026-04-05T09:09:37.647Z</time></trkpt><trkpt lat="44.7162528" lon="9.6555051"><ele>1268.857142857143</ele><time>2026-04-05T09:09:43.679Z</time></trkpt><trkpt lat="44.7162193" lon="9.6554256"><ele>1268.0</ele><time>2026-04-05T09:09:54.601Z</time></trkpt><trkpt lat="44.7161711" lon="9.6553668"><ele>1268.0</ele><time>2026-04-05T09:09:59.601Z</time></trkpt><trkpt lat="44.7161117" lon="9.6553339"><ele>1268.0</ele><time>2026-04-05T09:10:05.298Z</time></trkpt><trkpt lat="44.7160602" lon="9.6552813"><ele>1268.0</ele><time>2026-04-05T09:10:12.601Z</time></trkpt><trkpt lat="44.7159817" lon="9.6552533"><ele>1268.0</ele><time>2026-04-05T09:10:17.687Z</time></trkpt><trkpt lat="44.7159329" lon="9.6551915"><ele>1268.0</ele><time>2026-04-05T09:10:35.561Z</time></trkpt><trkpt lat="44.7158694" lon="9.6551244"><ele>1268.0</ele><time>2026-04-05T09:10:40.671Z</time></trkpt><trkpt lat="44.7157949" lon="9.6551009"><ele>1268.0</ele><time>2026-04-05T09:10:44.645Z</time></trkpt><trkpt lat="44.7157308" lon="9.6550871"><ele>1268.0</ele><time>2026-04-05T09:10:48.68Z</time></trkpt><trkpt lat="44.7156781" lon="9.655038"><ele>1268.0</ele><time>2026-04-05T09:10:54.712Z</time></trkpt><trkpt lat="44.7156045" lon="9.6550158"><ele>1268.0</ele><time>2026-04-05T09:11:00.659Z</time></trkpt><trkpt lat="44.7155395" lon="9.6549597"><ele>1268.0</ele><time>2026-04-05T09:11:07.681Z</time></trkpt><trkpt lat="44.7154724" lon="9.654919"><ele>1268.0</ele><time>2026-04-05T09:11:14.561Z</time></trkpt><trkpt lat="44.7154048" lon="9.6548774"><ele>1268.0</ele><time>2026-04-05T09:11:19.672Z</time></trkpt><trkpt lat="44.7153465" lon="9.6548214"><ele>1268.0</ele><time>2026-04-05T09:11:24.664Z</time></trkpt><trkpt lat="44.7153122" lon="9.6547344"><ele>1268.0</ele><time>2026-04-05T09:11:30.696Z</time></trkpt><trkpt lat="44.7152839" lon="9.6546397"><ele>1268.0</ele><time>2026-04-05T09:11:35.688Z</time></trkpt><trkpt lat="44.7152382" lon="9.6545564"><ele>1268.0</ele><time>2026-04-05T09:11:40.68Z</time></trkpt><trkpt lat="44.7151931" lon="9.6544894"><ele>1268.0</ele><time>2026-04-05T09:11:45.634Z</time></trkpt><trkpt lat="44.715158" lon="9.6544124"><ele>1268.0</ele><time>2026-04-05T09:11:51.704Z</time></trkpt><trkpt lat="44.715118" lon="9.6543291"><ele>1268.0</ele><time>2026-04-05T09:11:58.671Z</time></trkpt><trkpt lat="44.7150826" lon="9.6542342"><ele>1268.0</ele><time>2026-04-05T09:12:05.639Z</time></trkpt><trkpt lat="44.7150742" lon="9.6541459"><ele>1269.2857142857142</ele><time>2026-04-05T09:12:10.632Z</time></trkpt><trkpt lat="44.7151212" lon="9.6540755"><ele>1270.5714285714284</ele><time>2026-04-05T09:12:15.727Z</time></trkpt><trkpt lat="44.7151722" lon="9.654004"><ele>1271.8571428571427</ele><time>2026-04-05T09:12:20.68Z</time></trkpt><trkpt lat="44.7152231" lon="9.6539453"><ele>1273.142857142857</ele><time>2026-04-05T09:12:27.687Z</time></trkpt><trkpt lat="44.715291" lon="9.6539208"><ele>1274.4285714285713</ele><time>2026-04-05T09:12:34.721Z</time></trkpt><trkpt lat="44.7153543" lon="9.6538937"><ele>1275.7142857142856</ele><time>2026-04-05T09:12:40.688Z</time></trkpt><trkpt lat="44.7154196" lon="9.6538684"><ele>1277.0</ele><time>2026-04-05T09:12:48.696Z</time></trkpt><trkpt lat="44.7154714" lon="9.6538178"><ele>1277.8571428571427</ele><time>2026-04-05T09:13:00.681Z</time></trkpt><trkpt lat="44.7155221" lon="9.653745"><ele>1278.7142857142858</ele><time>2026-04-05T09:13:11.679Z</time></trkpt><trkpt lat="44.7155719" lon="9.6536842"><ele>1279.5714285714284</ele><time>2026-04-05T09:13:19.687Z</time></trkpt><trkpt lat="44.7156284" lon="9.653627"><ele>1280.4285714285713</ele><time>2026-04-05T09:13:26.616Z</time></trkpt><trkpt lat="44.7156802" lon="9.6535716"><ele>1281.2857142857142</ele><time>2026-04-05T09:13:32.687Z</time></trkpt><trkpt lat="44.7157325" lon="9.6535213"><ele>1282.142857142857</ele><time>2026-04-05T09:13:39.656Z</time></trkpt><trkpt lat="44.715801" lon="9.653491"><ele>1283.0</ele><time>2026-04-05T09:13:47.663Z</time></trkpt><trkpt lat="44.715867" lon="9.6534771"><ele>1284.2857142857144</ele><time>2026-04-05T09:13:55.672Z</time></trkpt><trkpt lat="44.7159413" lon="9.6534783"><ele>1285.5714285714284</ele><time>2026-04-05T09:14:01.704Z</time></trkpt><trkpt lat="44.7160045" lon="9.6535118"><ele>1286.857142857143</ele><time>2026-04-05T09:14:06.696Z</time></trkpt><trkpt lat="44.7160694" lon="9.6535711"><ele>1288.1428571428573</ele><time>2026-04-05T09:14:11.68Z</time></trkpt><trkpt lat="44.7161356" lon="9.6536163"><ele>1289.4285714285716</ele><time>2026-04-05T09:14:16.68Z</time></trkpt><trkpt lat="44.7162017" lon="9.6536195"><ele>1290.7142857142858</ele><time>2026-04-05T09:14:22.712Z</time></trkpt><trkpt lat="44.7162718" lon="9.6536313"><ele>1292.0</ele><time>2026-04-05T09:14:30.72Z</time></trkpt><trkpt lat="44.7163908" lon="9.6536538"><ele>1292.0000000000002</ele><time>2026-04-05T09:14:49.647Z</time></trkpt><trkpt lat="44.7164526" lon="9.6536365"><ele>1292.0</ele><time>2026-04-05T09:14:54.641Z</time></trkpt><trkpt lat="44.7164963" lon="9.6535602"><ele>1292.0</ele><time>2026-04-05T09:14:59.631Z</time></trkpt><trkpt lat="44.7165151" lon="9.6534712"><ele>1292.0</ele><time>2026-04-05T09:15:05.663Z</time></trkpt><trkpt lat="44.7165496" lon="9.6533945"><ele>1292.0</ele><time>2026-04-05T09:15:12.681Z</time></trkpt><trkpt lat="44.7166135" lon="9.6533342"><ele>1292.0000000000002</ele><time>2026-04-05T09:15:20.54Z</time></trkpt><trkpt lat="44.7166827" lon="9.6533045"><ele>1292.0</ele><time>2026-04-05T09:15:26.671Z</time></trkpt><trkpt lat="44.7167436" lon="9.6532743"><ele>1294.1428571428573</ele><time>2026-04-05T09:15:31.74Z</time></trkpt><trkpt lat="44.7167893" lon="9.6532081"><ele>1296.2857142857142</ele><time>2026-04-05T09:15:37.695Z</time></trkpt><trkpt lat="44.7168176" lon="9.6531126"><ele>1298.4285714285716</ele><time>2026-04-05T09:15:47.679Z</time></trkpt><trkpt lat="44.7168404" lon="9.6530247"><ele>1300.5714285714287</ele><time>2026-04-05T09:15:55.688Z</time></trkpt><trkpt lat="44.7168633" lon="9.6529384"><ele>1302.7142857142858</ele><time>2026-04-05T09:16:03.696Z</time></trkpt><trkpt lat="44.716856" lon="9.6528405"><ele>1304.857142857143</ele><time>2026-04-05T09:16:13.679Z</time></trkpt><trkpt lat="44.7168482" lon="9.6527434"><ele>1307.0</ele><time>2026-04-05T09:16:21.639Z</time></trkpt><trkpt lat="44.7168697" lon="9.6526597"><ele>1307.4285714285713</ele><time>2026-04-05T09:17:13.688Z</time></trkpt><trkpt lat="44.7169274" lon="9.6525755"><ele>1307.857142857143</ele><time>2026-04-05T09:17:34.681Z</time></trkpt><trkpt lat="44.7169873" lon="9.6525276"><ele>1308.2857142857142</ele><time>2026-04-05T09:17:41.664Z</time></trkpt><trkpt lat="44.7170584" lon="9.6525338"><ele>1308.7142857142858</ele><time>2026-04-05T09:17:49.671Z</time></trkpt><trkpt lat="44.7171224" lon="9.6525661"><ele>1309.142857142857</ele><time>2026-04-05T09:17:55.722Z</time></trkpt><trkpt lat="44.7171861" lon="9.6525841"><ele>1309.5714285714287</ele><time>2026-04-05T09:18:02.672Z</time></trkpt><trkpt lat="44.7172485" lon="9.6525374"><ele>1310.0</ele><time>2026-04-05T09:18:11.619Z</time></trkpt><trkpt lat="44.7173379" lon="9.6525218"><ele>1310.0</ele><time>2026-04-05T09:18:19.624Z</time></trkpt><trkpt lat="44.7174099" lon="9.6525248"><ele>1310.0</ele><time>2026-04-05T09:18:25.655Z</time></trkpt><trkpt lat="44.7174795" lon="9.6525287"><ele>1310.0</ele><time>2026-04-05T09:18:32.699Z</time></trkpt><trkpt lat="44.7175509" lon="9.6525146"><ele>1310.0</ele><time>2026-04-05T09:18:38.655Z</time></trkpt><trkpt lat="44.7176182" lon="9.6525074"><ele>1310.0</ele><time>2026-04-05T09:18:45.623Z</time></trkpt><trkpt lat="44.717686" lon="9.6525217"><ele>1310.0</ele><time>2026-04-05T09:18:52.695Z</time></trkpt><trkpt lat="44.7177271" lon="9.6524394"><ele>1310.0</ele><time>2026-04-05T09:19:26.704Z</time></trkpt><trkpt lat="44.7177014" lon="9.6523542"><ele>1310.0</ele><time>2026-04-05T09:19:32.719Z</time></trkpt><trkpt lat="44.7177007" lon="9.6522606"><ele>1310.0</ele><time>2026-04-05T09:19:43.656Z</time></trkpt><trkpt lat="44.7177455" lon="9.652187"><ele>1310.0</ele><time>2026-04-05T09:19:50.62Z</time></trkpt><trkpt lat="44.7178106" lon="9.6522317"><ele>1310.0</ele><time>2026-04-05T09:19:59.672Z</time></trkpt><trkpt lat="44.7178817" lon="9.652246"><ele>1310.0</ele><time>2026-04-05T09:20:06.639Z</time></trkpt><trkpt lat="44.7179485" lon="9.6522862"><ele>1310.0</ele><time>2026-04-05T09:20:14.648Z</time></trkpt><trkpt lat="44.7180117" lon="9.6522734"><ele>1310.0</ele><time>2026-04-05T09:20:22.717Z</time></trkpt><trkpt lat="44.7180755" lon="9.6522292"><ele>1310.5</ele><time>2026-04-05T09:20:29.624Z</time></trkpt><trkpt lat="44.7181315" lon="9.652177"><ele>1311.0</ele><time>2026-04-05T09:20:35.64Z</time></trkpt><trkpt lat="44.7181758" lon="9.6520964"><ele>1311.5</ele><time>2026-04-05T09:20:42.623Z</time></trkpt><trkpt lat="44.7182222" lon="9.6520183"><ele>1312.0</ele><time>2026-04-05T09:20:49.696Z</time></trkpt><trkpt lat="44.7182452" lon="9.651894"><ele>1312.5</ele><time>2026-04-05T09:21:09.663Z</time></trkpt><trkpt lat="44.7182427" lon="9.6517938"><ele>1313.0</ele><time>2026-04-05T09:21:17.672Z</time></trkpt><trkpt lat="44.7182402" lon="9.6516722"><ele>1311.0000000000002</ele><time>2026-04-05T09:21:40.899Z</time></trkpt><trkpt lat="44.7182017" lon="9.6515966"><ele>1309.0</ele><time>2026-04-05T09:21:49.703Z</time></trkpt><trkpt lat="44.7181912" lon="9.6515084"><ele>1307.0</ele><time>2026-04-05T09:22:00.624Z</time></trkpt><trkpt lat="44.7181285" lon="9.6515203"><ele>1305.0</ele><time>2026-04-05T09:22:14.663Z</time></trkpt><trkpt lat="44.7180839" lon="9.6513935"><ele>1303.0</ele><time>2026-04-05T09:22:41.594Z</time></trkpt><trkpt lat="44.7180992" lon="9.6512964"><ele>1301.0000000000002</ele><time>2026-04-05T09:22:47.632Z</time></trkpt><trkpt lat="44.7180646" lon="9.6512197"><ele>1299.0</ele><time>2026-04-05T09:22:55.64Z</time></trkpt><trkpt lat="44.718016" lon="9.6511601"><ele>1299.0000000000002</ele><time>2026-04-05T09:23:03.647Z</time></trkpt><trkpt lat="44.7179952" lon="9.6510752"><ele>1299.0</ele><time>2026-04-05T09:23:14.672Z</time></trkpt><trkpt lat="44.7180038" lon="9.651165"><ele>1299.0</ele><time>2026-04-05T09:24:01.679Z</time></trkpt><trkpt lat="44.717936" lon="9.6511597"><ele>1299.0</ele><time>2026-04-05T09:24:13.64Z</time></trkpt><trkpt lat="44.7179016" lon="9.6510783"><ele>1299.0</ele><time>2026-04-05T09:24:20.712Z</time></trkpt><trkpt lat="44.7179" lon="9.6509778"><ele>1299.0000000000002</ele><time>2026-04-05T09:24:25.703Z</time></trkpt><trkpt lat="44.7179323" lon="9.650886"><ele>1299.0</ele><time>2026-04-05T09:24:32.671Z</time></trkpt><trkpt lat="44.7179529" lon="9.6507967"><ele>1298.1428571428573</ele><time>2026-04-05T09:24:38.68Z</time></trkpt><trkpt lat="44.7178966" lon="9.6507539"><ele>1297.2857142857142</ele><time>2026-04-05T09:24:51.704Z</time></trkpt><trkpt lat="44.7178297" lon="9.6507438"><ele>1296.4285714285716</ele><time>2026-04-05T09:25:03.664Z</time></trkpt><trkpt lat="44.7177763" lon="9.6506869"><ele>1295.5714285714287</ele><time>2026-04-05T09:25:09.696Z</time></trkpt><trkpt lat="44.7177303" lon="9.6506087"><ele>1294.7142857142858</ele><time>2026-04-05T09:25:15.623Z</time></trkpt><trkpt lat="44.7177178" lon="9.6505199"><ele>1293.857142857143</ele><time>2026-04-05T09:25:20.72Z</time></trkpt><trkpt lat="44.7177131" lon="9.650425"><ele>1293.0</ele><time>2026-04-05T09:25:26.181Z</time></trkpt><trkpt lat="44.717711" lon="9.6503216"><ele>1292.7142857142856</ele><time>2026-04-05T09:25:31.64Z</time></trkpt><trkpt lat="44.7177035" lon="9.6502151"><ele>1292.4285714285716</ele><time>2026-04-05T09:25:37.671Z</time></trkpt><trkpt lat="44.717678" lon="9.6501315"><ele>1292.142857142857</ele><time>2026-04-05T09:25:44.64Z</time></trkpt><trkpt lat="44.717681" lon="9.6500328"><ele>1291.8571428571427</ele><time>2026-04-05T09:25:50.672Z</time></trkpt><trkpt lat="44.7176756" lon="9.6499322"><ele>1291.5714285714284</ele><time>2026-04-05T09:26:00.656Z</time></trkpt><trkpt lat="44.7176777" lon="9.6498369"><ele>1291.2857142857142</ele><time>2026-04-05T09:26:08.664Z</time></trkpt><trkpt lat="44.7176983" lon="9.6497447"><ele>1291.0</ele><time>2026-04-05T09:26:14.602Z</time></trkpt><trkpt lat="44.7177148" lon="9.6496463"><ele>1290.9999999999998</ele><time>2026-04-05T09:26:53.64Z</time></trkpt><trkpt lat="44.7177066" lon="9.6495489"><ele>1291.0</ele><time>2026-04-05T09:27:00.664Z</time></trkpt><trkpt lat="44.7176713" lon="9.6494735"><ele>1291.0</ele><time>2026-04-05T09:27:09.711Z</time></trkpt><trkpt lat="44.7176252" lon="9.6494037"><ele>1291.0</ele><time>2026-04-05T09:27:18.656Z</time></trkpt><trkpt lat="44.7175827" lon="9.649322"><ele>1291.0</ele><time>2026-04-05T09:27:25.62Z</time></trkpt><trkpt lat="44.7175469" lon="9.6492466"><ele>1290.9999999999998</ele><time>2026-04-05T09:27:33.632Z</time></trkpt><trkpt lat="44.7175416" lon="9.6491022"><ele>1291.0</ele><time>2026-04-05T09:28:12.62Z</time></trkpt><trkpt lat="44.7175675" lon="9.648995"><ele>1291.142857142857</ele><time>2026-04-05T09:28:27.712Z</time></trkpt><trkpt lat="44.7175885" lon="9.6488965"><ele>1291.2857142857142</ele><time>2026-04-05T09:28:31.664Z</time></trkpt><trkpt lat="44.7175227" lon="9.6488815"><ele>1291.4285714285716</ele><time>2026-04-05T09:28:48.72Z</time></trkpt><trkpt lat="44.7174613" lon="9.6488504"><ele>1291.5714285714284</ele><time>2026-04-05T09:28:56.623Z</time></trkpt><trkpt lat="44.7174065" lon="9.6487897"><ele>1291.7142857142858</ele><time>2026-04-05T09:29:05.671Z</time></trkpt><trkpt lat="44.7173463" lon="9.6487496"><ele>1291.857142857143</ele><time>2026-04-05T09:29:14.594Z</time></trkpt><trkpt lat="44.7173134" lon="9.6486718"><ele>1292.0</ele><time>2026-04-05T09:29:21.687Z</time></trkpt><trkpt lat="44.717258" lon="9.6486147"><ele>1292.4285714285716</ele><time>2026-04-05T09:29:49.664Z</time></trkpt><trkpt lat="44.7172084" lon="9.6485565"><ele>1292.857142857143</ele><time>2026-04-05T09:29:54.656Z</time></trkpt><trkpt lat="44.7171372" lon="9.6485506"><ele>1293.2857142857142</ele><time>2026-04-05T09:30:02.664Z</time></trkpt><trkpt lat="44.717077" lon="9.6485932"><ele>1293.7142857142858</ele><time>2026-04-05T09:30:08.695Z</time></trkpt><trkpt lat="44.717011" lon="9.6485843"><ele>1294.142857142857</ele><time>2026-04-05T09:30:15.663Z</time></trkpt><trkpt lat="44.7169535" lon="9.6485449"><ele>1294.5714285714287</ele><time>2026-04-05T09:30:23.6Z</time></trkpt><trkpt lat="44.7168932" lon="9.648508"><ele>1295.0</ele><time>2026-04-05T09:30:28.664Z</time></trkpt><trkpt lat="44.7168301" lon="9.6485143"><ele>1293.4285714285713</ele><time>2026-04-05T09:30:32.72Z</time></trkpt><trkpt lat="44.7167609" lon="9.6484933"><ele>1291.857142857143</ele><time>2026-04-05T09:30:38.648Z</time></trkpt><trkpt lat="44.7167026" lon="9.6484575"><ele>1290.2857142857142</ele><time>2026-04-05T09:30:45.616Z</time></trkpt><trkpt lat="44.7166402" lon="9.6484088"><ele>1288.7142857142858</ele><time>2026-04-05T09:30:52.62Z</time></trkpt><trkpt lat="44.7165792" lon="9.6483639"><ele>1287.142857142857</ele><time>2026-04-05T09:30:59.656Z</time></trkpt><trkpt lat="44.7165127" lon="9.648344"><ele>1285.5714285714284</ele><time>2026-04-05T09:31:41.672Z</time></trkpt><trkpt lat="44.7165562" lon="9.6482706"><ele>1284.0</ele><time>2026-04-05T09:31:49.68Z</time></trkpt><trkpt lat="44.7166205" lon="9.6482821"><ele>1283.9999999999998</ele><time>2026-04-05T09:32:40.579Z</time></trkpt><trkpt lat="44.7166887" lon="9.6482553"><ele>1284.0</ele><time>2026-04-05T09:32:45.632Z</time></trkpt><trkpt lat="44.7167544" lon="9.6482284"><ele>1284.0</ele><time>2026-04-05T09:32:50.623Z</time></trkpt><trkpt lat="44.7168211" lon="9.6482095"><ele>1284.0</ele><time>2026-04-05T09:32:57.602Z</time></trkpt><trkpt lat="44.7168831" lon="9.648167"><ele>1284.0</ele><time>2026-04-05T09:33:03.623Z</time></trkpt><trkpt lat="44.7169222" lon="9.6480837"><ele>1283.9999999999998</ele><time>2026-04-05T09:33:09.655Z</time></trkpt><trkpt lat="44.7169704" lon="9.6480178"><ele>1284.0</ele><time>2026-04-05T09:33:23.659Z</time></trkpt><trkpt lat="44.7169907" lon="9.6479317"><ele>1284.7142857142856</ele><time>2026-04-05T09:33:27.539Z</time></trkpt><trkpt lat="44.7170287" lon="9.6478398"><ele>1285.4285714285713</ele><time>2026-04-05T09:33:32.64Z</time></trkpt><trkpt lat="44.7170699" lon="9.6477646"><ele>1286.142857142857</ele><time>2026-04-05T09:33:38.672Z</time></trkpt><trkpt lat="44.7170793" lon="9.647672"><ele>1286.8571428571427</ele><time>2026-04-05T09:34:15.431Z</time></trkpt><trkpt lat="44.7171215" lon="9.6475946"><ele>1287.5714285714284</ele><time>2026-04-05T09:34:22.664Z</time></trkpt><trkpt lat="44.7171498" lon="9.6475059"><ele>1288.2857142857142</ele><time>2026-04-05T09:34:30.671Z</time></trkpt><trkpt lat="44.7171829" lon="9.6474227"><ele>1289.0</ele><time>2026-04-05T09:34:36.6Z</time></trkpt><trkpt lat="44.7171622" lon="9.6473308"><ele>1289.0</ele><time>2026-04-05T09:34:42.632Z</time></trkpt><trkpt lat="44.7171247" lon="9.647239"><ele>1289.0</ele><time>2026-04-05T09:34:48.61Z</time></trkpt><trkpt lat="44.7170837" lon="9.6471497"><ele>1289.0</ele><time>2026-04-05T09:34:54.592Z</time></trkpt><trkpt lat="44.7170426" lon="9.64708"><ele>1289.0</ele><time>2026-04-05T09:34:59.688Z</time></trkpt><trkpt lat="44.7170296" lon="9.6469817"><ele>1289.0</ele><time>2026-04-05T09:35:05.616Z</time></trkpt><trkpt lat="44.7170066" lon="9.6468848"><ele>1289.0</ele><time>2026-04-05T09:35:11.647Z</time></trkpt><trkpt lat="44.7169689" lon="9.6468124"><ele>1289.0</ele><time>2026-04-05T09:35:17.679Z</time></trkpt><trkpt lat="44.7169579" lon="9.6467183"><ele>1286.4285714285716</ele><time>2026-04-05T09:35:24.646Z</time></trkpt><trkpt lat="44.7169338" lon="9.6466331"><ele>1283.857142857143</ele><time>2026-04-05T09:35:31.616Z</time></trkpt><trkpt lat="44.7169261" lon="9.6465423"><ele>1281.2857142857142</ele><time>2026-04-05T09:35:37.648Z</time></trkpt><trkpt lat="44.7169105" lon="9.6464479"><ele>1278.7142857142858</ele><time>2026-04-05T09:35:45.63Z</time></trkpt><trkpt lat="44.7169209" lon="9.6463586"><ele>1276.142857142857</ele><time>2026-04-05T09:35:52.625Z</time></trkpt><trkpt lat="44.716921" lon="9.6462635"><ele>1273.5714285714287</ele><time>2026-04-05T09:35:59.6Z</time></trkpt><trkpt lat="44.7168756" lon="9.6461857"><ele>1271.0</ele><time>2026-04-05T09:36:05.624Z</time></trkpt><trkpt lat="44.7168703" lon="9.646091"><ele>1269.5714285714287</ele><time>2026-04-05T09:36:17.599Z</time></trkpt><trkpt lat="44.716913" lon="9.6460143"><ele>1268.142857142857</ele><time>2026-04-05T09:36:24.527Z</time></trkpt><trkpt lat="44.7169563" lon="9.6459366"><ele>1266.7142857142858</ele><time>2026-04-05T09:36:30.688Z</time></trkpt><trkpt lat="44.7169938" lon="9.64586"><ele>1265.2857142857142</ele><time>2026-04-05T09:36:36.615Z</time></trkpt><trkpt lat="44.7170541" lon="9.6458211"><ele>1263.857142857143</ele><time>2026-04-05T09:36:43.688Z</time></trkpt><trkpt lat="44.7171216" lon="9.6457974"><ele>1262.4285714285716</ele><time>2026-04-05T09:36:49.616Z</time></trkpt><trkpt lat="44.7171847" lon="9.6457656"><ele>1261.0</ele><time>2026-04-05T09:36:54.608Z</time></trkpt><trkpt lat="44.7172548" lon="9.6457727"><ele>1261.0</ele><time>2026-04-05T09:36:59.601Z</time></trkpt><trkpt lat="44.7173145" lon="9.6458238"><ele>1261.0</ele><time>2026-04-05T09:37:05.666Z</time></trkpt><trkpt lat="44.7173674" lon="9.6458935"><ele>1261.0</ele><time>2026-04-05T09:37:12.704Z</time></trkpt><trkpt lat="44.7174308" lon="9.6459255"><ele>1261.0</ele><time>2026-04-05T09:37:20.712Z</time></trkpt><trkpt lat="44.7174801" lon="9.6459954"><ele>1261.0</ele><time>2026-04-05T09:37:26.639Z</time></trkpt><trkpt lat="44.7175003" lon="9.6460885"><ele>1261.0</ele><time>2026-04-05T09:37:31.69Z</time></trkpt><trkpt lat="44.7175249" lon="9.6461807"><ele>1261.0</ele><time>2026-04-05T09:37:39.64Z</time></trkpt><trkpt lat="44.7175235" lon="9.6462778"><ele>1261.857142857143</ele><time>2026-04-05T09:37:45.672Z</time></trkpt><trkpt lat="44.7175204" lon="9.6463783"><ele>1262.7142857142858</ele><time>2026-04-05T09:37:51.704Z</time></trkpt><trkpt lat="44.7175279" lon="9.6464669"><ele>1263.5714285714284</ele><time>2026-04-05T09:37:56.695Z</time></trkpt><trkpt lat="44.7175861" lon="9.6465024"><ele>1264.4285714285716</ele><time>2026-04-05T09:38:04.703Z</time></trkpt><trkpt lat="44.7176518" lon="9.6464697"><ele>1265.2857142857142</ele><time>2026-04-05T09:38:11.672Z</time></trkpt><trkpt lat="44.7177206" lon="9.6464669"><ele>1266.142857142857</ele><time>2026-04-05T09:38:20.611Z</time></trkpt><trkpt lat="44.7177858" lon="9.6464677"><ele>1267.0</ele><time>2026-04-05T09:38:26.648Z</time></trkpt><trkpt lat="44.7178576" lon="9.6464797"><ele>1267.0</ele><time>2026-04-05T09:38:31.611Z</time></trkpt><trkpt lat="44.7179287" lon="9.646496"><ele>1267.0</ele><time>2026-04-05T09:38:37.733Z</time></trkpt><trkpt lat="44.7180042" lon="9.6464961"><ele>1267.0</ele><time>2026-04-05T09:38:43.704Z</time></trkpt><trkpt lat="44.7180748" lon="9.6465164"><ele>1267.0</ele><time>2026-04-05T09:38:48.696Z</time></trkpt><trkpt lat="44.7181471" lon="9.6465132"><ele>1267.0</ele><time>2026-04-05T09:38:55.664Z</time></trkpt><trkpt lat="44.7182145" lon="9.6464923"><ele>1267.0</ele><time>2026-04-05T09:39:00.656Z</time></trkpt><trkpt lat="44.7182788" lon="9.6464584"><ele>1267.0</ele><time>2026-04-05T09:39:08.851Z</time></trkpt><trkpt lat="44.7183285" lon="9.6464029"><ele>1267.0</ele><time>2026-04-05T09:39:13.952Z</time></trkpt><trkpt lat="44.7183771" lon="9.6463355"><ele>1267.0</ele><time>2026-04-05T09:39:19.272Z</time></trkpt><trkpt lat="44.7184391" lon="9.6463071"><ele>1267.0</ele><time>2026-04-05T09:39:25.671Z</time></trkpt><trkpt lat="44.7185056" lon="9.6462791"><ele>1267.0</ele><time>2026-04-05T09:39:31.647Z</time></trkpt><trkpt lat="44.7185674" lon="9.6462473"><ele>1267.0</ele><time>2026-04-05T09:39:36.712Z</time></trkpt><trkpt lat="44.718631" lon="9.6461976"><ele>1267.0</ele><time>2026-04-05T09:39:43.712Z</time></trkpt><trkpt lat="44.7186957" lon="9.6461668"><ele>1267.0</ele><time>2026-04-05T09:39:48.61Z</time></trkpt><trkpt lat="44.7187696" lon="9.6461695"><ele>1266.5714285714287</ele><time>2026-04-05T09:39:53.695Z</time></trkpt><trkpt lat="44.7188373" lon="9.646162"><ele>1266.142857142857</ele><time>2026-04-05T09:39:59.728Z</time></trkpt><trkpt lat="44.7189022" lon="9.6461271"><ele>1265.7142857142858</ele><time>2026-04-05T09:40:03.679Z</time></trkpt><trkpt lat="44.7189687" lon="9.6461305"><ele>1265.2857142857142</ele><time>2026-04-05T09:40:08.672Z</time></trkpt><trkpt lat="44.7190415" lon="9.6461495"><ele>1264.857142857143</ele><time>2026-04-05T09:40:15.64Z</time></trkpt><trkpt lat="44.719113" lon="9.6461496"><ele>1264.4285714285716</ele><time>2026-04-05T09:40:19.695Z</time></trkpt><trkpt lat="44.7191808" lon="9.646131"><ele>1264.0</ele><time>2026-04-05T09:40:26.663Z</time></trkpt><trkpt lat="44.719248" lon="9.6461061"><ele>1261.7142857142858</ele><time>2026-04-05T09:40:31.656Z</time></trkpt><trkpt lat="44.7193185" lon="9.6460839"><ele>1259.4285714285716</ele><time>2026-04-05T09:40:37.688Z</time></trkpt><trkpt lat="44.719394" lon="9.6460906"><ele>1257.1428571428573</ele><time>2026-04-05T09:40:42.671Z</time></trkpt><trkpt lat="44.7194556" lon="9.6461187"><ele>1254.857142857143</ele><time>2026-04-05T09:40:48.712Z</time></trkpt><trkpt lat="44.7195112" lon="9.6461746"><ele>1252.5714285714284</ele><time>2026-04-05T09:40:53.704Z</time></trkpt><trkpt lat="44.719579" lon="9.6462074"><ele>1250.2857142857144</ele><time>2026-04-05T09:40:59.728Z</time></trkpt><trkpt lat="44.7196435" lon="9.6462384"><ele>1248.0</ele><time>2026-04-05T09:41:05.611Z</time></trkpt><trkpt lat="44.7197069" lon="9.646242"><ele>1248.0</ele><time>2026-04-05T09:41:11.696Z</time></trkpt><trkpt lat="44.7197681" lon="9.6462194"><ele>1248.0</ele><time>2026-04-05T09:41:16.729Z</time></trkpt><trkpt lat="44.7198413" lon="9.6462153"><ele>1248.0</ele><time>2026-04-05T09:41:21.68Z</time></trkpt><trkpt lat="44.71991" lon="9.6462119"><ele>1248.0</ele><time>2026-04-05T09:41:28.648Z</time></trkpt><trkpt lat="44.7199729" lon="9.6461802"><ele>1248.0</ele><time>2026-04-05T09:41:35.712Z</time></trkpt><trkpt lat="44.7200275" lon="9.6461222"><ele>1248.0</ele><time>2026-04-05T09:41:43.751Z</time></trkpt><trkpt lat="44.7200742" lon="9.6460561"><ele>1248.0</ele><time>2026-04-05T09:41:51.691Z</time></trkpt><trkpt lat="44.7201302" lon="9.6460049"><ele>1245.2857142857144</ele><time>2026-04-05T09:42:00.68Z</time></trkpt><trkpt lat="44.7201853" lon="9.6459611"><ele>1242.5714285714284</ele><time>2026-04-05T09:42:07.648Z</time></trkpt><trkpt lat="44.7202588" lon="9.6459507"><ele>1239.857142857143</ele><time>2026-04-05T09:42:13.68Z</time></trkpt><trkpt lat="44.7203304" lon="9.6459374"><ele>1237.1428571428573</ele><time>2026-04-05T09:42:19.712Z</time></trkpt><trkpt lat="44.7204035" lon="9.6459499"><ele>1234.4285714285716</ele><time>2026-04-05T09:42:24.704Z</time></trkpt><trkpt lat="44.7204735" lon="9.6459466"><ele>1231.7142857142858</ele><time>2026-04-05T09:42:30.611Z</time></trkpt><trkpt lat="44.7205385" lon="9.6459172"><ele>1229.0</ele><time>2026-04-05T09:42:42.695Z</time></trkpt><trkpt lat="44.7206077" lon="9.645908"><ele>1227.4285714285716</ele><time>2026-04-05T09:42:53.72Z</time></trkpt><trkpt lat="44.7206729" lon="9.6459295"><ele>1225.857142857143</ele><time>2026-04-05T09:43:02.663Z</time></trkpt><trkpt lat="44.7207403" lon="9.6459026"><ele>1224.2857142857142</ele><time>2026-04-05T09:43:28.631Z</time></trkpt><trkpt lat="44.7208058" lon="9.6458613"><ele>1222.7142857142858</ele><time>2026-04-05T09:43:35.68Z</time></trkpt><trkpt lat="44.7208716" lon="9.6458309"><ele>1221.142857142857</ele><time>2026-04-05T09:43:55.365Z</time></trkpt><trkpt lat="44.7209417" lon="9.6458357"><ele>1219.5714285714287</ele><time>2026-04-05T09:44:01.631Z</time></trkpt><trkpt lat="44.7210132" lon="9.6458096"><ele>1218.0</ele><time>2026-04-05T09:44:06.623Z</time></trkpt><trkpt lat="44.7210803" lon="9.6457811"><ele>1216.4285714285713</ele><time>2026-04-05T09:44:11.615Z</time></trkpt><trkpt lat="44.721148" lon="9.6457852"><ele>1214.857142857143</ele><time>2026-04-05T09:44:17.647Z</time></trkpt><trkpt lat="44.7212217" lon="9.6457715"><ele>1213.2857142857142</ele><time>2026-04-05T09:44:22.64Z</time></trkpt><trkpt lat="44.7212822" lon="9.6457226"><ele>1211.7142857142858</ele><time>2026-04-05T09:44:27.669Z</time></trkpt><trkpt lat="44.7213438" lon="9.6456905"><ele>1210.142857142857</ele><time>2026-04-05T09:44:32.624Z</time></trkpt><trkpt lat="44.7214059" lon="9.6456552"><ele>1208.5714285714284</ele><time>2026-04-05T09:44:42.711Z</time></trkpt><trkpt lat="44.7214658" lon="9.645602"><ele>1207.0</ele><time>2026-04-05T09:44:50.72Z</time></trkpt><trkpt lat="44.7215192" lon="9.6455517"><ele>1206.9999999999998</ele><time>2026-04-05T09:44:59.664Z</time></trkpt><trkpt lat="44.7215791" lon="9.6455236"><ele>1207.0</ele><time>2026-04-05T09:45:06.632Z</time></trkpt><trkpt lat="44.721647" lon="9.6455147"><ele>1207.0</ele><time>2026-04-05T09:45:13.704Z</time></trkpt><trkpt lat="44.7217174" lon="9.6455207"><ele>1207.0</ele><time>2026-04-05T09:45:18.696Z</time></trkpt><trkpt lat="44.7217774" lon="9.6455595"><ele>1207.0</ele><time>2026-04-05T09:45:24.624Z</time></trkpt><trkpt lat="44.7218472" lon="9.6455959"><ele>1206.9999999999998</ele><time>2026-04-05T09:45:29.72Z</time></trkpt><trkpt lat="44.7219128" lon="9.6456392"><ele>1207.0</ele><time>2026-04-05T09:45:36.687Z</time></trkpt><trkpt lat="44.7219547" lon="9.6457208"><ele>1206.4285714285713</ele><time>2026-04-05T09:45:52.607Z</time></trkpt><trkpt lat="44.7219945" lon="9.6457917"><ele>1205.857142857143</ele><time>2026-04-05T09:45:55.626Z</time></trkpt><trkpt lat="44.7220404" lon="9.645854"><ele>1205.2857142857142</ele><time>2026-04-05T09:45:59.671Z</time></trkpt><trkpt lat="44.722099" lon="9.6459065"><ele>1204.7142857142858</ele><time>2026-04-05T09:46:07.68Z</time></trkpt><trkpt lat="44.7221625" lon="9.6459363"><ele>1204.142857142857</ele><time>2026-04-05T09:46:13.591Z</time></trkpt><trkpt lat="44.7222334" lon="9.6459628"><ele>1203.5714285714284</ele><time>2026-04-05T09:46:19.64Z</time></trkpt><trkpt lat="44.7222987" lon="9.6459905"><ele>1203.0</ele><time>2026-04-05T09:46:24.632Z</time></trkpt><trkpt lat="44.7223673" lon="9.6459928"><ele>1203.0</ele><time>2026-04-05T09:46:29.624Z</time></trkpt><trkpt lat="44.7224336" lon="9.645974"><ele>1203.0</ele><time>2026-04-05T09:46:35.656Z</time></trkpt><trkpt lat="44.7224989" lon="9.645959"><ele>1203.0</ele><time>2026-04-05T09:46:41.584Z</time></trkpt><trkpt lat="44.7225606" lon="9.6460087"><ele>1203.0</ele><time>2026-04-05T09:46:45.64Z</time></trkpt><trkpt lat="44.722613" lon="9.6460734"><ele>1203.0</ele><time>2026-04-05T09:46:50.631Z</time></trkpt><trkpt lat="44.7226766" lon="9.646121"><ele>1203.0</ele><time>2026-04-05T09:46:57.526Z</time></trkpt><trkpt lat="44.7227412" lon="9.6461533"><ele>1203.0</ele><time>2026-04-05T09:47:02.61Z</time></trkpt><trkpt lat="44.7228062" lon="9.646167"><ele>1200.4285714285713</ele><time>2026-04-05T09:47:07.688Z</time></trkpt><trkpt lat="44.7228747" lon="9.6461534"><ele>1197.857142857143</ele><time>2026-04-05T09:47:13.616Z</time></trkpt><trkpt lat="44.7229354" lon="9.6461997"><ele>1195.2857142857142</ele><time>2026-04-05T09:47:20.551Z</time></trkpt><trkpt lat="44.7230032" lon="9.6462084"><ele>1192.7142857142858</ele><time>2026-04-05T09:47:25.68Z</time></trkpt><trkpt lat="44.7230671" lon="9.6462057"><ele>1190.142857142857</ele><time>2026-04-05T09:47:30.649Z</time></trkpt><trkpt lat="44.7231358" lon="9.6461863"><ele>1187.5714285714284</ele><time>2026-04-05T09:47:37.611Z</time></trkpt><trkpt lat="44.7231661" lon="9.6461012"><ele>1185.0</ele><time>2026-04-05T09:47:43.65Z</time></trkpt><trkpt lat="44.7232104" lon="9.6460372"><ele>1185.0</ele><time>2026-04-05T09:47:48.73Z</time></trkpt><trkpt lat="44.723271" lon="9.6460047"><ele>1185.0</ele><time>2026-04-05T09:47:53.656Z</time></trkpt><trkpt lat="44.7233435" lon="9.6460034"><ele>1185.0</ele><time>2026-04-05T09:47:58.648Z</time></trkpt><trkpt lat="44.7234123" lon="9.6460103"><ele>1185.0</ele><time>2026-04-05T09:48:03.639Z</time></trkpt><trkpt lat="44.7234784" lon="9.6459971"><ele>1185.0</ele><time>2026-04-05T09:48:08.671Z</time></trkpt><trkpt lat="44.7235429" lon="9.6459729"><ele>1185.0</ele><time>2026-04-05T09:48:14.664Z</time></trkpt><trkpt lat="44.7236056" lon="9.6459454"><ele>1185.0</ele><time>2026-04-05T09:48:20.696Z</time></trkpt><trkpt lat="44.7236678" lon="9.64593"><ele>1183.857142857143</ele><time>2026-04-05T09:48:25.688Z</time></trkpt><trkpt lat="44.7237321" lon="9.6459155"><ele>1182.7142857142856</ele><time>2026-04-05T09:48:31.72Z</time></trkpt><trkpt lat="44.7237982" lon="9.6459149"><ele>1181.5714285714284</ele><time>2026-04-05T09:48:38.592Z</time></trkpt><trkpt lat="44.723868" lon="9.6459014"><ele>1180.4285714285713</ele><time>2026-04-05T09:48:44.616Z</time></trkpt><trkpt lat="44.7239329" lon="9.6459259"><ele>1179.2857142857142</ele><time>2026-04-05T09:48:48.006Z</time></trkpt><trkpt lat="44.7240051" lon="9.6459618"><ele>1178.142857142857</ele><time>2026-04-05T09:48:53.666Z</time></trkpt><trkpt lat="44.7240756" lon="9.6459468"><ele>1177.0</ele><time>2026-04-05T09:48:59.696Z</time></trkpt><trkpt lat="44.724141" lon="9.6459126"><ele>1177.0</ele><time>2026-04-05T09:49:04.688Z</time></trkpt><trkpt lat="44.7242033" lon="9.645861"><ele>1177.0</ele><time>2026-04-05T09:49:09.68Z</time></trkpt><trkpt lat="44.7242504" lon="9.6457989"><ele>1177.0</ele><time>2026-04-05T09:49:14.671Z</time></trkpt><trkpt lat="44.7243015" lon="9.6457413"><ele>1177.0</ele><time>2026-04-05T09:49:20.703Z</time></trkpt><trkpt lat="44.7243461" lon="9.6456787"><ele>1177.0</ele><time>2026-04-05T09:49:25.696Z</time></trkpt><trkpt lat="44.7243854" lon="9.645608"><ele>1177.0</ele><time>2026-04-05T09:49:30.688Z</time></trkpt><trkpt lat="44.7244319" lon="9.6455445"><ele>1177.0</ele><time>2026-04-05T09:49:36.589Z</time></trkpt><trkpt lat="44.7244401" lon="9.6454438"><ele>1177.2857142857142</ele><time>2026-04-05T09:49:42.648Z</time></trkpt><trkpt lat="44.7244538" lon="9.6453512"><ele>1177.5714285714284</ele><time>2026-04-05T09:49:49.634Z</time></trkpt><trkpt lat="44.7244836" lon="9.6452499"><ele>1177.8571428571427</ele><time>2026-04-05T09:49:55.648Z</time></trkpt><trkpt lat="44.7245171" lon="9.6451657"><ele>1178.142857142857</ele><time>2026-04-05T09:49:59.704Z</time></trkpt><trkpt lat="44.724554" lon="9.6450881"><ele>1178.4285714285713</ele><time>2026-04-05T09:50:03.691Z</time></trkpt><trkpt lat="44.724575" lon="9.6449953"><ele>1178.7142857142856</ele><time>2026-04-05T09:50:09.65Z</time></trkpt><trkpt lat="44.7246005" lon="9.644912"><ele>1179.0</ele><time>2026-04-05T09:50:14.68Z</time></trkpt><trkpt lat="44.7246307" lon="9.6448257"><ele>1178.9999999999998</ele><time>2026-04-05T09:50:19.672Z</time></trkpt><trkpt lat="44.7246568" lon="9.6447361"><ele>1179.0</ele><time>2026-04-05T09:50:23.691Z</time></trkpt><trkpt lat="44.7246937" lon="9.6446494"><ele>1179.0</ele><time>2026-04-05T09:50:28.72Z</time></trkpt><trkpt lat="44.7247218" lon="9.6445633"><ele>1179.0</ele><time>2026-04-05T09:50:33.711Z</time></trkpt><trkpt lat="44.7247373" lon="9.6444638"><ele>1179.0</ele><time>2026-04-05T09:50:39.691Z</time></trkpt><trkpt lat="44.7247732" lon="9.6443814"><ele>1178.9999999999998</ele><time>2026-04-05T09:50:45.61Z</time></trkpt><trkpt lat="44.7248253" lon="9.6443054"><ele>1179.0</ele><time>2026-04-05T09:50:50.664Z</time></trkpt><trkpt lat="44.7248742" lon="9.6442211"><ele>1177.9999999999998</ele><time>2026-04-05T09:50:54.72Z</time></trkpt><trkpt lat="44.7249235" lon="9.6441506"><ele>1177.0</ele><time>2026-04-05T09:51:02.623Z</time></trkpt><trkpt lat="44.7249741" lon="9.6440933"><ele>1176.0</ele><time>2026-04-05T09:51:09.631Z</time></trkpt><trkpt lat="44.7250385" lon="9.6440294"><ele>1175.0</ele><time>2026-04-05T09:51:16.711Z</time></trkpt><trkpt lat="44.7250935" lon="9.6439855"><ele>1174.0</ele><time>2026-04-05T09:51:23.632Z</time></trkpt><trkpt lat="44.725172" lon="9.6439786"><ele>1172.9999999999998</ele><time>2026-04-05T09:51:29.664Z</time></trkpt><trkpt lat="44.7252438" lon="9.6439663"><ele>1172.0</ele><time>2026-04-05T09:51:36.632Z</time></trkpt><trkpt lat="44.7253134" lon="9.6439501"><ele>1171.9999999999998</ele><time>2026-04-05T09:51:42.608Z</time></trkpt><trkpt lat="44.7253854" lon="9.6439196"><ele>1172.0</ele><time>2026-04-05T09:51:48.696Z</time></trkpt><trkpt lat="44.7254464" lon="9.6438746"><ele>1172.0</ele><time>2026-04-05T09:51:53.553Z</time></trkpt><trkpt lat="44.7255005" lon="9.6438224"><ele>1172.0</ele><time>2026-04-05T09:51:59.711Z</time></trkpt><trkpt lat="44.725536" lon="9.6437394"><ele>1172.0</ele><time>2026-04-05T09:52:05.647Z</time></trkpt><trkpt lat="44.7255643" lon="9.6436597"><ele>1171.9999999999998</ele><time>2026-04-05T09:52:10.61Z</time></trkpt><trkpt lat="44.7255995" lon="9.643579"><ele>1172.0</ele><time>2026-04-05T09:52:17.712Z</time></trkpt><trkpt lat="44.725648" lon="9.643505"><ele>1170.2857142857142</ele><time>2026-04-05T09:52:24.68Z</time></trkpt><trkpt lat="44.7256805" lon="9.6434251"><ele>1168.5714285714284</ele><time>2026-04-05T09:52:30.712Z</time></trkpt><trkpt lat="44.725708" lon="9.6433346"><ele>1166.857142857143</ele><time>2026-04-05T09:52:35.704Z</time></trkpt><trkpt lat="44.7257437" lon="9.6432446"><ele>1165.142857142857</ele><time>2026-04-05T09:52:41.65Z</time></trkpt><trkpt lat="44.7257751" lon="9.6431606"><ele>1163.4285714285716</ele><time>2026-04-05T09:52:46.624Z</time></trkpt><trkpt lat="44.7258047" lon="9.6430756"><ele>1161.7142857142858</ele><time>2026-04-05T09:52:52.656Z</time></trkpt><trkpt lat="44.7258531" lon="9.6429916"><ele>1160.0</ele><time>2026-04-05T09:52:57.648Z</time></trkpt><trkpt lat="44.7258822" lon="9.6429007"><ele>1160.0</ele><time>2026-04-05T09:53:21.672Z</time></trkpt><trkpt lat="44.7259141" lon="9.6428234"><ele>1160.0</ele><time>2026-04-05T09:53:26.663Z</time></trkpt><trkpt lat="44.7259532" lon="9.6427388"><ele>1160.0</ele><time>2026-04-05T09:53:33.632Z</time></trkpt><trkpt lat="44.7259715" lon="9.6426427"><ele>1160.0</ele><time>2026-04-05T09:53:51.624Z</time></trkpt><trkpt lat="44.7260284" lon="9.6425795"><ele>1160.0</ele><time>2026-04-05T09:53:57.671Z</time></trkpt><trkpt lat="44.7260503" lon="9.6424953"><ele>1160.0</ele><time>2026-04-05T09:54:02.569Z</time></trkpt><trkpt lat="44.7260985" lon="9.6424175"><ele>1160.0</ele><time>2026-04-05T09:54:07.64Z</time></trkpt><trkpt lat="44.7261475" lon="9.6423521"><ele>1160.7142857142858</ele><time>2026-04-05T09:54:14.608Z</time></trkpt><trkpt lat="44.7261906" lon="9.6422778"><ele>1161.4285714285716</ele><time>2026-04-05T09:54:30.624Z</time></trkpt><trkpt lat="44.726244" lon="9.6422144"><ele>1162.142857142857</ele><time>2026-04-05T09:54:36.656Z</time></trkpt><trkpt lat="44.7262936" lon="9.6421597"><ele>1162.857142857143</ele><time>2026-04-05T09:54:42.688Z</time></trkpt><trkpt lat="44.7263445" lon="9.6421019"><ele>1163.5714285714284</ele><time>2026-04-05T09:54:47.679Z</time></trkpt><trkpt lat="44.7263937" lon="9.6420403"><ele>1164.2857142857142</ele><time>2026-04-05T09:54:52.672Z</time></trkpt><trkpt lat="44.7264441" lon="9.6419725"><ele>1165.0</ele><time>2026-04-05T09:54:58.65Z</time></trkpt><trkpt lat="44.7264891" lon="9.6418981"><ele>1160.2857142857142</ele><time>2026-04-05T09:55:06.607Z</time></trkpt><trkpt lat="44.7265314" lon="9.6418295"><ele>1155.5714285714284</ele><time>2026-04-05T09:55:11.603Z</time></trkpt><trkpt lat="44.726582" lon="9.6417692"><ele>1150.857142857143</ele><time>2026-04-05T09:55:16.696Z</time></trkpt><trkpt lat="44.7265167" lon="9.6417137"><ele>1146.142857142857</ele><time>2026-04-05T09:55:53.72Z</time></trkpt><trkpt lat="44.7264524" lon="9.6417334"><ele>1141.4285714285716</ele><time>2026-04-05T09:55:58.712Z</time></trkpt><trkpt lat="44.726391" lon="9.6417634"><ele>1136.7142857142858</ele><time>2026-04-05T09:56:04.64Z</time></trkpt><trkpt lat="44.7263362" lon="9.6418113"><ele>1132.0</ele><time>2026-04-05T09:56:11.65Z</time></trkpt><trkpt lat="44.7262746" lon="9.6418582"><ele>1132.0</ele><time>2026-04-05T09:56:18.68Z</time></trkpt><trkpt lat="44.7262089" lon="9.6418964"><ele>1132.0</ele><time>2026-04-05T09:56:23.591Z</time></trkpt><trkpt lat="44.7261452" lon="9.6419066"><ele>1132.0</ele><time>2026-04-05T09:56:27.624Z</time></trkpt><trkpt lat="44.7260942" lon="9.641963"><ele>1132.0</ele><time>2026-04-05T09:56:34.696Z</time></trkpt><trkpt lat="44.7260399" lon="9.6420261"><ele>1132.0</ele><time>2026-04-05T09:56:40.624Z</time></trkpt><trkpt lat="44.7259773" lon="9.6420842"><ele>1132.0</ele><time>2026-04-05T09:56:47.695Z</time></trkpt><trkpt lat="44.7259121" lon="9.6421341"><ele>1132.0</ele><time>2026-04-05T09:56:52.688Z</time></trkpt><trkpt lat="44.7258631" lon="9.6421923"><ele>1133.2857142857142</ele><time>2026-04-05T09:56:59.656Z</time></trkpt><trkpt lat="44.7258053" lon="9.6422457"><ele>1134.5714285714287</ele><time>2026-04-05T09:57:05.687Z</time></trkpt><trkpt lat="44.725749" lon="9.6423012"><ele>1135.857142857143</ele><time>2026-04-05T09:57:12.655Z</time></trkpt><trkpt lat="44.7256854" lon="9.6423383"><ele>1137.142857142857</ele><time>2026-04-05T09:57:19.716Z</time></trkpt><trkpt lat="44.7256269" lon="9.6423834"><ele>1138.4285714285716</ele><time>2026-04-05T09:57:25.656Z</time></trkpt><trkpt lat="44.7255778" lon="9.6424452"><ele>1139.7142857142858</ele><time>2026-04-05T09:57:31.688Z</time></trkpt><trkpt lat="44.7255287" lon="9.6425013"><ele>1141.0</ele><time>2026-04-05T09:57:38.63Z</time></trkpt><trkpt lat="44.7254732" lon="9.6425521"><ele>1141.0</ele><time>2026-04-05T09:57:49.679Z</time></trkpt><trkpt lat="44.7254208" lon="9.6423996"><ele>1141.0</ele><time>2026-04-05T09:58:18.696Z</time></trkpt><trkpt lat="44.7254619" lon="9.6423054"><ele>1141.0</ele><time>2026-04-05T09:58:22.648Z</time></trkpt><trkpt lat="44.7255014" lon="9.6422301"><ele>1141.0</ele><time>2026-04-05T09:58:29.593Z</time></trkpt><trkpt lat="44.7255257" lon="9.6421417"><ele>1141.0</ele><time>2026-04-05T09:58:38.549Z</time></trkpt><trkpt lat="44.7255544" lon="9.6420408"><ele>1141.0</ele><time>2026-04-05T09:58:45.712Z</time></trkpt><trkpt lat="44.7255669" lon="9.6419463"><ele>1136.857142857143</ele><time>2026-04-05T09:58:50.623Z</time></trkpt><trkpt lat="44.725576" lon="9.6418546"><ele>1132.7142857142858</ele><time>2026-04-05T09:58:57.696Z</time></trkpt><trkpt lat="44.7256069" lon="9.6417681"><ele>1128.5714285714284</ele><time>2026-04-05T09:59:04.65Z</time></trkpt><trkpt lat="44.7256524" lon="9.6416965"><ele>1124.4285714285716</ele><time>2026-04-05T09:59:10.713Z</time></trkpt><trkpt lat="44.7257091" lon="9.6416343"><ele>1120.2857142857142</ele><time>2026-04-05T09:59:17.671Z</time></trkpt><trkpt lat="44.7257658" lon="9.6415848"><ele>1116.142857142857</ele><time>2026-04-05T09:59:25.672Z</time></trkpt><trkpt lat="44.7258248" lon="9.6415265"><ele>1112.0</ele><time>2026-04-05T09:59:32.64Z</time></trkpt><trkpt lat="44.7258837" lon="9.6414765"><ele>1112.0</ele><time>2026-04-05T09:59:37.631Z</time></trkpt><trkpt lat="44.7259238" lon="9.6413954"><ele>1112.0</ele><time>2026-04-05T09:59:44.703Z</time></trkpt><trkpt lat="44.7259695" lon="9.6413187"><ele>1112.0</ele><time>2026-04-05T09:59:50.632Z</time></trkpt><trkpt lat="44.7260029" lon="9.6412393"><ele>1112.0</ele><time>2026-04-05T09:59:56.664Z</time></trkpt><trkpt lat="44.7260456" lon="9.6411653"><ele>1112.0</ele><time>2026-04-05T10:00:01.656Z</time></trkpt><trkpt lat="44.7260964" lon="9.6411014"><ele>1112.0</ele><time>2026-04-05T10:00:08.727Z</time></trkpt><trkpt lat="44.7261577" lon="9.6410553"><ele>1112.0</ele><time>2026-04-05T10:00:17.631Z</time></trkpt><trkpt lat="44.7262007" lon="9.6409893"><ele>1111.0</ele><time>2026-04-05T10:00:25.61Z</time></trkpt><trkpt lat="44.7262439" lon="9.6409199"><ele>1110.0</ele><time>2026-04-05T10:00:33.687Z</time></trkpt><trkpt lat="44.7262585" lon="9.6408285"><ele>1109.0</ele><time>2026-04-05T10:00:40.712Z</time></trkpt><trkpt lat="44.7262137" lon="9.6407568"><ele>1108.0</ele><time>2026-04-05T10:00:53.655Z</time></trkpt><trkpt lat="44.7261581" lon="9.640704"><ele>1107.0</ele><time>2026-04-05T10:01:00.624Z</time></trkpt><trkpt lat="44.7260954" lon="9.6406917"><ele>1106.0</ele><time>2026-04-05T10:01:09.671Z</time></trkpt><trkpt lat="44.7260315" lon="9.6406671"><ele>1105.0</ele><time>2026-04-05T10:01:18.72Z</time></trkpt><trkpt lat="44.7259672" lon="9.6406419"><ele>1102.0</ele><time>2026-04-05T10:01:26.691Z</time></trkpt><trkpt lat="44.7259062" lon="9.6406067"><ele>1099.0</ele><time>2026-04-05T10:01:35.672Z</time></trkpt><trkpt lat="44.7258419" lon="9.6405849"><ele>1096.0</ele><time>2026-04-05T10:01:43.68Z</time></trkpt><trkpt lat="44.7257771" lon="9.6406079"><ele>1093.0</ele><time>2026-04-05T10:01:52.623Z</time></trkpt><trkpt lat="44.7257067" lon="9.6406051"><ele>1090.0</ele><time>2026-04-05T10:02:03.647Z</time></trkpt><trkpt lat="44.7256356" lon="9.6405964"><ele>1087.0</ele><time>2026-04-05T10:02:11.651Z</time></trkpt><trkpt lat="44.7255684" lon="9.6405895"><ele>1084.0</ele><time>2026-04-05T10:02:20.711Z</time></trkpt><trkpt lat="44.7254961" lon="9.640573"><ele>1084.0</ele><time>2026-04-05T10:02:29.648Z</time></trkpt><trkpt lat="44.7254359" lon="9.6405368"><ele>1084.0</ele><time>2026-04-05T10:02:36.72Z</time></trkpt><trkpt lat="44.7253899" lon="9.6404763"><ele>1084.0</ele><time>2026-04-05T10:02:44.624Z</time></trkpt><trkpt lat="44.7253454" lon="9.6404097"><ele>1084.0</ele><time>2026-04-05T10:02:51.695Z</time></trkpt><trkpt lat="44.7253055" lon="9.6403278"><ele>1084.0</ele><time>2026-04-05T10:03:00.64Z</time></trkpt><trkpt lat="44.7252551" lon="9.6402681"><ele>1084.0</ele><time>2026-04-05T10:03:08.648Z</time></trkpt><trkpt lat="44.7252016" lon="9.6402111"><ele>1084.0</ele><time>2026-04-05T10:03:15.651Z</time></trkpt><trkpt lat="44.7251623" lon="9.6401302"><ele>1079.2857142857142</ele><time>2026-04-05T10:03:23.531Z</time></trkpt><trkpt lat="44.7251406" lon="9.6400409"><ele>1074.5714285714287</ele><time>2026-04-05T10:03:30.65Z</time></trkpt><trkpt lat="44.7251279" lon="9.6399393"><ele>1069.857142857143</ele><time>2026-04-05T10:03:37.664Z</time></trkpt><trkpt lat="44.7251504" lon="9.6398385"><ele>1065.142857142857</ele><time>2026-04-05T10:03:42.656Z</time></trkpt><trkpt lat="44.7251811" lon="9.6397362"><ele>1060.4285714285713</ele><time>2026-04-05T10:03:47.647Z</time></trkpt><trkpt lat="44.7252104" lon="9.6396505"><ele>1055.7142857142858</ele><time>2026-04-05T10:03:52.635Z</time></trkpt><trkpt lat="44.7252278" lon="9.6395604"><ele>1051.0</ele><time>2026-04-05T10:03:57.772Z</time></trkpt><trkpt lat="44.7252259" lon="9.6394716"><ele>1050.142857142857</ele><time>2026-04-05T10:04:03.664Z</time></trkpt><trkpt lat="44.7252095" lon="9.6393855"><ele>1049.2857142857142</ele><time>2026-04-05T10:04:09.672Z</time></trkpt><trkpt lat="44.7252121" lon="9.6392921"><ele>1048.4285714285713</ele><time>2026-04-05T10:04:15.623Z</time></trkpt><trkpt lat="44.7252087" lon="9.6391832"><ele>1047.5714285714284</ele><time>2026-04-05T10:04:19.679Z</time></trkpt><trkpt lat="44.7252091" lon="9.6390822"><ele>1046.7142857142856</ele><time>2026-04-05T10:04:23.632Z</time></trkpt><trkpt lat="44.7252036" lon="9.6389849"><ele>1045.857142857143</ele><time>2026-04-05T10:04:28.571Z</time></trkpt><trkpt lat="44.7252046" lon="9.6388943"><ele>1045.0</ele><time>2026-04-05T10:04:33.615Z</time></trkpt><trkpt lat="44.7252023" lon="9.6387959"><ele>1045.0</ele><time>2026-04-05T10:04:40.688Z</time></trkpt><trkpt lat="44.7252064" lon="9.6386991"><ele>1045.0</ele><time>2026-04-05T10:04:45.68Z</time></trkpt><trkpt lat="44.7252104" lon="9.6385987"><ele>1045.0</ele><time>2026-04-05T10:04:50.672Z</time></trkpt><trkpt lat="44.7252131" lon="9.638501"><ele>1045.0</ele><time>2026-04-05T10:04:56.703Z</time></trkpt><trkpt lat="44.7252087" lon="9.638406"><ele>1045.0</ele><time>2026-04-05T10:05:01.696Z</time></trkpt><trkpt lat="44.725215" lon="9.6382994"><ele>1045.0</ele><time>2026-04-05T10:05:06.672Z</time></trkpt><trkpt lat="44.7252148" lon="9.6382022"><ele>1045.0</ele><time>2026-04-05T10:05:12.72Z</time></trkpt><trkpt lat="44.7252531" lon="9.6381271"><ele>1047.142857142857</ele><time>2026-04-05T10:05:17.712Z</time></trkpt><trkpt lat="44.7252965" lon="9.6380494"><ele>1049.2857142857142</ele><time>2026-04-05T10:05:23.64Z</time></trkpt><trkpt lat="44.7253511" lon="9.6379857"><ele>1051.4285714285713</ele><time>2026-04-05T10:05:29.672Z</time></trkpt><trkpt lat="44.7254025" lon="9.6379221"><ele>1053.5714285714284</ele><time>2026-04-05T10:05:36.64Z</time></trkpt><trkpt lat="44.7254652" lon="9.6378674"><ele>1055.7142857142858</ele><time>2026-04-05T10:05:42.671Z</time></trkpt><trkpt lat="44.7255172" lon="9.637799"><ele>1057.8571428571427</ele><time>2026-04-05T10:05:48.601Z</time></trkpt><trkpt lat="44.7255511" lon="9.6377146"><ele>1060.0</ele><time>2026-04-05T10:05:54.632Z</time></trkpt><trkpt lat="44.725586" lon="9.6376273"><ele>1059.9999999999998</ele><time>2026-04-05T10:05:59.624Z</time></trkpt><trkpt lat="44.7255966" lon="9.6375312"><ele>1060.0</ele><time>2026-04-05T10:06:04.671Z</time></trkpt><trkpt lat="44.7255993" lon="9.6374374"><ele>1060.0</ele><time>2026-04-05T10:06:09.608Z</time></trkpt><trkpt lat="44.7255921" lon="9.6373431"><ele>1060.0</ele><time>2026-04-05T10:06:13.664Z</time></trkpt><trkpt lat="44.7255721" lon="9.637251"><ele>1060.0</ele><time>2026-04-05T10:06:18.656Z</time></trkpt><trkpt lat="44.7255909" lon="9.6371659"><ele>1059.9999999999998</ele><time>2026-04-05T10:06:23.631Z</time></trkpt><trkpt lat="44.7256398" lon="9.6370831"><ele>1060.0</ele><time>2026-04-05T10:06:29.68Z</time></trkpt><trkpt lat="44.7256878" lon="9.6370209"><ele>1061.4285714285713</ele><time>2026-04-05T10:06:34.672Z</time></trkpt><trkpt lat="44.7257358" lon="9.6369614"><ele>1062.857142857143</ele><time>2026-04-05T10:06:39.653Z</time></trkpt><trkpt lat="44.7258094" lon="9.6369372"><ele>1064.2857142857142</ele><time>2026-04-05T10:06:45.601Z</time></trkpt><trkpt lat="44.725882" lon="9.6369206"><ele>1065.7142857142858</ele><time>2026-04-05T10:06:50.687Z</time></trkpt><trkpt lat="44.7259312" lon="9.6368602"><ele>1067.142857142857</ele><time>2026-04-05T10:06:56.615Z</time></trkpt><trkpt lat="44.7259877" lon="9.6368211"><ele>1068.5714285714284</ele><time>2026-04-05T10:07:01.711Z</time></trkpt><trkpt lat="44.7260418" lon="9.6367756"><ele>1070.0</ele><time>2026-04-05T10:07:07.639Z</time></trkpt><trkpt lat="44.7260812" lon="9.6367047"><ele>1070.0</ele><time>2026-04-05T10:07:11.696Z</time></trkpt><trkpt lat="44.7261212" lon="9.6366204"><ele>1070.0</ele><time>2026-04-05T10:07:16.688Z</time></trkpt><trkpt lat="44.7261589" lon="9.6365462"><ele>1070.0</ele><time>2026-04-05T10:07:21.575Z</time></trkpt><trkpt lat="44.7261577" lon="9.63644"><ele>1070.0</ele><time>2026-04-05T10:07:27.712Z</time></trkpt><trkpt lat="44.7261218" lon="9.6363409"><ele>1070.0</ele><time>2026-04-05T10:07:31.633Z</time></trkpt><trkpt lat="44.7261061" lon="9.6362367"><ele>1070.0</ele><time>2026-04-05T10:07:35.72Z</time></trkpt><trkpt lat="44.7260838" lon="9.6361461"><ele>1070.0</ele><time>2026-04-05T10:07:42.71Z</time></trkpt><trkpt lat="44.7260959" lon="9.6360426"><ele>1068.5714285714284</ele><time>2026-04-05T10:07:48.72Z</time></trkpt><trkpt lat="44.7261307" lon="9.6359551"><ele>1067.142857142857</ele><time>2026-04-05T10:07:52.671Z</time></trkpt><trkpt lat="44.7261306" lon="9.6358555"><ele>1065.7142857142858</ele><time>2026-04-05T10:07:58.704Z</time></trkpt><trkpt lat="44.7261456" lon="9.6357528"><ele>1064.2857142857142</ele><time>2026-04-05T10:08:03.712Z</time></trkpt><trkpt lat="44.7261557" lon="9.6356542"><ele>1062.857142857143</ele><time>2026-04-05T10:08:09.623Z</time></trkpt><trkpt lat="44.7261752" lon="9.6355667"><ele>1061.4285714285713</ele><time>2026-04-05T10:08:14.615Z</time></trkpt><trkpt lat="44.7262195" lon="9.6354766"><ele>1060.0</ele><time>2026-04-05T10:08:19.712Z</time></trkpt><trkpt lat="44.7262603" lon="9.635405"><ele>1059.9999999999998</ele><time>2026-04-05T10:08:23.69Z</time></trkpt><trkpt lat="44.7263045" lon="9.6353263"><ele>1060.0</ele><time>2026-04-05T10:08:28.69Z</time></trkpt><trkpt lat="44.7263472" lon="9.635236"><ele>1060.0</ele><time>2026-04-05T10:08:35.696Z</time></trkpt><trkpt lat="44.7263911" lon="9.6351659"><ele>1060.0</ele><time>2026-04-05T10:08:40.72Z</time></trkpt><trkpt lat="44.7264135" lon="9.635077"><ele>1060.0</ele><time>2026-04-05T10:08:46.648Z</time></trkpt><trkpt lat="44.7264476" lon="9.6349817"><ele>1059.9999999999998</ele><time>2026-04-05T10:08:52.61Z</time></trkpt><trkpt lat="44.7264875" lon="9.6349059"><ele>1060.0</ele><time>2026-04-05T10:08:58.65Z</time></trkpt><trkpt lat="44.7265381" lon="9.6348297"><ele>1058.2857142857142</ele><time>2026-04-05T10:09:06.72Z</time></trkpt><trkpt lat="44.7265881" lon="9.6347726"><ele>1056.5714285714284</ele><time>2026-04-05T10:09:11.712Z</time></trkpt><trkpt lat="44.7266396" lon="9.6347204"><ele>1054.857142857143</ele><time>2026-04-05T10:09:19.72Z</time></trkpt><trkpt lat="44.7266962" lon="9.6346797"><ele>1053.142857142857</ele><time>2026-04-05T10:09:24.712Z</time></trkpt><trkpt lat="44.7267649" lon="9.6346649"><ele>1051.4285714285716</ele><time>2026-04-05T10:09:28.663Z</time></trkpt><trkpt lat="44.7268343" lon="9.6346264"><ele>1049.7142857142858</ele><time>2026-04-05T10:09:33.655Z</time></trkpt><trkpt lat="44.7268922" lon="9.6345661"><ele>1048.0</ele><time>2026-04-05T10:09:38.648Z</time></trkpt><trkpt lat="44.7269576" lon="9.6345203"><ele>1046.2857142857142</ele><time>2026-04-05T10:09:43.64Z</time></trkpt><trkpt lat="44.7270239" lon="9.634487"><ele>1044.5714285714287</ele><time>2026-04-05T10:09:51.59Z</time></trkpt><trkpt lat="44.7270804" lon="9.6344395"><ele>1042.857142857143</ele><time>2026-04-05T10:09:59.491Z</time></trkpt><trkpt lat="44.727121" lon="9.6343547"><ele>1041.142857142857</ele><time>2026-04-05T10:10:05.688Z</time></trkpt><trkpt lat="44.727136" lon="9.6342475"><ele>1039.4285714285716</ele><time>2026-04-05T10:10:10.594Z</time></trkpt><trkpt lat="44.7271714" lon="9.6341614"><ele>1037.7142857142858</ele><time>2026-04-05T10:10:16.691Z</time></trkpt><trkpt lat="44.727221" lon="9.6340941"><ele>1036.0</ele><time>2026-04-05T10:10:21.703Z</time></trkpt><trkpt lat="44.7272806" lon="9.6340463"><ele>1036.0</ele><time>2026-04-05T10:10:25.656Z</time></trkpt><trkpt lat="44.7273428" lon="9.6340018"><ele>1036.0</ele><time>2026-04-05T10:10:30.648Z</time></trkpt><trkpt lat="44.727405" lon="9.6339671"><ele>1036.0</ele><time>2026-04-05T10:10:36.68Z</time></trkpt><trkpt lat="44.7274766" lon="9.6339454"><ele>1036.0</ele><time>2026-04-05T10:10:49.679Z</time></trkpt><trkpt lat="44.7275371" lon="9.6339105"><ele>1036.0</ele><time>2026-04-05T10:10:53.632Z</time></trkpt><trkpt lat="44.7276047" lon="9.6338941"><ele>1036.0</ele><time>2026-04-05T10:11:00.703Z</time></trkpt><trkpt lat="44.7276717" lon="9.633889"><ele>1036.0</ele><time>2026-04-05T10:11:07.69Z</time></trkpt><trkpt lat="44.7277403" lon="9.6338827"><ele>1038.4285714285713</ele><time>2026-04-05T10:11:12.552Z</time></trkpt><trkpt lat="44.7278047" lon="9.6338582"><ele>1040.857142857143</ele><time>2026-04-05T10:11:18.696Z</time></trkpt><trkpt lat="44.7278726" lon="9.6338155"><ele>1043.2857142857142</ele><time>2026-04-05T10:11:23.688Z</time></trkpt><trkpt lat="44.72793" lon="9.6337717"><ele>1045.7142857142858</ele><time>2026-04-05T10:11:29.634Z</time></trkpt><trkpt lat="44.7279916" lon="9.6337128"><ele>1048.142857142857</ele><time>2026-04-05T10:11:34.672Z</time></trkpt><trkpt lat="44.7280566" lon="9.6336892"><ele>1050.5714285714284</ele><time>2026-04-05T10:11:41.68Z</time></trkpt><trkpt lat="44.7280958" lon="9.6336041"><ele>1053.0</ele><time>2026-04-05T10:11:48.674Z</time></trkpt><trkpt lat="44.7281215" lon="9.6335219"><ele>1047.8571428571427</ele><time>2026-04-05T10:11:53.64Z</time></trkpt><trkpt lat="44.7281429" lon="9.6334383"><ele>1042.7142857142858</ele><time>2026-04-05T10:11:57.696Z</time></trkpt><trkpt lat="44.7281808" lon="9.6333371"><ele>1037.5714285714284</ele><time>2026-04-05T10:12:01.648Z</time></trkpt><trkpt lat="44.7282398" lon="9.6332726"><ele>1032.4285714285713</ele><time>2026-04-05T10:12:06.64Z</time></trkpt><trkpt lat="44.7282936" lon="9.633211"><ele>1027.2857142857142</ele><time>2026-04-05T10:12:12.672Z</time></trkpt><trkpt lat="44.7283378" lon="9.6331425"><ele>1022.1428571428571</ele><time>2026-04-05T10:12:17.572Z</time></trkpt><trkpt lat="44.7283883" lon="9.6330876"><ele>1017.0</ele><time>2026-04-05T10:12:23.695Z</time></trkpt><trkpt lat="44.7284461" lon="9.63304"><ele>1017.0</ele><time>2026-04-05T10:12:30.664Z</time></trkpt><trkpt lat="44.7285025" lon="9.6329978"><ele>1016.9999999999999</ele><time>2026-04-05T10:12:37.632Z</time></trkpt><trkpt lat="44.72857" lon="9.6329681"><ele>1017.0</ele><time>2026-04-05T10:12:44.704Z</time></trkpt><trkpt lat="44.7286408" lon="9.6329318"><ele>1017.0</ele><time>2026-04-05T10:12:49.695Z</time></trkpt><trkpt lat="44.7287019" lon="9.6328762"><ele>1016.9999999999999</ele><time>2026-04-05T10:12:53.63Z</time></trkpt><trkpt lat="44.728772" lon="9.6328326"><ele>1017.0</ele><time>2026-04-05T10:13:05.712Z</time></trkpt><trkpt lat="44.7288394" lon="9.6327767"><ele>1017.0</ele><time>2026-04-05T10:13:09.664Z</time></trkpt><trkpt lat="44.7288908" lon="9.6327141"><ele>1015.0</ele><time>2026-04-05T10:13:14.656Z</time></trkpt><trkpt lat="44.7289489" lon="9.6326728"><ele>1012.9999999999999</ele><time>2026-04-05T10:13:20.688Z</time></trkpt><trkpt lat="44.7289846" lon="9.6325927"><ele>1011.0</ele><time>2026-04-05T10:13:25.68Z</time></trkpt><trkpt lat="44.729037" lon="9.6325231"><ele>1009.0</ele><time>2026-04-05T10:13:30.61Z</time></trkpt><trkpt lat="44.7290909" lon="9.6324521"><ele>1006.9999999999999</ele><time>2026-04-05T10:13:36.704Z</time></trkpt><trkpt lat="44.7291566" lon="9.6324095"><ele>1005.0</ele><time>2026-04-05T10:13:42.532Z</time></trkpt><trkpt lat="44.7292089" lon="9.6323535"><ele>1003.0</ele><time>2026-04-05T10:13:48.512Z</time></trkpt><trkpt lat="44.7292571" lon="9.6322859"><ele>1003.0</ele><time>2026-04-05T10:13:53.715Z</time></trkpt><trkpt lat="44.7292996" lon="9.6322041"><ele>1002.9999999999999</ele><time>2026-04-05T10:13:59.671Z</time></trkpt><trkpt lat="44.7293485" lon="9.6321226"><ele>1003.0</ele><time>2026-04-05T10:14:04.68Z</time></trkpt><trkpt lat="44.7294075" lon="9.6320526"><ele>1003.0</ele><time>2026-04-05T10:14:08.631Z</time></trkpt><trkpt lat="44.7294635" lon="9.6320015"><ele>1002.9999999999999</ele><time>2026-04-05T10:14:12.687Z</time></trkpt><trkpt lat="44.7295218" lon="9.6319309"><ele>1003.0</ele><time>2026-04-05T10:14:17.631Z</time></trkpt><trkpt lat="44.7295721" lon="9.6318717"><ele>1003.0</ele><time>2026-04-05T10:14:21.631Z</time></trkpt><trkpt lat="44.7296186" lon="9.6318045"><ele>1003.2857142857142</ele><time>2026-04-05T10:14:26.624Z</time></trkpt><trkpt lat="44.7296573" lon="9.6317258"><ele>1003.5714285714284</ele><time>2026-04-05T10:14:35.672Z</time></trkpt><trkpt lat="44.7296988" lon="9.631636"><ele>1003.8571428571429</ele><time>2026-04-05T10:14:41.704Z</time></trkpt><trkpt lat="44.7297283" lon="9.6315567"><ele>1004.1428571428571</ele><time>2026-04-05T10:14:45.61Z</time></trkpt><trkpt lat="44.7297477" lon="9.6314605"><ele>1004.4285714285714</ele><time>2026-04-05T10:14:50.511Z</time></trkpt><trkpt lat="44.7297777" lon="9.631374"><ele>1004.7142857142858</ele><time>2026-04-05T10:14:59.57Z</time></trkpt><trkpt lat="44.7298169" lon="9.6313013"><ele>1005.0000000000001</ele><time>2026-04-05T10:15:06.664Z</time></trkpt><trkpt lat="44.7298607" lon="9.6312205"><ele>1005.0000000000001</ele><time>2026-04-05T10:15:13.631Z</time></trkpt><trkpt lat="44.7299156" lon="9.6311557"><ele>1005.0</ele><time>2026-04-05T10:15:20.703Z</time></trkpt><trkpt lat="44.7299701" lon="9.6310922"><ele>1005.0000000000001</ele><time>2026-04-05T10:15:26.632Z</time></trkpt><trkpt lat="44.7300317" lon="9.6310394"><ele>1005.0000000000001</ele><time>2026-04-05T10:15:32.611Z</time></trkpt><trkpt lat="44.7300787" lon="9.6309678"><ele>1005.0</ele><time>2026-04-05T10:15:41.712Z</time></trkpt><trkpt lat="44.7301273" lon="9.630888"><ele>1005.0000000000001</ele><time>2026-04-05T10:15:46.703Z</time></trkpt><trkpt lat="44.7301704" lon="9.6308184"><ele>1005.0000000000001</ele><time>2026-04-05T10:15:52.632Z</time></trkpt><trkpt lat="44.7302317" lon="9.6307815"><ele>1001.0000000000001</ele><time>2026-04-05T10:15:59.704Z</time></trkpt><trkpt lat="44.7302914" lon="9.6307158"><ele>997.0</ele><time>2026-04-05T10:16:04.696Z</time></trkpt><trkpt lat="44.7303576" lon="9.6306846"><ele>993.0000000000001</ele><time>2026-04-05T10:16:09.687Z</time></trkpt><trkpt lat="44.7304081" lon="9.6306174"><ele>989.0000000000001</ele><time>2026-04-05T10:16:16.655Z</time></trkpt><trkpt lat="44.7304517" lon="9.6305371"><ele>985.0</ele><time>2026-04-05T10:16:23.69Z</time></trkpt><trkpt lat="44.7304988" lon="9.6304679"><ele>981.0000000000001</ele><time>2026-04-05T10:16:30.696Z</time></trkpt><trkpt lat="44.7305407" lon="9.6303976"><ele>977.0000000000001</ele><time>2026-04-05T10:16:37.663Z</time></trkpt><trkpt lat="44.7305913" lon="9.6303444"><ele>974.1428571428573</ele><time>2026-04-05T10:16:44.651Z</time></trkpt><trkpt lat="44.7306422" lon="9.6302806"><ele>971.2857142857143</ele><time>2026-04-05T10:16:51.611Z</time></trkpt><trkpt lat="44.7306906" lon="9.6302201"><ele>968.4285714285716</ele><time>2026-04-05T10:16:56.695Z</time></trkpt><trkpt lat="44.7307265" lon="9.6301338"><ele>965.5714285714287</ele><time>2026-04-05T10:17:04.704Z</time></trkpt><trkpt lat="44.7307506" lon="9.6300495"><ele>962.7142857142858</ele><time>2026-04-05T10:17:10.712Z</time></trkpt><trkpt lat="44.7308088" lon="9.6300035"><ele>959.8571428571429</ele><time>2026-04-05T10:17:17.703Z</time></trkpt><trkpt lat="44.7308725" lon="9.6299728"><ele>957.0</ele><time>2026-04-05T10:17:25.712Z</time></trkpt><trkpt lat="44.7309325" lon="9.6299272"><ele>957.0</ele><time>2026-04-05T10:17:37.672Z</time></trkpt><trkpt lat="44.7309944" lon="9.6299096"><ele>957.0000000000001</ele><time>2026-04-05T10:17:45.733Z</time></trkpt><trkpt lat="44.7310623" lon="9.629918"><ele>957.0</ele><time>2026-04-05T10:17:53.529Z</time></trkpt><trkpt lat="44.7311294" lon="9.6298942"><ele>957.0</ele><time>2026-04-05T10:17:59.719Z</time></trkpt><trkpt lat="44.7311932" lon="9.6298789"><ele>957.0000000000001</ele><time>2026-04-05T10:18:07.623Z</time></trkpt><trkpt lat="44.7312564" lon="9.6298797"><ele>957.0</ele><time>2026-04-05T10:18:15.632Z</time></trkpt><trkpt lat="44.7313212" lon="9.629854"><ele>957.0</ele><time>2026-04-05T10:18:22.704Z</time></trkpt><trkpt lat="44.7313882" lon="9.6298569"><ele>954.1428571428572</ele><time>2026-04-05T10:18:27.672Z</time></trkpt><trkpt lat="44.7314356" lon="9.6299173"><ele>951.2857142857144</ele><time>2026-04-05T10:18:33.728Z</time></trkpt><trkpt lat="44.7314911" lon="9.6299696"><ele>948.4285714285714</ele><time>2026-04-05T10:18:44.647Z</time></trkpt><trkpt lat="44.7315077" lon="9.6300734"><ele>945.5714285714287</ele><time>2026-04-05T10:18:51.592Z</time></trkpt><trkpt lat="44.7314844" lon="9.6301582"><ele>942.7142857142858</ele><time>2026-04-05T10:18:56.712Z</time></trkpt><trkpt lat="44.7314573" lon="9.6302552"><ele>939.8571428571429</ele><time>2026-04-05T10:19:02.729Z</time></trkpt><trkpt lat="44.7314285" lon="9.6303471"><ele>937.0</ele><time>2026-04-05T10:19:08.672Z</time></trkpt><trkpt lat="44.7314043" lon="9.6304324"><ele>937.0</ele><time>2026-04-05T10:19:14.703Z</time></trkpt><trkpt lat="44.7313879" lon="9.6305287"><ele>937.0</ele><time>2026-04-05T10:19:20.738Z</time></trkpt><trkpt lat="44.7313639" lon="9.6306196"><ele>937.0</ele><time>2026-04-05T10:19:25.714Z</time></trkpt><trkpt lat="44.7313368" lon="9.6307023"><ele>937.0</ele><time>2026-04-05T10:19:31.656Z</time></trkpt><trkpt lat="44.7312932" lon="9.630781"><ele>937.0</ele><time>2026-04-05T10:19:38.631Z</time></trkpt><trkpt lat="44.7312604" lon="9.6308597"><ele>937.0</ele><time>2026-04-05T10:19:43.732Z</time></trkpt><trkpt lat="44.7312082" lon="9.6309553"><ele>937.0</ele><time>2026-04-05T10:19:48.712Z</time></trkpt><trkpt lat="44.73117" lon="9.6310412"><ele>937.0</ele><time>2026-04-05T10:19:53.704Z</time></trkpt><trkpt lat="44.7311683" lon="9.6311352"><ele>937.0</ele><time>2026-04-05T10:19:59.632Z</time></trkpt><trkpt lat="44.7311916" lon="9.6312317"><ele>937.0</ele><time>2026-04-05T10:20:06.611Z</time></trkpt><trkpt lat="44.7311908" lon="9.6313293"><ele>937.0</ele><time>2026-04-05T10:20:11.695Z</time></trkpt><trkpt lat="44.7311913" lon="9.6314263"><ele>937.0</ele><time>2026-04-05T10:20:17.727Z</time></trkpt><trkpt lat="44.7311909" lon="9.6315224"><ele>937.0</ele><time>2026-04-05T10:20:24.696Z</time></trkpt><trkpt lat="44.7311911" lon="9.6316287"><ele>937.0</ele><time>2026-04-05T10:20:30.671Z</time></trkpt><trkpt lat="44.731204" lon="9.6317268"><ele>935.8571428571429</ele><time>2026-04-05T10:20:36.655Z</time></trkpt><trkpt lat="44.7312272" lon="9.6318205"><ele>934.7142857142858</ele><time>2026-04-05T10:20:43.624Z</time></trkpt><trkpt lat="44.7312253" lon="9.6319105"><ele>933.5714285714287</ele><time>2026-04-05T10:20:47.679Z</time></trkpt><trkpt lat="44.731218" lon="9.6320031"><ele>932.4285714285714</ele><time>2026-04-05T10:20:53.712Z</time></trkpt><trkpt lat="44.7312151" lon="9.632095"><ele>931.2857142857144</ele><time>2026-04-05T10:21:00.551Z</time></trkpt><trkpt lat="44.7311792" lon="9.6321808"><ele>930.1428571428572</ele><time>2026-04-05T10:21:08.688Z</time></trkpt><trkpt lat="44.7311594" lon="9.6322652"><ele>929.0</ele><time>2026-04-05T10:21:14.671Z</time></trkpt><trkpt lat="44.7311305" lon="9.6323501"><ele>928.5714285714287</ele><time>2026-04-05T10:21:19.691Z</time></trkpt><trkpt lat="44.7311005" lon="9.6324328"><ele>928.1428571428572</ele><time>2026-04-05T10:21:25.64Z</time></trkpt><trkpt lat="44.7310658" lon="9.6325167"><ele>927.7142857142858</ele><time>2026-04-05T10:21:33.648Z</time></trkpt><trkpt lat="44.7310393" lon="9.6326007"><ele>927.2857142857142</ele><time>2026-04-05T10:21:40.719Z</time></trkpt><trkpt lat="44.7310141" lon="9.6326838"><ele>926.8571428571428</ele><time>2026-04-05T10:21:45.611Z</time></trkpt><trkpt lat="44.7309994" lon="9.632777"><ele>926.4285714285713</ele><time>2026-04-05T10:21:51.639Z</time></trkpt><trkpt lat="44.7309953" lon="9.6328794"><ele>926.0</ele><time>2026-04-05T10:21:59.648Z</time></trkpt><trkpt lat="44.7309844" lon="9.6329673"><ele>931.7142857142857</ele><time>2026-04-05T10:22:06.72Z</time></trkpt><trkpt lat="44.7309723" lon="9.6330549"><ele>937.4285714285713</ele><time>2026-04-05T10:22:12.729Z</time></trkpt><trkpt lat="44.7309316" lon="9.6331464"><ele>943.1428571428571</ele><time>2026-04-05T10:22:17.64Z</time></trkpt><trkpt lat="44.7308997" lon="9.633233"><ele>948.8571428571429</ele><time>2026-04-05T10:22:21.696Z</time></trkpt><trkpt lat="44.7308726" lon="9.6333292"><ele>954.5714285714286</ele><time>2026-04-05T10:22:26.731Z</time></trkpt><trkpt lat="44.7308527" lon="9.6334165"><ele>960.2857142857142</ele><time>2026-04-05T10:22:32.317Z</time></trkpt><trkpt lat="44.7308254" lon="9.633506"><ele>966.0</ele><time>2026-04-05T10:22:37.712Z</time></trkpt><trkpt lat="44.7307928" lon="9.6335951"><ele>964.1428571428571</ele><time>2026-04-05T10:22:43.64Z</time></trkpt><trkpt lat="44.7307412" lon="9.6336635"><ele>962.2857142857142</ele><time>2026-04-05T10:22:49.671Z</time></trkpt><trkpt lat="44.7307104" lon="9.6337614"><ele>960.4285714285714</ele><time>2026-04-05T10:22:54.664Z</time></trkpt><trkpt lat="44.730703" lon="9.6338534"><ele>958.5714285714286</ele><time>2026-04-05T10:22:59.656Z</time></trkpt><trkpt lat="44.7306766" lon="9.6339401"><ele>956.7142857142857</ele><time>2026-04-05T10:23:05.672Z</time></trkpt><trkpt lat="44.7306333" lon="9.6340198"><ele>954.8571428571429</ele><time>2026-04-05T10:23:11.719Z</time></trkpt><trkpt lat="44.7305911" lon="9.6340856"><ele>953.0</ele><time>2026-04-05T10:23:15.672Z</time></trkpt><trkpt lat="44.7305723" lon="9.6341737"><ele>953.0</ele><time>2026-04-05T10:23:21.703Z</time></trkpt><trkpt lat="44.7305341" lon="9.6342554"><ele>953.0</ele><time>2026-04-05T10:23:27.731Z</time></trkpt><trkpt lat="44.7304953" lon="9.6343352"><ele>953.0</ele><time>2026-04-05T10:23:34.704Z</time></trkpt><trkpt lat="44.7304418" lon="9.6343989"><ele>953.0</ele><time>2026-04-05T10:23:39.571Z</time></trkpt><trkpt lat="44.7303897" lon="9.6344568"><ele>953.0</ele><time>2026-04-05T10:23:45.728Z</time></trkpt><trkpt lat="44.7303674" lon="9.6345449"><ele>953.0</ele><time>2026-04-05T10:23:51.655Z</time></trkpt><trkpt lat="44.7303498" lon="9.6346333"><ele>953.0</ele><time>2026-04-05T10:24:00.703Z</time></trkpt><trkpt lat="44.7303071" lon="9.6347035"><ele>951.1428571428571</ele><time>2026-04-05T10:24:07.671Z</time></trkpt><trkpt lat="44.7302639" lon="9.6347853"><ele>949.2857142857142</ele><time>2026-04-05T10:24:13.704Z</time></trkpt><trkpt lat="44.7302281" lon="9.6348625"><ele>947.4285714285713</ele><time>2026-04-05T10:24:19.632Z</time></trkpt><trkpt lat="44.7301884" lon="9.6349343"><ele>945.5714285714286</ele><time>2026-04-05T10:24:26.703Z</time></trkpt><trkpt lat="44.7301536" lon="9.6350214"><ele>943.7142857142856</ele><time>2026-04-05T10:24:34.711Z</time></trkpt><trkpt lat="44.7301298" lon="9.6351073"><ele>941.8571428571428</ele><time>2026-04-05T10:24:41.68Z</time></trkpt><trkpt lat="44.730101" lon="9.635194"><ele>940.0</ele><time>2026-04-05T10:24:52.704Z</time></trkpt><trkpt lat="44.7300665" lon="9.6352879"><ele>944.1428571428571</ele><time>2026-04-05T10:24:59.672Z</time></trkpt><trkpt lat="44.7300466" lon="9.635387"><ele>948.2857142857142</ele><time>2026-04-05T10:25:04.663Z</time></trkpt><trkpt lat="44.7300338" lon="9.6354762"><ele>952.4285714285713</ele><time>2026-04-05T10:25:12.672Z</time></trkpt><trkpt lat="44.7300194" lon="9.6355783"><ele>956.5714285714284</ele><time>2026-04-05T10:25:20.551Z</time></trkpt><trkpt lat="44.7299891" lon="9.6356575"><ele>960.7142857142857</ele><time>2026-04-05T10:25:24.738Z</time></trkpt><trkpt lat="44.7299829" lon="9.6357494"><ele>964.8571428571427</ele><time>2026-04-05T10:25:30.712Z</time></trkpt><trkpt lat="44.7299635" lon="9.6358342"><ele>968.9999999999999</ele><time>2026-04-05T10:25:37.732Z</time></trkpt><trkpt lat="44.729936" lon="9.6359201"><ele>968.9999999999999</ele><time>2026-04-05T10:25:43.664Z</time></trkpt><trkpt lat="44.7298946" lon="9.6359885"><ele>969.0</ele><time>2026-04-05T10:25:48.656Z</time></trkpt><trkpt lat="44.7298604" lon="9.6360702"><ele>968.9999999999999</ele><time>2026-04-05T10:25:55.711Z</time></trkpt><trkpt lat="44.7298347" lon="9.6361564"><ele>968.9999999999999</ele><time>2026-04-05T10:26:02.695Z</time></trkpt><trkpt lat="44.7298375" lon="9.6362504"><ele>969.0</ele><time>2026-04-05T10:26:09.663Z</time></trkpt><trkpt lat="44.7298142" lon="9.636343"><ele>968.9999999999999</ele><time>2026-04-05T10:26:18.592Z</time></trkpt><trkpt lat="44.729785" lon="9.6364255"><ele>968.9999999999999</ele><time>2026-04-05T10:26:24.639Z</time></trkpt><trkpt lat="44.7297511" lon="9.6365077"><ele>968.5714285714284</ele><time>2026-04-05T10:26:31.712Z</time></trkpt><trkpt lat="44.7297262" lon="9.636595"><ele>968.1428571428571</ele><time>2026-04-05T10:26:40.656Z</time></trkpt><trkpt lat="44.7297128" lon="9.63669"><ele>967.7142857142857</ele><time>2026-04-05T10:26:50.639Z</time></trkpt><trkpt lat="44.7297045" lon="9.6367785"><ele>967.2857142857142</ele><time>2026-04-05T10:26:57.712Z</time></trkpt><trkpt lat="44.7296592" lon="9.6368446"><ele>966.8571428571429</ele><time>2026-04-05T10:27:04.68Z</time></trkpt><trkpt lat="44.7296079" lon="9.6369041"><ele>966.4285714285714</ele><time>2026-04-05T10:27:10.712Z</time></trkpt><trkpt lat="44.7295953" lon="9.6369961"><ele>966.0</ele><time>2026-04-05T10:27:17.69Z</time></trkpt><trkpt lat="44.729582" lon="9.6370925"><ele>966.0</ele><time>2026-04-05T10:27:25.688Z</time></trkpt><trkpt lat="44.7295507" lon="9.6371842"><ele>966.0</ele><time>2026-04-05T10:27:32.535Z</time></trkpt><trkpt lat="44.7295007" lon="9.6372457"><ele>966.0</ele><time>2026-04-05T10:27:39.624Z</time></trkpt><trkpt lat="44.7294948" lon="9.6373437"><ele>966.0</ele><time>2026-04-05T10:27:47.631Z</time></trkpt><trkpt lat="44.7294577" lon="9.6374309"><ele>966.0</ele><time>2026-04-05T10:27:55.64Z</time></trkpt><trkpt lat="44.729404" lon="9.6374993"><ele>966.0</ele><time>2026-04-05T10:28:02.712Z</time></trkpt><trkpt lat="44.7293527" lon="9.6375579"><ele>966.0</ele><time>2026-04-05T10:28:08.64Z</time></trkpt><trkpt lat="44.7293142" lon="9.6376386"><ele>970.8571428571429</ele><time>2026-04-05T10:28:17.687Z</time></trkpt><trkpt lat="44.7292614" lon="9.6377031"><ele>975.7142857142858</ele><time>2026-04-05T10:28:27.591Z</time></trkpt><trkpt lat="44.7292101" lon="9.6377624"><ele>980.5714285714286</ele><time>2026-04-05T10:28:37.656Z</time></trkpt><trkpt lat="44.7291508" lon="9.6377993"><ele>985.4285714285714</ele><time>2026-04-05T10:28:46.704Z</time></trkpt><trkpt lat="44.7291025" lon="9.6378641"><ele>990.2857142857143</ele><time>2026-04-05T10:28:53.671Z</time></trkpt><trkpt lat="44.7290838" lon="9.6379547"><ele>995.1428571428571</ele><time>2026-04-05T10:29:04.696Z</time></trkpt><trkpt lat="44.7290595" lon="9.6380381"><ele>1000.0</ele><time>2026-04-05T10:29:15.616Z</time></trkpt><trkpt lat="44.7290295" lon="9.6381174"><ele>1000.4285714285713</ele><time>2026-04-05T10:29:26.64Z</time></trkpt><trkpt lat="44.7290022" lon="9.6382012"><ele>1000.8571428571429</ele><time>2026-04-05T10:29:41.616Z</time></trkpt><trkpt lat="44.7289642" lon="9.6382738"><ele>1001.2857142857142</ele><time>2026-04-05T10:29:52.64Z</time></trkpt><trkpt lat="44.7289539" lon="9.6383629"><ele>1001.7142857142857</ele><time>2026-04-05T10:30:03.672Z</time></trkpt><trkpt lat="44.7289573" lon="9.6384517"><ele>1002.1428571428571</ele><time>2026-04-05T10:30:10.631Z</time></trkpt><trkpt lat="44.7289687" lon="9.6385476"><ele>1002.5714285714286</ele><time>2026-04-05T10:30:17.704Z</time></trkpt><trkpt lat="44.7289521" lon="9.6386622"><ele>1003.0</ele><time>2026-04-05T10:30:33.615Z</time></trkpt><trkpt lat="44.7289955" lon="9.638795"><ele>1004.7142857142857</ele><time>2026-04-05T10:30:53.688Z</time></trkpt><trkpt lat="44.7289875" lon="9.6389185"><ele>1006.4285714285713</ele><time>2026-04-05T10:31:12.633Z</time></trkpt><trkpt lat="44.7289888" lon="9.63901"><ele>1008.1428571428571</ele><time>2026-04-05T10:31:19.688Z</time></trkpt><trkpt lat="44.7290209" lon="9.6390882"><ele>1009.8571428571429</ele><time>2026-04-05T10:31:28.631Z</time></trkpt><trkpt lat="44.7290372" lon="9.6391745"><ele>1011.5714285714286</ele><time>2026-04-05T10:31:34.664Z</time></trkpt><trkpt lat="44.7290706" lon="9.639282"><ele>1013.2857142857142</ele><time>2026-04-05T10:31:59.623Z</time></trkpt><trkpt lat="44.7290766" lon="9.6393765"><ele>1015.0</ele><time>2026-04-05T10:32:08.671Z</time></trkpt><trkpt lat="44.7290354" lon="9.6394761"><ele>1016.2857142857142</ele><time>2026-04-05T10:32:27.65Z</time></trkpt><trkpt lat="44.7290008" lon="9.6395559"><ele>1017.5714285714286</ele><time>2026-04-05T10:32:31.655Z</time></trkpt><trkpt lat="44.7289813" lon="9.6396481"><ele>1018.8571428571429</ele><time>2026-04-05T10:32:38.624Z</time></trkpt><trkpt lat="44.7289474" lon="9.6397339"><ele>1020.1428571428571</ele><time>2026-04-05T10:32:49.648Z</time></trkpt><trkpt lat="44.728928" lon="9.6398192"><ele>1021.4285714285713</ele><time>2026-04-05T10:32:57.656Z</time></trkpt><trkpt lat="44.7289123" lon="9.6399141"><ele>1022.7142857142857</ele><time>2026-04-05T10:33:09.72Z</time></trkpt><trkpt lat="44.7289236" lon="9.6400044"><ele>1024.0</ele><time>2026-04-05T10:33:17.624Z</time></trkpt><trkpt lat="44.7289234" lon="9.640108"><ele>1024.0</ele><time>2026-04-05T10:33:24.696Z</time></trkpt><trkpt lat="44.7289031" lon="9.6402012"><ele>1023.9999999999999</ele><time>2026-04-05T10:33:30.596Z</time></trkpt><trkpt lat="44.7288919" lon="9.6402913"><ele>1024.0</ele><time>2026-04-05T10:33:37.61Z</time></trkpt><trkpt lat="44.7288533" lon="9.6403728"><ele>1024.0</ele><time>2026-04-05T10:33:44.664Z</time></trkpt><trkpt lat="44.7288252" lon="9.6404584"><ele>1023.9999999999999</ele><time>2026-04-05T10:33:55.672Z</time></trkpt><trkpt lat="44.7287706" lon="9.6405154"><ele>1024.0</ele><time>2026-04-05T10:34:03.695Z</time></trkpt><trkpt lat="44.7287146" lon="9.6405586"><ele>1024.0</ele><time>2026-04-05T10:34:10.65Z</time></trkpt><trkpt lat="44.7286504" lon="9.6405703"><ele>1022.5714285714286</ele><time>2026-04-05T10:34:18.671Z</time></trkpt><trkpt lat="44.7285857" lon="9.6405975"><ele>1021.1428571428571</ele><time>2026-04-05T10:34:39.68Z</time></trkpt><trkpt lat="44.7285223" lon="9.6406023"><ele>1019.7142857142857</ele><time>2026-04-05T10:34:53.616Z</time></trkpt><trkpt lat="44.728454" lon="9.6405919"><ele>1018.2857142857142</ele><time>2026-04-05T10:35:13.672Z</time></trkpt><trkpt lat="44.7283936" lon="9.6405669"><ele>1016.8571428571429</ele><time>2026-04-05T10:35:17.64Z</time></trkpt><trkpt lat="44.7283338" lon="9.640533"><ele>1015.4285714285713</ele><time>2026-04-05T10:35:31.68Z</time></trkpt><trkpt lat="44.7282159" lon="9.6405673"><ele>1014.0</ele><time>2026-04-05T10:36:05.688Z</time></trkpt><trkpt lat="44.7281549" lon="9.6405895"><ele>1022.6666666666666</ele><time>2026-04-05T10:36:17.648Z</time></trkpt><trkpt lat="44.7280918" lon="9.6406001"><ele>1031.3333333333333</ele><time>2026-04-05T10:36:33.663Z</time></trkpt><trkpt lat="44.7280426" lon="9.6405284"><ele>1040.0</ele><time>2026-04-05T10:36:41.672Z</time></trkpt><trkpt lat="44.7280134" lon="9.6404484"><ele>1048.6666666666665</ele><time>2026-04-05T10:36:49.68Z</time></trkpt><trkpt lat="44.7280525" lon="9.6403739"><ele>1057.3333333333333</ele><time>2026-04-05T10:36:57.687Z</time></trkpt><trkpt lat="44.7280507" lon="9.6402849"><ele>1066.0</ele><time>2026-04-05T10:37:14.715Z</time></trkpt><trkpt lat="44.7280224" lon="9.6400953"><ele>1067.0</ele><time>2026-04-05T10:37:37.624Z</time></trkpt><trkpt lat="44.7279626" lon="9.6401256"><ele>1068.0</ele><time>2026-04-05T10:37:57.695Z</time></trkpt><trkpt lat="44.7278924" lon="9.6401494"><ele>1069.0</ele><time>2026-04-05T10:38:15.688Z</time></trkpt><trkpt lat="44.7278412" lon="9.6402153"><ele>1070.0</ele><time>2026-04-05T10:38:20.68Z</time></trkpt><trkpt lat="44.7277745" lon="9.6402364"><ele>1071.0</ele><time>2026-04-05T10:38:33.73Z</time></trkpt><trkpt lat="44.7277067" lon="9.6402597"><ele>1072.0</ele><time>2026-04-05T10:38:49.696Z</time></trkpt><trkpt lat="44.7276454" lon="9.640285"><ele>1073.0</ele><time>2026-04-05T10:38:59.68Z</time></trkpt><trkpt lat="44.7275787" lon="9.640296"><ele>1079.0</ele><time>2026-04-05T10:39:12.68Z</time></trkpt><trkpt lat="44.7274643" lon="9.6403736"><ele>1085.0</ele><time>2026-04-05T10:39:51.616Z</time></trkpt><trkpt lat="44.727449" lon="9.6404741"><ele>1091.0</ele><time>2026-04-05T10:40:08.632Z</time></trkpt><trkpt lat="44.7274274" lon="9.6405576"><ele>1097.0</ele><time>2026-04-05T10:40:16.64Z</time></trkpt><trkpt lat="44.727394" lon="9.6406449"><ele>1103.0</ele><time>2026-04-05T10:40:22.672Z</time></trkpt><trkpt lat="44.7273627" lon="9.6407362"><ele>1109.0</ele><time>2026-04-05T10:40:29.64Z</time></trkpt><trkpt lat="44.7273433" lon="9.6408289"><ele>1108.9999999999998</ele><time>2026-04-05T10:40:38.687Z</time></trkpt><trkpt lat="44.7273172" lon="9.6409182"><ele>1109.0</ele><time>2026-04-05T10:40:46.736Z</time></trkpt><trkpt lat="44.7272834" lon="9.640996"><ele>1109.0</ele><time>2026-04-05T10:40:55.64Z</time></trkpt><trkpt lat="44.7272588" lon="9.641079"><ele>1109.0</ele><time>2026-04-05T10:41:03.647Z</time></trkpt><trkpt lat="44.7272127" lon="9.6411422"><ele>1109.0</ele><time>2026-04-05T10:41:10.616Z</time></trkpt><trkpt lat="44.7271623" lon="9.6412002"><ele>1108.9999999999998</ele><time>2026-04-05T10:41:17.671Z</time></trkpt><trkpt lat="44.7271067" lon="9.6412624"><ele>1109.0</ele><time>2026-04-05T10:41:26.631Z</time></trkpt><trkpt lat="44.7270716" lon="9.6413432"><ele>1112.2857142857142</ele><time>2026-04-05T10:41:34.64Z</time></trkpt><trkpt lat="44.7270127" lon="9.6413902"><ele>1115.5714285714284</ele><time>2026-04-05T10:41:48.679Z</time></trkpt><trkpt lat="44.7269528" lon="9.6414199"><ele>1118.857142857143</ele><time>2026-04-05T10:41:57.623Z</time></trkpt><trkpt lat="44.7268938" lon="9.6414739"><ele>1122.142857142857</ele><time>2026-04-05T10:42:08.69Z</time></trkpt><trkpt lat="44.726845" lon="9.6415391"><ele>1125.4285714285716</ele><time>2026-04-05T10:42:16.656Z</time></trkpt><trkpt lat="44.726799" lon="9.6416004"><ele>1128.7142857142858</ele><time>2026-04-05T10:42:22.687Z</time></trkpt><trkpt lat="44.7267451" lon="9.6416633"><ele>1132.0</ele><time>2026-04-05T10:42:30.696Z</time></trkpt><trkpt lat="44.7266956" lon="9.6417193"><ele>1132.0</ele><time>2026-04-05T10:42:36.624Z</time></trkpt><trkpt lat="44.7266527" lon="9.6417949"><ele>1132.0</ele><time>2026-04-05T10:42:46.712Z</time></trkpt><trkpt lat="44.7266144" lon="9.6418757"><ele>1132.0</ele><time>2026-04-05T10:42:55.691Z</time></trkpt><trkpt lat="44.7265668" lon="9.6419498"><ele>1132.0</ele><time>2026-04-05T10:43:02.624Z</time></trkpt><trkpt lat="44.7265137" lon="9.6420173"><ele>1132.0</ele><time>2026-04-05T10:43:10.63Z</time></trkpt><trkpt lat="44.7264537" lon="9.6420621"><ele>1132.0</ele><time>2026-04-05T10:43:15.69Z</time></trkpt><trkpt lat="44.7263888" lon="9.6420965"><ele>1132.0</ele><time>2026-04-05T10:43:27.688Z</time></trkpt><trkpt lat="44.7263308" lon="9.6421414"><ele>1136.7142857142858</ele><time>2026-04-05T10:43:33.651Z</time></trkpt><trkpt lat="44.7262851" lon="9.6422051"><ele>1141.4285714285716</ele><time>2026-04-05T10:43:40.688Z</time></trkpt><trkpt lat="44.7262433" lon="9.6422802"><ele>1146.142857142857</ele><time>2026-04-05T10:43:49.632Z</time></trkpt><trkpt lat="44.7262032" lon="9.642354"><ele>1150.857142857143</ele><time>2026-04-05T10:43:56.703Z</time></trkpt><trkpt lat="44.7261686" lon="9.6424422"><ele>1155.5714285714284</ele><time>2026-04-05T10:44:05.648Z</time></trkpt><trkpt lat="44.726119" lon="9.6425177"><ele>1160.2857142857142</ele><time>2026-04-05T10:44:12.616Z</time></trkpt><trkpt lat="44.7260913" lon="9.6425978"><ele>1165.0</ele><time>2026-04-05T10:44:20.63Z</time></trkpt><trkpt lat="44.7261571" lon="9.6425958"><ele>1164.9999999999998</ele><time>2026-04-05T10:44:42.715Z</time></trkpt><trkpt lat="44.7262177" lon="9.6425352"><ele>1165.0</ele><time>2026-04-05T10:44:51.719Z</time></trkpt><trkpt lat="44.726281" lon="9.6425198"><ele>1165.0</ele><time>2026-04-05T10:44:57.647Z</time></trkpt><trkpt lat="44.7263468" lon="9.6425248"><ele>1165.0</ele><time>2026-04-05T10:45:07.632Z</time></trkpt><trkpt lat="44.7264116" lon="9.6425265"><ele>1165.0</ele><time>2026-04-05T10:45:16.631Z</time></trkpt><trkpt lat="44.7264787" lon="9.6425262"><ele>1164.9999999999998</ele><time>2026-04-05T10:45:26.664Z</time></trkpt><trkpt lat="44.7265449" lon="9.6425351"><ele>1165.0</ele><time>2026-04-05T10:45:33.632Z</time></trkpt><trkpt lat="44.7266115" lon="9.6425307"><ele>1164.9999999999998</ele><time>2026-04-05T10:45:40.704Z</time></trkpt><trkpt lat="44.7266801" lon="9.6425016"><ele>1165.0</ele><time>2026-04-05T10:45:47.671Z</time></trkpt><trkpt lat="44.7267468" lon="9.6424939"><ele>1165.0</ele><time>2026-04-05T10:45:55.68Z</time></trkpt><trkpt lat="44.726809" lon="9.6425387"><ele>1165.0</ele><time>2026-04-05T10:46:04.624Z</time></trkpt><trkpt lat="44.7268515" lon="9.6426065"><ele>1165.0</ele><time>2026-04-05T10:46:10.655Z</time></trkpt><trkpt lat="44.726904" lon="9.6426648"><ele>1164.9999999999998</ele><time>2026-04-05T10:46:20.639Z</time></trkpt><trkpt lat="44.7269607" lon="9.6427135"><ele>1165.0</ele><time>2026-04-05T10:46:28.648Z</time></trkpt><trkpt lat="44.7270297" lon="9.6427071"><ele>1165.4285714285713</ele><time>2026-04-05T10:46:36.655Z</time></trkpt><trkpt lat="44.727098" lon="9.6427149"><ele>1165.857142857143</ele><time>2026-04-05T10:46:44.664Z</time></trkpt><trkpt lat="44.7271695" lon="9.6427134"><ele>1166.2857142857142</ele><time>2026-04-05T10:46:49.712Z</time></trkpt><trkpt lat="44.7272425" lon="9.6427082"><ele>1166.7142857142858</ele><time>2026-04-05T10:46:56.727Z</time></trkpt><trkpt lat="44.7273081" lon="9.6426954"><ele>1167.142857142857</ele><time>2026-04-05T10:47:02.655Z</time></trkpt><trkpt lat="44.7273714" lon="9.6426873"><ele>1167.5714285714284</ele><time>2026-04-05T10:47:08.687Z</time></trkpt><trkpt lat="44.7274412" lon="9.6426825"><ele>1168.0</ele><time>2026-04-05T10:47:15.656Z</time></trkpt><trkpt lat="44.727507" lon="9.6426936"><ele>1168.0</ele><time>2026-04-05T10:47:21.335Z</time></trkpt><trkpt lat="44.727564" lon="9.6427514"><ele>1168.0</ele><time>2026-04-05T10:47:27.714Z</time></trkpt><trkpt lat="44.7275904" lon="9.6428625"><ele>1177.0</ele><time>2026-04-05T10:48:13.688Z</time></trkpt></trkseg><trkseg><trkpt lat="44.7275405" lon="9.6430337"><ele>1177.0</ele><time>2026-04-05T11:28:52.67Z</time></trkpt><trkpt lat="44.7275629" lon="9.6431217"><ele>1177.0</ele><time>2026-04-05T11:29:04.694Z</time></trkpt><trkpt lat="44.7275317" lon="9.6432133"><ele>1177.0</ele><time>2026-04-05T11:29:13.677Z</time></trkpt><trkpt lat="44.7274871" lon="9.6432962"><ele>1177.0</ele><time>2026-04-05T11:29:18.874Z</time></trkpt><trkpt lat="44.7274723" lon="9.64339"><ele>1177.0</ele><time>2026-04-05T11:29:24.415Z</time></trkpt><trkpt lat="44.7274662" lon="9.6434883"><ele>1177.0</ele><time>2026-04-05T11:29:32.606Z</time></trkpt><trkpt lat="44.7274552" lon="9.6435768"><ele>1177.0</ele><time>2026-04-05T11:29:40.718Z</time></trkpt><trkpt lat="44.7274293" lon="9.6436685"><ele>1175.0</ele><time>2026-04-05T11:29:49.662Z</time></trkpt><trkpt lat="44.7273782" lon="9.6437249"><ele>1173.0</ele><time>2026-04-05T11:29:55.694Z</time></trkpt><trkpt lat="44.7273248" lon="9.6437831"><ele>1171.0</ele><time>2026-04-05T11:30:01.622Z</time></trkpt><trkpt lat="44.727267" lon="9.6438248"><ele>1169.0</ele><time>2026-04-05T11:30:06.718Z</time></trkpt><trkpt lat="44.7272111" lon="9.6438843"><ele>1167.0</ele><time>2026-04-05T11:30:12.646Z</time></trkpt><trkpt lat="44.727164" lon="9.6439645"><ele>1165.0</ele><time>2026-04-05T11:30:20.653Z</time></trkpt><trkpt lat="44.7271084" lon="9.6440194"><ele>1163.0</ele><time>2026-04-05T11:30:27.633Z</time></trkpt><trkpt lat="44.7270646" lon="9.6440927"><ele>1163.0</ele><time>2026-04-05T11:30:34.736Z</time></trkpt><trkpt lat="44.7270272" lon="9.6441747"><ele>1163.0</ele><time>2026-04-05T11:30:41.662Z</time></trkpt><trkpt lat="44.7269765" lon="9.6442454"><ele>1163.0</ele><time>2026-04-05T11:30:46.714Z</time></trkpt><trkpt lat="44.7269265" lon="9.6443061"><ele>1163.0</ele><time>2026-04-05T11:30:50.71Z</time></trkpt><trkpt lat="44.7268654" lon="9.644356"><ele>1163.0</ele><time>2026-04-05T11:30:55.702Z</time></trkpt><trkpt lat="44.726814" lon="9.6444227"><ele>1163.0</ele><time>2026-04-05T11:31:00.694Z</time></trkpt><trkpt lat="44.7267565" lon="9.6444782"><ele>1163.0</ele><time>2026-04-05T11:31:04.695Z</time></trkpt><trkpt lat="44.7267059" lon="9.6445425"><ele>1163.4285714285716</ele><time>2026-04-05T11:31:10.678Z</time></trkpt><trkpt lat="44.7266516" lon="9.6445898"><ele>1163.857142857143</ele><time>2026-04-05T11:31:16.554Z</time></trkpt><trkpt lat="44.7265858" lon="9.6446311"><ele>1164.2857142857142</ele><time>2026-04-05T11:31:21.455Z</time></trkpt><trkpt lat="44.7265265" lon="9.6446906"><ele>1164.7142857142858</ele><time>2026-04-05T11:31:26.234Z</time></trkpt><trkpt lat="44.7264559" lon="9.6447009"><ele>1165.142857142857</ele><time>2026-04-05T11:31:31.686Z</time></trkpt><trkpt lat="44.7263873" lon="9.6447423"><ele>1165.5714285714287</ele><time>2026-04-05T11:31:37.718Z</time></trkpt><trkpt lat="44.7263216" lon="9.6447658"><ele>1166.0</ele><time>2026-04-05T11:31:41.67Z</time></trkpt><trkpt lat="44.7262498" lon="9.6447667"><ele>1166.0000000000002</ele><time>2026-04-05T11:31:46.662Z</time></trkpt><trkpt lat="44.7261825" lon="9.6447693"><ele>1166.0</ele><time>2026-04-05T11:31:52.694Z</time></trkpt><trkpt lat="44.7261171" lon="9.6447584"><ele>1166.0</ele><time>2026-04-05T11:32:03.613Z</time></trkpt><trkpt lat="44.7260566" lon="9.6447322"><ele>1166.0</ele><time>2026-04-05T11:32:09.646Z</time></trkpt><trkpt lat="44.7259917" lon="9.644718"><ele>1166.0</ele><time>2026-04-05T11:32:15.678Z</time></trkpt><trkpt lat="44.7259313" lon="9.6447757"><ele>1166.0000000000002</ele><time>2026-04-05T11:32:27.638Z</time></trkpt><trkpt lat="44.7258685" lon="9.644802"><ele>1166.0</ele><time>2026-04-05T11:32:33.67Z</time></trkpt><trkpt lat="44.7258134" lon="9.6448491"><ele>1167.857142857143</ele><time>2026-04-05T11:32:41.678Z</time></trkpt><trkpt lat="44.7257444" lon="9.6448635"><ele>1169.7142857142858</ele><time>2026-04-05T11:32:47.71Z</time></trkpt><trkpt lat="44.7256802" lon="9.64487"><ele>1171.5714285714284</ele><time>2026-04-05T11:32:53.633Z</time></trkpt><trkpt lat="44.7256112" lon="9.6448804"><ele>1173.4285714285716</ele><time>2026-04-05T11:32:58.63Z</time></trkpt><trkpt lat="44.7255385" lon="9.6448885"><ele>1175.2857142857142</ele><time>2026-04-05T11:33:03.726Z</time></trkpt><trkpt lat="44.7254761" lon="9.6449125"><ele>1177.142857142857</ele><time>2026-04-05T11:33:09.654Z</time></trkpt><trkpt lat="44.7254148" lon="9.6448918"><ele>1179.0</ele><time>2026-04-05T11:33:15.686Z</time></trkpt><trkpt lat="44.7253427" lon="9.6448936"><ele>1178.9999999999998</ele><time>2026-04-05T11:33:21.614Z</time></trkpt><trkpt lat="44.7252705" lon="9.644909"><ele>1179.0</ele><time>2026-04-05T11:33:26.709Z</time></trkpt><trkpt lat="44.725199" lon="9.6449203"><ele>1179.0</ele><time>2026-04-05T11:33:32.638Z</time></trkpt><trkpt lat="44.7251348" lon="9.644948"><ele>1179.0</ele><time>2026-04-05T11:33:38.67Z</time></trkpt><trkpt lat="44.7250676" lon="9.6449883"><ele>1179.0</ele><time>2026-04-05T11:33:43.662Z</time></trkpt><trkpt lat="44.7250143" lon="9.6450437"><ele>1178.9999999999998</ele><time>2026-04-05T11:33:48.674Z</time></trkpt><trkpt lat="44.7249585" lon="9.6450989"><ele>1179.0</ele><time>2026-04-05T11:33:56.662Z</time></trkpt><trkpt lat="44.7249228" lon="9.6451924"><ele>1178.9999999999998</ele><time>2026-04-05T11:34:03.63Z</time></trkpt><trkpt lat="44.7249056" lon="9.6452889"><ele>1179.0</ele><time>2026-04-05T11:34:07.686Z</time></trkpt><trkpt lat="44.7248822" lon="9.6453888"><ele>1179.0</ele><time>2026-04-05T11:34:11.638Z</time></trkpt><trkpt lat="44.72485" lon="9.6454786"><ele>1179.0</ele><time>2026-04-05T11:34:16.63Z</time></trkpt><trkpt lat="44.7248022" lon="9.6455489"><ele>1179.0</ele><time>2026-04-05T11:34:22.714Z</time></trkpt><trkpt lat="44.7247468" lon="9.6456158"><ele>1178.9999999999998</ele><time>2026-04-05T11:34:29.629Z</time></trkpt><trkpt lat="44.7246974" lon="9.6456801"><ele>1179.0</ele><time>2026-04-05T11:34:35.662Z</time></trkpt><trkpt lat="44.7246404" lon="9.6457193"><ele>1178.7142857142856</ele><time>2026-04-05T11:34:41.614Z</time></trkpt><trkpt lat="44.7245776" lon="9.6457441"><ele>1178.4285714285713</ele><time>2026-04-05T11:34:47.674Z</time></trkpt><trkpt lat="44.7245137" lon="9.64577"><ele>1178.142857142857</ele><time>2026-04-05T11:34:53.654Z</time></trkpt><trkpt lat="44.7244573" lon="9.6458257"><ele>1177.8571428571427</ele><time>2026-04-05T11:34:57.709Z</time></trkpt><trkpt lat="44.7243947" lon="9.6458601"><ele>1177.5714285714284</ele><time>2026-04-05T11:35:03.637Z</time></trkpt><trkpt lat="44.7243284" lon="9.6459011"><ele>1177.2857142857142</ele><time>2026-04-05T11:35:13.576Z</time></trkpt><trkpt lat="44.7242652" lon="9.645911"><ele>1177.0</ele><time>2026-04-05T11:35:18.633Z</time></trkpt><trkpt lat="44.7242033" lon="9.6459304"><ele>1177.0</ele><time>2026-04-05T11:35:22.669Z</time></trkpt><trkpt lat="44.7241372" lon="9.6459343"><ele>1177.0</ele><time>2026-04-05T11:35:28.702Z</time></trkpt><trkpt lat="44.7240751" lon="9.6459489"><ele>1177.0</ele><time>2026-04-05T11:35:32.654Z</time></trkpt><trkpt lat="44.7240071" lon="9.6459618"><ele>1177.0</ele><time>2026-04-05T11:35:37.695Z</time></trkpt><trkpt lat="44.7239312" lon="9.645961"><ele>1177.0</ele><time>2026-04-05T11:35:43.714Z</time></trkpt><trkpt lat="44.7238718" lon="9.646001"><ele>1177.0</ele><time>2026-04-05T11:35:49.714Z</time></trkpt><trkpt lat="44.7238214" lon="9.6460605"><ele>1177.0</ele><time>2026-04-05T11:35:57.655Z</time></trkpt><trkpt lat="44.7237705" lon="9.646129"><ele>1177.142857142857</ele><time>2026-04-05T11:36:05.622Z</time></trkpt><trkpt lat="44.7237296" lon="9.6462213"><ele>1177.2857142857142</ele><time>2026-04-05T11:36:11.653Z</time></trkpt><trkpt lat="44.723687" lon="9.646303"><ele>1177.4285714285713</ele><time>2026-04-05T11:36:17.685Z</time></trkpt><trkpt lat="44.7236352" lon="9.6463745"><ele>1177.5714285714284</ele><time>2026-04-05T11:36:24.554Z</time></trkpt><trkpt lat="44.7236019" lon="9.6464585"><ele>1177.7142857142856</ele><time>2026-04-05T11:36:28.493Z</time></trkpt><trkpt lat="44.7235484" lon="9.6465239"><ele>1177.857142857143</ele><time>2026-04-05T11:36:34.534Z</time></trkpt><trkpt lat="44.7234844" lon="9.6465595"><ele>1178.0</ele><time>2026-04-05T11:36:40.474Z</time></trkpt><trkpt lat="44.7234299" lon="9.6466395"><ele>1178.0</ele><time>2026-04-05T11:36:47.638Z</time></trkpt><trkpt lat="44.7233589" lon="9.6466843"><ele>1178.0</ele><time>2026-04-05T11:36:51.694Z</time></trkpt><trkpt lat="44.7233002" lon="9.6467374"><ele>1178.0</ele><time>2026-04-05T11:36:55.646Z</time></trkpt><trkpt lat="44.7232607" lon="9.6468161"><ele>1178.0</ele><time>2026-04-05T11:37:01.573Z</time></trkpt><trkpt lat="44.7232375" lon="9.6469098"><ele>1178.0</ele><time>2026-04-05T11:37:07.71Z</time></trkpt><trkpt lat="44.7232137" lon="9.646997"><ele>1178.0</ele><time>2026-04-05T11:37:13.638Z</time></trkpt><trkpt lat="44.7232054" lon="9.6470946"><ele>1178.0</ele><time>2026-04-05T11:37:20.71Z</time></trkpt><trkpt lat="44.7231751" lon="9.6471909"><ele>1176.142857142857</ele><time>2026-04-05T11:37:27.678Z</time></trkpt><trkpt lat="44.723155" lon="9.6472837"><ele>1174.2857142857142</ele><time>2026-04-05T11:37:33.71Z</time></trkpt><trkpt lat="44.7231467" lon="9.6473745"><ele>1172.4285714285713</ele><time>2026-04-05T11:37:39.637Z</time></trkpt><trkpt lat="44.7231497" lon="9.6474658"><ele>1170.5714285714284</ele><time>2026-04-05T11:37:45.694Z</time></trkpt><trkpt lat="44.7231237" lon="9.6475625"><ele>1168.7142857142858</ele><time>2026-04-05T11:37:51.655Z</time></trkpt><trkpt lat="44.7230834" lon="9.6476341"><ele>1166.8571428571427</ele><time>2026-04-05T11:37:56.693Z</time></trkpt><trkpt lat="44.7230406" lon="9.6477005"><ele>1165.0</ele><time>2026-04-05T11:38:00.646Z</time></trkpt><trkpt lat="44.7229999" lon="9.6477808"><ele>1163.8571428571427</ele><time>2026-04-05T11:38:05.637Z</time></trkpt><trkpt lat="44.7229524" lon="9.6478476"><ele>1162.7142857142858</ele><time>2026-04-05T11:38:10.629Z</time></trkpt><trkpt lat="44.7228911" lon="9.6479048"><ele>1161.5714285714284</ele><time>2026-04-05T11:38:16.594Z</time></trkpt><trkpt lat="44.7228376" lon="9.6479671"><ele>1160.4285714285713</ele><time>2026-04-05T11:38:21.653Z</time></trkpt><trkpt lat="44.7228085" lon="9.6480464"><ele>1159.2857142857142</ele><time>2026-04-05T11:38:28.726Z</time></trkpt><trkpt lat="44.7228026" lon="9.6481437"><ele>1158.142857142857</ele><time>2026-04-05T11:38:35.573Z</time></trkpt><trkpt lat="44.7228118" lon="9.6482344"><ele>1157.0</ele><time>2026-04-05T11:38:44.393Z</time></trkpt><trkpt lat="44.7228152" lon="9.6483242"><ele>1157.0</ele><time>2026-04-05T11:38:49.654Z</time></trkpt><trkpt lat="44.7228223" lon="9.6484278"><ele>1157.0</ele><time>2026-04-05T11:38:57.714Z</time></trkpt><trkpt lat="44.7228098" lon="9.6485238"><ele>1157.0</ele><time>2026-04-05T11:39:02.694Z</time></trkpt><trkpt lat="44.7227963" lon="9.6486192"><ele>1157.0</ele><time>2026-04-05T11:39:07.726Z</time></trkpt><trkpt lat="44.7227922" lon="9.6487243"><ele>1157.0</ele><time>2026-04-05T11:39:13.654Z</time></trkpt><trkpt lat="44.7228016" lon="9.6488257"><ele>1157.0</ele><time>2026-04-05T11:39:19.686Z</time></trkpt><trkpt lat="44.7228128" lon="9.6489222"><ele>1157.0</ele><time>2026-04-05T11:39:26.654Z</time></trkpt><trkpt lat="44.7228064" lon="9.6490277"><ele>1156.7142857142858</ele><time>2026-04-05T11:39:32.686Z</time></trkpt><trkpt lat="44.7228076" lon="9.6491472"><ele>1156.4285714285713</ele><time>2026-04-05T11:39:48.702Z</time></trkpt><trkpt lat="44.7228286" lon="9.6492367"><ele>1156.142857142857</ele><time>2026-04-05T11:39:53.694Z</time></trkpt><trkpt lat="44.7228452" lon="9.6493298"><ele>1155.857142857143</ele><time>2026-04-05T11:39:59.622Z</time></trkpt><trkpt lat="44.7228618" lon="9.6494154"><ele>1155.5714285714284</ele><time>2026-04-05T11:40:03.678Z</time></trkpt><trkpt lat="44.7228979" lon="9.6494896"><ele>1155.2857142857142</ele><time>2026-04-05T11:40:10.646Z</time></trkpt><trkpt lat="44.7229619" lon="9.6495235"><ele>1155.0</ele><time>2026-04-05T11:40:24.575Z</time></trkpt><trkpt lat="44.7230197" lon="9.6495644"><ele>1155.0</ele><time>2026-04-05T11:40:28.594Z</time></trkpt><trkpt lat="44.7230709" lon="9.6496485"><ele>1155.0</ele><time>2026-04-05T11:40:33.629Z</time></trkpt><trkpt lat="44.7230744" lon="9.6497393"><ele>1155.0</ele><time>2026-04-05T11:40:38.725Z</time></trkpt><trkpt lat="44.7230682" lon="9.6498322"><ele>1155.0</ele><time>2026-04-05T11:40:43.718Z</time></trkpt><trkpt lat="44.7230448" lon="9.6499222"><ele>1155.0</ele><time>2026-04-05T11:40:47.669Z</time></trkpt><trkpt lat="44.7230452" lon="9.6500187"><ele>1155.0</ele><time>2026-04-05T11:40:53.702Z</time></trkpt><trkpt lat="44.7230531" lon="9.6501122"><ele>1155.0</ele><time>2026-04-05T11:41:01.709Z</time></trkpt><trkpt lat="44.72304" lon="9.650202"><ele>1155.4285714285713</ele><time>2026-04-05T11:41:05.662Z</time></trkpt><trkpt lat="44.7230437" lon="9.6503052"><ele>1155.857142857143</ele><time>2026-04-05T11:41:10.653Z</time></trkpt><trkpt lat="44.7230456" lon="9.650402"><ele>1156.2857142857142</ele><time>2026-04-05T11:41:15.646Z</time></trkpt><trkpt lat="44.723074" lon="9.6504968"><ele>1156.7142857142858</ele><time>2026-04-05T11:41:22.535Z</time></trkpt><trkpt lat="44.7231043" lon="9.6505906"><ele>1157.142857142857</ele><time>2026-04-05T11:41:27.594Z</time></trkpt><trkpt lat="44.7231475" lon="9.6506681"><ele>1157.5714285714284</ele><time>2026-04-05T11:41:32.477Z</time></trkpt><trkpt lat="44.7231982" lon="9.6507365"><ele>1158.0</ele><time>2026-04-05T11:41:39.353Z</time></trkpt><trkpt lat="44.7232492" lon="9.6507889"><ele>1157.9999999999998</ele><time>2026-04-05T11:41:45.234Z</time></trkpt><trkpt lat="44.7233039" lon="9.6508339"><ele>1158.0</ele><time>2026-04-05T11:41:49.273Z</time></trkpt><trkpt lat="44.723359" lon="9.6508846"><ele>1158.0</ele><time>2026-04-05T11:41:54.417Z</time></trkpt><trkpt lat="44.7234094" lon="9.6509467"><ele>1158.0</ele><time>2026-04-05T11:42:00.678Z</time></trkpt><trkpt lat="44.723467" lon="9.6509956"><ele>1158.0</ele><time>2026-04-05T11:42:07.573Z</time></trkpt><trkpt lat="44.7235267" lon="9.6510678"><ele>1157.9999999999998</ele><time>2026-04-05T11:42:12.638Z</time></trkpt><trkpt lat="44.7235763" lon="9.6511401"><ele>1158.0</ele><time>2026-04-05T11:42:18.669Z</time></trkpt><trkpt lat="44.7236182" lon="9.6512095"><ele>1155.5714285714284</ele><time>2026-04-05T11:42:24.674Z</time></trkpt><trkpt lat="44.7236599" lon="9.6512893"><ele>1153.142857142857</ele><time>2026-04-05T11:42:30.629Z</time></trkpt><trkpt lat="44.7237104" lon="9.6513664"><ele>1150.7142857142858</ele><time>2026-04-05T11:42:36.713Z</time></trkpt><trkpt lat="44.7237251" lon="9.651461"><ele>1148.2857142857142</ele><time>2026-04-05T11:42:42.557Z</time></trkpt><trkpt lat="44.7237497" lon="9.6515443"><ele>1145.857142857143</ele><time>2026-04-05T11:42:47.397Z</time></trkpt><trkpt lat="44.7237946" lon="9.6516335"><ele>1143.4285714285713</ele><time>2026-04-05T11:42:52.215Z</time></trkpt><trkpt lat="44.7238305" lon="9.6517269"><ele>1141.0</ele><time>2026-04-05T11:42:57.175Z</time></trkpt><trkpt lat="44.723883" lon="9.6517947"><ele>1141.0</ele><time>2026-04-05T11:43:02.033Z</time></trkpt><trkpt lat="44.7239237" lon="9.6518875"><ele>1141.0</ele><time>2026-04-05T11:43:07.834Z</time></trkpt><trkpt lat="44.7239711" lon="9.6519565"><ele>1141.0</ele><time>2026-04-05T11:43:13.513Z</time></trkpt><trkpt lat="44.7240214" lon="9.6520122"><ele>1141.0</ele><time>2026-04-05T11:43:19.476Z</time></trkpt><trkpt lat="44.7240518" lon="9.6520903"><ele>1141.0</ele><time>2026-04-05T11:43:24.574Z</time></trkpt><trkpt lat="44.7240798" lon="9.652171"><ele>1141.0</ele><time>2026-04-05T11:43:28.662Z</time></trkpt><trkpt lat="44.7241084" lon="9.6522638"><ele>1141.0</ele><time>2026-04-05T11:43:32.434Z</time></trkpt><trkpt lat="44.7241361" lon="9.6523554"><ele>1142.5714285714287</ele><time>2026-04-05T11:43:36.67Z</time></trkpt><trkpt lat="44.7241768" lon="9.6524239"><ele>1144.142857142857</ele><time>2026-04-05T11:43:43.638Z</time></trkpt><trkpt lat="44.7242392" lon="9.6524552"><ele>1145.7142857142858</ele><time>2026-04-05T11:43:51.655Z</time></trkpt><trkpt lat="44.7243002" lon="9.6525141"><ele>1147.2857142857142</ele><time>2026-04-05T11:43:59.414Z</time></trkpt><trkpt lat="44.7243684" lon="9.6525517"><ele>1148.857142857143</ele><time>2026-04-05T11:44:04.636Z</time></trkpt><trkpt lat="44.7244426" lon="9.6525462"><ele>1150.4285714285716</ele><time>2026-04-05T11:44:09.637Z</time></trkpt><trkpt lat="44.7245085" lon="9.6525872"><ele>1152.0</ele><time>2026-04-05T11:44:15.637Z</time></trkpt><trkpt lat="44.7245705" lon="9.6526294"><ele>1150.1428571428573</ele><time>2026-04-05T11:44:21.701Z</time></trkpt><trkpt lat="44.7246316" lon="9.6526611"><ele>1148.2857142857142</ele><time>2026-04-05T11:44:25.653Z</time></trkpt><trkpt lat="44.7246907" lon="9.6527069"><ele>1146.4285714285716</ele><time>2026-04-05T11:44:29.594Z</time></trkpt><trkpt lat="44.7247482" lon="9.6527796"><ele>1144.5714285714287</ele><time>2026-04-05T11:44:34.702Z</time></trkpt><trkpt lat="44.7247922" lon="9.6528494"><ele>1142.7142857142858</ele><time>2026-04-05T11:44:39.693Z</time></trkpt><trkpt lat="44.7248497" lon="9.6528962"><ele>1140.857142857143</ele><time>2026-04-05T11:44:45.596Z</time></trkpt><trkpt lat="44.7249148" lon="9.652955"><ele>1139.0</ele><time>2026-04-05T11:44:51.654Z</time></trkpt><trkpt lat="44.7249777" lon="9.6529991"><ele>1139.0</ele><time>2026-04-05T11:44:58.673Z</time></trkpt><trkpt lat="44.7250484" lon="9.6530203"><ele>1139.0</ele><time>2026-04-05T11:45:03.718Z</time></trkpt><trkpt lat="44.7251059" lon="9.6530635"><ele>1139.0</ele><time>2026-04-05T11:45:08.71Z</time></trkpt><trkpt lat="44.7251671" lon="9.653103"><ele>1139.0</ele><time>2026-04-05T11:45:13.702Z</time></trkpt><trkpt lat="44.7252266" lon="9.6531577"><ele>1139.0</ele><time>2026-04-05T11:45:21.71Z</time></trkpt><trkpt lat="44.7252935" lon="9.6531777"><ele>1139.0</ele><time>2026-04-05T11:45:26.577Z</time></trkpt><trkpt lat="44.7253467" lon="9.6532265"><ele>1139.0</ele><time>2026-04-05T11:45:31.597Z</time></trkpt><trkpt lat="44.725397" lon="9.6532873"><ele>1138.0</ele><time>2026-04-05T11:45:37.477Z</time></trkpt><trkpt lat="44.7254377" lon="9.6533714"><ele>1137.0</ele><time>2026-04-05T11:45:41.673Z</time></trkpt><trkpt lat="44.7254754" lon="9.6534522"><ele>1136.0</ele><time>2026-04-05T11:45:45.629Z</time></trkpt><trkpt lat="44.7255428" lon="9.6534709"><ele>1135.0</ele><time>2026-04-05T11:45:50.726Z</time></trkpt><trkpt lat="44.7255995" lon="9.6535095"><ele>1134.0</ele><time>2026-04-05T11:45:57.736Z</time></trkpt><trkpt lat="44.7256478" lon="9.6535773"><ele>1133.0</ele><time>2026-04-05T11:46:02.686Z</time></trkpt><trkpt lat="44.7256973" lon="9.6536431"><ele>1132.0</ele><time>2026-04-05T11:46:08.718Z</time></trkpt><trkpt lat="44.725755" lon="9.6536957"><ele>1132.0</ele><time>2026-04-05T11:46:13.709Z</time></trkpt><trkpt lat="44.725812" lon="9.6537496"><ele>1132.0</ele><time>2026-04-05T11:46:18.735Z</time></trkpt><trkpt lat="44.725863" lon="9.6538326"><ele>1132.0</ele><time>2026-04-05T11:46:25.669Z</time></trkpt><trkpt lat="44.7258884" lon="9.6539147"><ele>1132.0</ele><time>2026-04-05T11:46:28.601Z</time></trkpt><trkpt lat="44.7259214" lon="9.6540052"><ele>1132.0</ele><time>2026-04-05T11:46:33.694Z</time></trkpt><trkpt lat="44.7259553" lon="9.6540815"><ele>1132.0</ele><time>2026-04-05T11:46:37.686Z</time></trkpt><trkpt lat="44.7260249" lon="9.6540961"><ele>1132.0</ele><time>2026-04-05T11:46:42.693Z</time></trkpt><trkpt lat="44.7260885" lon="9.6541125"><ele>1128.857142857143</ele><time>2026-04-05T11:46:47.637Z</time></trkpt><trkpt lat="44.7261503" lon="9.6541469"><ele>1125.7142857142858</ele><time>2026-04-05T11:46:53.646Z</time></trkpt><trkpt lat="44.7262017" lon="9.6542215"><ele>1122.5714285714287</ele><time>2026-04-05T11:47:00.694Z</time></trkpt><trkpt lat="44.7262517" lon="9.6542927"><ele>1119.4285714285716</ele><time>2026-04-05T11:47:06.646Z</time></trkpt><trkpt lat="44.7263161" lon="9.6543547"><ele>1116.2857142857142</ele><time>2026-04-05T11:47:11.638Z</time></trkpt><trkpt lat="44.726381" lon="9.6544036"><ele>1113.1428571428573</ele><time>2026-04-05T11:47:15.693Z</time></trkpt><trkpt lat="44.7264424" lon="9.6544552"><ele>1110.0</ele><time>2026-04-05T11:47:21.621Z</time></trkpt><trkpt lat="44.7265015" lon="9.6544968"><ele>1110.0000000000002</ele><time>2026-04-05T11:47:27.653Z</time></trkpt><trkpt lat="44.7265737" lon="9.6545255"><ele>1110.0</ele><time>2026-04-05T11:47:33.686Z</time></trkpt><trkpt lat="44.7266067" lon="9.6546131"><ele>1110.0</ele><time>2026-04-05T11:47:39.718Z</time></trkpt><trkpt lat="44.7266222" lon="9.6547012"><ele>1110.0</ele><time>2026-04-05T11:47:43.67Z</time></trkpt><trkpt lat="44.7266238" lon="9.6548109"><ele>1110.0</ele><time>2026-04-05T11:47:47.622Z</time></trkpt><trkpt lat="44.7266114" lon="9.6549108"><ele>1110.0000000000002</ele><time>2026-04-05T11:47:51.677Z</time></trkpt><trkpt lat="44.7266227" lon="9.655002"><ele>1110.0</ele><time>2026-04-05T11:47:55.63Z</time></trkpt><trkpt lat="44.7266453" lon="9.6550932"><ele>1110.0000000000002</ele><time>2026-04-05T11:48:00.622Z</time></trkpt><trkpt lat="44.7266433" lon="9.6551968"><ele>1110.0</ele><time>2026-04-05T11:48:06.653Z</time></trkpt><trkpt lat="44.7266204" lon="9.6552822"><ele>1110.0</ele><time>2026-04-05T11:48:12.686Z</time></trkpt><trkpt lat="44.7265923" lon="9.6553636"><ele>1110.0</ele><time>2026-04-05T11:48:18.614Z</time></trkpt><trkpt lat="44.7265655" lon="9.6554552"><ele>1110.0</ele><time>2026-04-05T11:48:24.646Z</time></trkpt><trkpt lat="44.7265421" lon="9.655557"><ele>1110.0000000000002</ele><time>2026-04-05T11:48:30.714Z</time></trkpt><trkpt lat="44.7265043" lon="9.6556419"><ele>1110.0</ele><time>2026-04-05T11:48:37.646Z</time></trkpt><trkpt lat="44.7264568" lon="9.6557207"><ele>1108.1428571428573</ele><time>2026-04-05T11:48:42.638Z</time></trkpt><trkpt lat="44.7264116" lon="9.6557993"><ele>1106.2857142857142</ele><time>2026-04-05T11:48:46.694Z</time></trkpt><trkpt lat="44.726364" lon="9.6558577"><ele>1104.4285714285716</ele><time>2026-04-05T11:48:50.646Z</time></trkpt><trkpt lat="44.7263076" lon="9.6559276"><ele>1102.5714285714287</ele><time>2026-04-05T11:48:56.614Z</time></trkpt><trkpt lat="44.7263006" lon="9.656028"><ele>1100.7142857142858</ele><time>2026-04-05T11:49:01.694Z</time></trkpt><trkpt lat="44.7263557" lon="9.656088"><ele>1098.857142857143</ele><time>2026-04-05T11:49:06.662Z</time></trkpt><trkpt lat="44.7263679" lon="9.6561804"><ele>1097.0</ele><time>2026-04-05T11:49:15.71Z</time></trkpt><trkpt lat="44.7263821" lon="9.6562757"><ele>1094.857142857143</ele><time>2026-04-05T11:49:26.629Z</time></trkpt><trkpt lat="44.7263973" lon="9.6563725"><ele>1092.7142857142858</ele><time>2026-04-05T11:49:33.694Z</time></trkpt><trkpt lat="44.7264096" lon="9.6564614"><ele>1090.5714285714287</ele><time>2026-04-05T11:49:42.455Z</time></trkpt><trkpt lat="44.7264364" lon="9.6565444"><ele>1088.4285714285716</ele><time>2026-04-05T11:49:48.294Z</time></trkpt><trkpt lat="44.7264545" lon="9.6566443"><ele>1086.2857142857142</ele><time>2026-04-05T11:49:53.377Z</time></trkpt><trkpt lat="44.7264493" lon="9.6567412"><ele>1084.1428571428573</ele><time>2026-04-05T11:50:02.677Z</time></trkpt><trkpt lat="44.726432" lon="9.6568273"><ele>1082.0</ele><time>2026-04-05T11:50:07.672Z</time></trkpt><trkpt lat="44.7263927" lon="9.6569121"><ele>1078.7142857142858</ele><time>2026-04-05T11:50:13.638Z</time></trkpt><trkpt lat="44.7263889" lon="9.6570039"><ele>1075.4285714285716</ele><time>2026-04-05T11:50:20.654Z</time></trkpt><trkpt lat="44.7263899" lon="9.6570926"><ele>1072.142857142857</ele><time>2026-04-05T11:50:31.634Z</time></trkpt><trkpt lat="44.7263696" lon="9.6571775"><ele>1068.857142857143</ele><time>2026-04-05T11:50:38.617Z</time></trkpt><trkpt lat="44.7263239" lon="9.6572564"><ele>1065.5714285714284</ele><time>2026-04-05T11:50:45.67Z</time></trkpt><trkpt lat="44.7262998" lon="9.6573468"><ele>1062.2857142857142</ele><time>2026-04-05T11:50:54.718Z</time></trkpt><trkpt lat="44.7262933" lon="9.657441"><ele>1059.0</ele><time>2026-04-05T11:51:03.717Z</time></trkpt><trkpt lat="44.7262617" lon="9.6575265"><ele>1059.0</ele><time>2026-04-05T11:51:13.646Z</time></trkpt><trkpt lat="44.7262302" lon="9.657612"><ele>1059.0</ele><time>2026-04-05T11:51:19.677Z</time></trkpt><trkpt lat="44.7262066" lon="9.6577085"><ele>1059.0</ele><time>2026-04-05T11:51:26.645Z</time></trkpt><trkpt lat="44.7262116" lon="9.6578107"><ele>1059.0</ele><time>2026-04-05T11:51:32.678Z</time></trkpt><trkpt lat="44.726203" lon="9.6579196"><ele>1059.0</ele><time>2026-04-05T11:51:37.669Z</time></trkpt><trkpt lat="44.7261647" lon="9.6580034"><ele>1059.0</ele><time>2026-04-05T11:51:41.696Z</time></trkpt><trkpt lat="44.7261171" lon="9.6580734"><ele>1059.0</ele><time>2026-04-05T11:51:48.553Z</time></trkpt><trkpt lat="44.7261027" lon="9.6581761"><ele>1056.7142857142858</ele><time>2026-04-05T11:51:54.576Z</time></trkpt><trkpt lat="44.7260966" lon="9.6582729"><ele>1054.4285714285713</ele><time>2026-04-05T11:52:00.713Z</time></trkpt><trkpt lat="44.7260847" lon="9.6583745"><ele>1052.142857142857</ele><time>2026-04-05T11:52:06.602Z</time></trkpt><trkpt lat="44.7260879" lon="9.6584707"><ele>1049.857142857143</ele><time>2026-04-05T11:52:10.638Z</time></trkpt><trkpt lat="44.726083" lon="9.6585591"><ele>1047.5714285714284</ele><time>2026-04-05T11:52:22.702Z</time></trkpt><trkpt lat="44.7261274" lon="9.6586264"><ele>1045.2857142857142</ele><time>2026-04-05T11:52:32.734Z</time></trkpt><trkpt lat="44.7261926" lon="9.6586357"><ele>1043.0</ele><time>2026-04-05T11:52:43.71Z</time></trkpt><trkpt lat="44.7262552" lon="9.6586564"><ele>1041.4285714285713</ele><time>2026-04-05T11:52:58.686Z</time></trkpt><trkpt lat="44.7263197" lon="9.658674"><ele>1039.857142857143</ele><time>2026-04-05T11:53:09.71Z</time></trkpt><trkpt lat="44.7263884" lon="9.6587244"><ele>1038.2857142857142</ele><time>2026-04-05T11:53:30.717Z</time></trkpt><trkpt lat="44.7264504" lon="9.6587694"><ele>1036.7142857142858</ele><time>2026-04-05T11:53:47.553Z</time></trkpt><trkpt lat="44.7265109" lon="9.6588187"><ele>1035.142857142857</ele><time>2026-04-05T11:53:54.637Z</time></trkpt><trkpt lat="44.7265739" lon="9.6588588"><ele>1033.5714285714284</ele><time>2026-04-05T11:54:01.71Z</time></trkpt><trkpt lat="44.7266241" lon="9.658921"><ele>1032.0</ele><time>2026-04-05T11:54:07.638Z</time></trkpt><trkpt lat="44.7266601" lon="9.6589996"><ele>1031.9999999999998</ele><time>2026-04-05T11:54:12.63Z</time></trkpt><trkpt lat="44.7266611" lon="9.6590944"><ele>1032.0</ele><time>2026-04-05T11:54:17.621Z</time></trkpt><trkpt lat="44.7266874" lon="9.6591887"><ele>1032.0</ele><time>2026-04-05T11:54:23.654Z</time></trkpt><trkpt lat="44.7267298" lon="9.6592769"><ele>1032.0</ele><time>2026-04-05T11:54:29.685Z</time></trkpt><trkpt lat="44.7267771" lon="9.6593532"><ele>1032.0</ele><time>2026-04-05T11:54:34.614Z</time></trkpt><trkpt lat="44.7268237" lon="9.6594196"><ele>1031.9999999999998</ele><time>2026-04-05T11:54:39.634Z</time></trkpt><trkpt lat="44.7268447" lon="9.6595175"><ele>1032.0</ele><time>2026-04-05T11:54:47.678Z</time></trkpt><trkpt lat="44.7268356" lon="9.659622"><ele>1030.9999999999998</ele><time>2026-04-05T11:54:53.709Z</time></trkpt><trkpt lat="44.7268185" lon="9.6597178"><ele>1030.0</ele><time>2026-04-05T11:54:59.638Z</time></trkpt><trkpt lat="44.7267806" lon="9.6597905"><ele>1029.0</ele><time>2026-04-05T11:55:04.629Z</time></trkpt><trkpt lat="44.7267378" lon="9.659874"><ele>1028.0</ele><time>2026-04-05T11:55:09.622Z</time></trkpt><trkpt lat="44.7267074" lon="9.6599606"><ele>1027.0</ele><time>2026-04-05T11:55:15.653Z</time></trkpt><trkpt lat="44.7266791" lon="9.6600489"><ele>1025.9999999999998</ele><time>2026-04-05T11:55:21.656Z</time></trkpt><trkpt lat="44.7266507" lon="9.6601424"><ele>1025.0</ele><time>2026-04-05T11:55:27.614Z</time></trkpt><trkpt lat="44.7266534" lon="9.660247"><ele>1024.8571428571427</ele><time>2026-04-05T11:55:33.645Z</time></trkpt><trkpt lat="44.7266416" lon="9.6603426"><ele>1024.7142857142858</ele><time>2026-04-05T11:55:39.678Z</time></trkpt><trkpt lat="44.7266324" lon="9.6604356"><ele>1024.5714285714284</ele><time>2026-04-05T11:55:46.645Z</time></trkpt><trkpt lat="44.7266358" lon="9.6605255"><ele>1024.4285714285713</ele><time>2026-04-05T11:55:51.638Z</time></trkpt><trkpt lat="44.7266304" lon="9.6606166"><ele>1024.2857142857142</ele><time>2026-04-05T11:55:57.67Z</time></trkpt><trkpt lat="44.7266264" lon="9.6607178"><ele>1024.142857142857</ele><time>2026-04-05T11:56:02.661Z</time></trkpt><trkpt lat="44.7266338" lon="9.6608075"><ele>1024.0</ele><time>2026-04-05T11:56:06.613Z</time></trkpt><trkpt lat="44.7266567" lon="9.6608997"><ele>1024.0</ele><time>2026-04-05T11:56:14.621Z</time></trkpt><trkpt lat="44.7266646" lon="9.6610018"><ele>1023.9999999999999</ele><time>2026-04-05T11:56:19.695Z</time></trkpt><trkpt lat="44.7266742" lon="9.6610977"><ele>1024.0</ele><time>2026-04-05T11:56:25.646Z</time></trkpt><trkpt lat="44.7266796" lon="9.6611876"><ele>1024.0</ele><time>2026-04-05T11:56:31.678Z</time></trkpt><trkpt lat="44.7266839" lon="9.661294"><ele>1023.9999999999999</ele><time>2026-04-05T11:56:38.645Z</time></trkpt><trkpt lat="44.7266585" lon="9.6613751"><ele>1024.0</ele><time>2026-04-05T11:56:43.638Z</time></trkpt><trkpt lat="44.7266204" lon="9.661455"><ele>1024.0</ele><time>2026-04-05T11:56:48.629Z</time></trkpt><trkpt lat="44.7265869" lon="9.6615415"><ele>1022.5714285714286</ele><time>2026-04-05T11:56:54.661Z</time></trkpt><trkpt lat="44.7265694" lon="9.66163"><ele>1021.1428571428571</ele><time>2026-04-05T11:56:59.615Z</time></trkpt><trkpt lat="44.7265495" lon="9.6617243"><ele>1019.7142857142857</ele><time>2026-04-05T11:57:04.646Z</time></trkpt><trkpt lat="44.7265477" lon="9.6618138"><ele>1018.2857142857142</ele><time>2026-04-05T11:57:13.694Z</time></trkpt><trkpt lat="44.7265469" lon="9.6619145"><ele>1016.8571428571429</ele><time>2026-04-05T11:57:19.726Z</time></trkpt><trkpt lat="44.726565" lon="9.6620095"><ele>1015.4285714285713</ele><time>2026-04-05T11:57:25.654Z</time></trkpt><trkpt lat="44.7265765" lon="9.6621006"><ele>1014.0</ele><time>2026-04-05T11:57:30.645Z</time></trkpt><trkpt lat="44.7265803" lon="9.6622036"><ele>1013.4285714285713</ele><time>2026-04-05T11:57:37.614Z</time></trkpt><trkpt lat="44.7265927" lon="9.6622989"><ele>1012.8571428571429</ele><time>2026-04-05T11:57:44.685Z</time></trkpt><trkpt lat="44.7266166" lon="9.6623875"><ele>1012.2857142857142</ele><time>2026-04-05T11:57:50.718Z</time></trkpt><trkpt lat="44.7266794" lon="9.6624154"><ele>1011.7142857142857</ele><time>2026-04-05T11:58:02.678Z</time></trkpt><trkpt lat="44.7267539" lon="9.6624457"><ele>1011.1428571428571</ele><time>2026-04-05T11:58:07.536Z</time></trkpt><trkpt lat="44.7268237" lon="9.662489"><ele>1010.5714285714286</ele><time>2026-04-05T11:58:11.736Z</time></trkpt><trkpt lat="44.7268965" lon="9.6625034"><ele>1010.0</ele><time>2026-04-05T11:58:18.736Z</time></trkpt><trkpt lat="44.7269679" lon="9.6625376"><ele>1008.4285714285713</ele><time>2026-04-05T11:58:25.662Z</time></trkpt><trkpt lat="44.7270311" lon="9.6625656"><ele>1006.8571428571428</ele><time>2026-04-05T11:58:29.717Z</time></trkpt><trkpt lat="44.7270943" lon="9.6626108"><ele>1005.2857142857142</ele><time>2026-04-05T11:58:37.725Z</time></trkpt><trkpt lat="44.7271661" lon="9.6626301"><ele>1003.7142857142858</ele><time>2026-04-05T11:58:43.653Z</time></trkpt><trkpt lat="44.7272366" lon="9.6626171"><ele>1002.1428571428572</ele><time>2026-04-05T11:58:49.686Z</time></trkpt><trkpt lat="44.7272961" lon="9.6626493"><ele>1000.5714285714287</ele><time>2026-04-05T11:58:57.694Z</time></trkpt><trkpt lat="44.7273632" lon="9.6626269"><ele>999.0</ele><time>2026-04-05T11:59:03.622Z</time></trkpt><trkpt lat="44.7274229" lon="9.6625779"><ele>999.0</ele><time>2026-04-05T11:59:08.717Z</time></trkpt><trkpt lat="44.7274866" lon="9.662591"><ele>999.0000000000001</ele><time>2026-04-05T11:59:19.638Z</time></trkpt><trkpt lat="44.7275492" lon="9.662636"><ele>999.0</ele><time>2026-04-05T11:59:24.797Z</time></trkpt><trkpt lat="44.7276101" lon="9.662674"><ele>999.0</ele><time>2026-04-05T11:59:29.726Z</time></trkpt><trkpt lat="44.7276735" lon="9.6627207"><ele>999.0000000000001</ele><time>2026-04-05T11:59:36.694Z</time></trkpt><trkpt lat="44.7277248" lon="9.6627876"><ele>999.0</ele><time>2026-04-05T11:59:41.686Z</time></trkpt><trkpt lat="44.7277711" lon="9.6628577"><ele>999.0</ele><time>2026-04-05T12:00:46.686Z</time></trkpt><trkpt lat="44.7278255" lon="9.6629389"><ele>986.0</ele><time>2026-04-05T12:00:51.678Z</time></trkpt></trkseg></trk></gpx>